Darstellungsparameter: Aktuell verwendete Einstellungen:
Skalierung der Graphiken ... ?
xyx+y,   Skalierungsfaktor:      Skalierung: Modus: x, Faktor: 1
Darstellungszeitraum ... ?
Vom - - bis: - -   Zeitraum: 20.07.2016 - 19.08.2016
Min/Max/Avg-Anzeige ... ?
Zeige MMA aktuell
Zeige MMA Monat
Zeige MMA alles
Zeige --A aktuell
Zeige --A Monat
Zeige --A alles
Keine MMA-Anzeige
MMA:
Keine MMA-Graphiken
MMA-Basis: 20.07.2016 - 19.08.2016
Quicknavigation für Darstellung... ?
Tage:      1T, 2T, 3T, 5T -1T -2T -3T -5T +1T +2T +3T +5T
Wochen: 1W, 2W, 3W -1W -2W -3W +1W +2W +3W
Monate: 1M, 3M, 6M -1M -3M -6M +1M +3M +6M
Jahre:    1J, 3J, 5J, 10J -1J -3J -5J -10J +1J +3J +5J +10J
Nutze für die Darstellung ... ?
Originaldaten oder Mittelwerte auf ...
Stundenbasis Tagesbasis Wochenbasis
Monatsbasis Jahresbasis      Datenbasis: Original-Daten
Darstellen als:
Statistik (Auto) Statistik J:M      Darstellung:
Zur Graphik,    zurück zur Übersicht aller Sensoren.
 
Tabellarische Datenbersicht: ?
 
Sensor: Nr:Datum:Temp:Feuchte:Taupunkt:
Aussen-T/F 1 20-07-2016 00:00:00 18.9 C 81 % 15.57 C
2 20-07-2016 00:05:00 18.8 C 82 % 15.66 C
3 20-07-2016 00:10:00 18.6 C 82 % 15.47 C
4 20-07-2016 00:15:00 18.4 C 83 % 15.46 C
5 20-07-2016 00:20:00 18.3 C 83 % 15.36 C
6 20-07-2016 00:25:00 18.2 C 84 % 15.45 C
7 20-07-2016 00:30:00 18.2 C 84 % 15.45 C
8 20-07-2016 00:35:00 18.1 C 84 % 15.35 C
9 20-07-2016 00:40:00 18 C 85 % 15.44 C
10 20-07-2016 00:45:00 17.9 C 85 % 15.34 C
11 20-07-2016 00:50:00 17.8 C 86 % 15.43 C
12 20-07-2016 00:55:00 17.8 C 86 % 15.43 C
13 20-07-2016 01:00:00 17.7 C 86 % 15.33 C
14 20-07-2016 01:05:00 17.6 C 87 % 15.41 C
15 20-07-2016 01:10:00 17.5 C 87 % 15.31 C
16 20-07-2016 01:15:00 17.4 C 87 % 15.21 C
17 20-07-2016 01:20:00 17.3 C 87 % 15.12 C
18 20-07-2016 01:25:00 17.3 C 87 % 15.12 C
19 20-07-2016 01:30:00 17.3 C 88 % 15.29 C
20 20-07-2016 01:35:00 17.3 C 88 % 15.29 C
21 20-07-2016 01:40:00 17.2 C 88 % 15.2 C
22 20-07-2016 01:45:00 17.1 C 88 % 15.1 C
23 20-07-2016 01:50:00 17.1 C 88 % 15.1 C
24 20-07-2016 01:55:00 17.1 C 88 % 15.1 C
25 20-07-2016 02:00:00 17 C 88 % 15 C
Sensor: Nr:Datum:Temp:Feuchte:Taupunkt:
Aussen-T/F 26 20-07-2016 02:05:00 17 C 89 % 15.17 C
27 20-07-2016 02:10:00 16.9 C 89 % 15.08 C
28 20-07-2016 02:15:00 16.9 C 89 % 15.08 C
29 20-07-2016 02:20:00 16.8 C 89 % 14.98 C
30 20-07-2016 02:25:00 16.7 C 89 % 14.88 C
31 20-07-2016 02:30:00 16.7 C 89 % 14.88 C
32 20-07-2016 02:35:00 16.6 C 90 % 14.95 C
33 20-07-2016 02:40:00 16.6 C 90 % 14.95 C
34 20-07-2016 02:45:00 16.5 C 90 % 14.85 C
35 20-07-2016 02:50:00 16.5 C 90 % 14.85 C
36 20-07-2016 02:55:00 16.4 C 90 % 14.76 C
37 20-07-2016 03:00:00 16.4 C 90 % 14.76 C
38 20-07-2016 03:05:00 16.3 C 91 % 14.83 C
39 20-07-2016 03:10:00 16.3 C 91 % 14.83 C
40 20-07-2016 03:15:00 16.2 C 91 % 14.73 C
41 20-07-2016 03:20:00 16.2 C 91 % 14.73 C
42 20-07-2016 03:25:00 16.1 C 91 % 14.63 C
43 20-07-2016 03:30:00 16.1 C 91 % 14.63 C
44 20-07-2016 03:35:00 15.9 C 91 % 14.43 C
45 20-07-2016 03:40:00 15.9 C 91 % 14.43 C
46 20-07-2016 03:45:00 15.9 C 92 % 14.6 C
47 20-07-2016 03:50:00 15.8 C 92 % 14.5 C
48 20-07-2016 03:55:00 15.8 C 92 % 14.5 C
49 20-07-2016 04:00:00 15.7 C 92 % 14.4 C
50 20-07-2016 04:05:00 15.8 C 93 % 14.67 C
Sensor: Nr:Datum:Temp:Feuchte:Taupunkt:
Aussen-T/F 51 20-07-2016 04:10:00 15.7 C 92 % 14.4 C
52 20-07-2016 04:15:00 15.6 C 92 % 14.31 C
53 20-07-2016 04:20:00 15.6 C 92 % 14.31 C
54 20-07-2016 04:25:00 15.6 C 92 % 14.31 C
55 20-07-2016 04:30:00 15.5 C 92 % 14.21 C
56 20-07-2016 04:35:00 15.4 C 93 % 14.27 C
57 20-07-2016 04:40:00 15.3 C 93 % 14.18 C
58 20-07-2016 04:45:00 15.3 C 93 % 14.18 C
59 20-07-2016 04:50:00 15.3 C 93 % 14.18 C
60 20-07-2016 04:55:00 15.3 C 93 % 14.18 C
61 20-07-2016 05:00:00 15.3 C 93 % 14.18 C
62 20-07-2016 05:05:00 15.2 C 93 % 14.08 C
63 20-07-2016 05:10:00 15.2 C 93 % 14.08 C
64 20-07-2016 05:15:00 15.1 C 93 % 13.98 C
65 20-07-2016 05:20:00 15.1 C 93 % 13.98 C
66 20-07-2016 05:25:00 15 C 93 % 13.88 C
67 20-07-2016 05:30:00 15 C 94 % 14.04 C
68 20-07-2016 05:35:00 14.9 C 93 % 13.78 C
69 20-07-2016 05:40:00 14.9 C 94 % 13.94 C
70 20-07-2016 05:45:00 14.9 C 94 % 13.94 C
71 20-07-2016 05:50:00 14.8 C 94 % 13.84 C
72 20-07-2016 05:55:00 14.8 C 94 % 13.84 C
73 20-07-2016 06:00:00 14.8 C 94 % 13.84 C
74 20-07-2016 06:05:00 14.9 C 94 % 13.94 C
75 20-07-2016 06:10:00 14.8 C 94 % 13.84 C
Sensor: Nr:Datum:Temp:Feuchte:Taupunkt:
Aussen-T/F 76 20-07-2016 06:15:00 14.8 C 94 % 13.84 C
77 20-07-2016 06:20:00 14.7 C 94 % 13.74 C
78 20-07-2016 06:25:00 14.7 C 94 % 13.74 C
79 20-07-2016 06:30:00 14.7 C 94 % 13.74 C
80 20-07-2016 06:35:00 14.7 C 94 % 13.74 C
81 20-07-2016 06:40:00 14.8 C 94 % 13.84 C
82 20-07-2016 06:45:00 14.8 C 94 % 13.84 C
83 20-07-2016 06:50:00 14.8 C 94 % 13.84 C
84 20-07-2016 06:55:00 14.8 C 95 % 14.01 C
85 20-07-2016 07:00:00 14.9 C 95 % 14.11 C
86 20-07-2016 07:05:00 14.9 C 95 % 14.11 C
87 20-07-2016 07:10:00 15 C 95 % 14.21 C
88 20-07-2016 07:15:00 15.1 C 95 % 14.31 C
89 20-07-2016 07:20:00 15.2 C 95 % 14.4 C
90 20-07-2016 07:25:00 15.2 C 95 % 14.4 C
91 20-07-2016 07:30:00 15.2 C 95 % 14.4 C
92 20-07-2016 07:35:00 15.3 C 95 % 14.5 C
93 20-07-2016 07:40:00 15.3 C 95 % 14.5 C
94 20-07-2016 07:45:00 15.4 C 95 % 14.6 C
95 20-07-2016 07:50:00 15.4 C 95 % 14.6 C
96 20-07-2016 07:55:00 15.5 C 95 % 14.7 C
97 20-07-2016 08:00:00 15.6 C 95 % 14.8 C
98 20-07-2016 08:05:00 15.7 C 95 % 14.9 C
99 20-07-2016 08:10:00 15.8 C 95 % 15 C
100 20-07-2016 08:15:00 15.8 C 95 % 15 C
Sensor: Nr:Datum:Temp:Feuchte:Taupunkt:
Aussen-T/F 101 20-07-2016 08:20:00 15.9 C 95 % 15.1 C
102 20-07-2016 08:25:00 16 C 95 % 15.2 C
103 20-07-2016 08:30:00 16.1 C 95 % 15.3 C
104 20-07-2016 08:35:00 16.2 C 96 % 15.56 C
105 20-07-2016 08:40:00 16.4 C 95 % 15.6 C
106 20-07-2016 08:45:00 16.6 C 96 % 15.96 C
107 20-07-2016 08:50:00 16.7 C 96 % 16.06 C
108 20-07-2016 08:55:00 16.9 C 96 % 16.26 C
109 20-07-2016 09:00:00 17.1 C 96 % 16.46 C
110 20-07-2016 09:05:00 17.2 C 96 % 16.56 C
111 20-07-2016 09:10:00 17.3 C 96 % 16.66 C
112 20-07-2016 09:15:00 17.5 C 95 % 16.69 C
113 20-07-2016 09:20:00 17.6 C 95 % 16.79 C
114 20-07-2016 09:25:00 17.8 C 95 % 16.99 C
115 20-07-2016 09:30:00 17.9 C 95 % 17.09 C
116 20-07-2016 09:35:00 18.1 C 95 % 17.29 C
117 20-07-2016 09:40:00 18.2 C 95 % 17.39 C
118 20-07-2016 09:45:00 18.4 C 94 % 17.42 C
119 20-07-2016 09:50:00 18.5 C 94 % 17.52 C
120 20-07-2016 09:55:00 18.7 C 94 % 17.71 C
121 20-07-2016 10:00:00 18.9 C 94 % 17.91 C
122 20-07-2016 10:05:00 19.1 C 93 % 17.94 C
123 20-07-2016 10:10:00 19.3 C 93 % 18.14 C
124 20-07-2016 10:15:00 19.5 C 93 % 18.34 C
125 20-07-2016 10:20:00 19.7 C 92 % 18.36 C
Sensor: Nr:Datum:Temp:Feuchte:Taupunkt:
Aussen-T/F 126 20-07-2016 10:25:00 20.1 C 92 % 18.76 C
127 20-07-2016 10:30:00 20.6 C 91 % 19.08 C
128 20-07-2016 10:35:00 21.1 C 88 % 19.03 C
129 20-07-2016 10:40:00 21.7 C 88 % 19.62 C
130 20-07-2016 10:45:00 22.2 C 86 % 19.75 C
131 20-07-2016 10:50:00 22.4 C 85 % 19.75 C
132 20-07-2016 10:55:00 22.4 C 85 % 19.75 C
133 20-07-2016 11:00:00 22.6 C 85 % 19.95 C
134 20-07-2016 11:05:00 22.7 C 85 % 20.05 C
135 20-07-2016 11:10:00 22.8 C 83 % 19.76 C
136 20-07-2016 11:15:00 23 C 81 % 19.56 C
137 20-07-2016 11:20:00 23.2 C 80 % 19.56 C
138 20-07-2016 11:25:00 23.7 C 75 % 19 C
139 20-07-2016 11:30:00 24.3 C 81 % 20.83 C
140 20-07-2016 11:35:00 24.7 C 75 % 19.97 C
141 20-07-2016 11:40:00 24.9 C 76 % 20.38 C
142 20-07-2016 11:45:00 25.1 C 78 % 20.99 C
143 20-07-2016 11:50:00 25.2 C 72 % 19.79 C
144 20-07-2016 11:55:00 25.7 C 71 % 20.04 C
145 20-07-2016 12:00:00 26 C 70 % 20.1 C
146 20-07-2016 12:05:00 26.2 C 72 % 20.75 C
147 20-07-2016 12:10:00 26.3 C 72 % 20.85 C
148 20-07-2016 12:15:00 26.5 C 65 % 19.38 C
149 20-07-2016 12:20:00 26.8 C 66 % 19.91 C
150 20-07-2016 12:25:00 27 C 66 % 20.1 C
Sensor: Nr:Datum:Temp:Feuchte:Taupunkt:
Aussen-T/F 151 20-07-2016 12:30:00 27.1 C 67 % 20.44 C
152 20-07-2016 12:35:00 27.2 C 64 % 19.79 C
153 20-07-2016 12:40:00 27.5 C 64 % 20.08 C
154 20-07-2016 12:45:00 27.8 C 62 % 19.85 C
155 20-07-2016 12:50:00 27.9 C 63 % 20.2 C
156 20-07-2016 12:55:00 28.1 C 59 % 19.33 C
157 20-07-2016 13:00:00 28.3 C 58 % 19.24 C
158 20-07-2016 13:05:00 28.6 C 60 % 20.07 C
159 20-07-2016 13:10:00 28.6 C 59 % 19.8 C
160 20-07-2016 13:15:00 28.7 C 58 % 19.62 C
161 20-07-2016 13:20:00 28.8 C 61 % 20.52 C
162 20-07-2016 13:25:00 28.9 C 60 % 20.35 C
163 20-07-2016 13:30:00 29 C 58 % 19.9 C
164 20-07-2016 13:35:00 29.2 C 57 % 19.8 C
165 20-07-2016 13:40:00 29.6 C 54 % 19.3 C
166 20-07-2016 13:45:00 29.7 C 58 % 20.55 C
167 20-07-2016 13:50:00 29.6 C 59 % 20.73 C
168 20-07-2016 13:55:00 29.6 C 57 % 20.17 C
169 20-07-2016 14:00:00 29.5 C 64 % 21.97 C
170 20-07-2016 14:05:00 29.4 C 57 % 19.99 C
171 20-07-2016 14:10:00 29.6 C 56 % 19.89 C
172 20-07-2016 14:15:00 29.8 C 57 % 20.36 C
173 20-07-2016 14:20:00 29.9 C 55 % 19.88 C
174 20-07-2016 14:25:00 30.2 C 55 % 20.15 C
175 20-07-2016 14:30:00 30.6 C 53 % 19.92 C
Sensor: Nr:Datum:Temp:Feuchte:Taupunkt:
Aussen-T/F 176 20-07-2016 14:35:00 30.7 C 58 % 21.48 C
177 20-07-2016 14:40:00 30.6 C 52 % 19.62 C
178 20-07-2016 14:45:00 30.7 C 55 % 20.62 C
179 20-07-2016 14:50:00 30.7 C 52 % 19.71 C
180 20-07-2016 14:55:00 30.8 C 52 % 19.8 C
181 20-07-2016 15:00:00 30.9 C 53 % 20.2 C
182 20-07-2016 15:05:00 31 C 52 % 19.98 C
183 20-07-2016 15:10:00 31.1 C 52 % 20.08 C
184 20-07-2016 15:15:00 31.4 C 52 % 20.35 C
185 20-07-2016 15:20:00 31.6 C 50 % 19.9 C
186 20-07-2016 15:25:00 31.9 C 51 % 20.5 C
187 20-07-2016 15:30:00 32.2 C 49 % 20.12 C
188 20-07-2016 15:35:00 32.4 C 49 % 20.31 C
189 20-07-2016 15:40:00 32.8 C 48 % 20.34 C
190 20-07-2016 15:45:00 33.3 C 48 % 20.79 C
191 20-07-2016 15:50:00 33.7 C 46 % 20.46 C
192 20-07-2016 15:55:00 34 C 52 % 22.74 C
193 20-07-2016 16:00:00 34.1 C 48 % 21.52 C
194 20-07-2016 16:05:00 34.2 C 43 % 19.82 C
195 20-07-2016 16:10:00 34.3 C 43 % 19.91 C
196 20-07-2016 16:15:00 34.3 C 46 % 21.01 C
197 20-07-2016 16:20:00 34.4 C 45 % 20.74 C
198 20-07-2016 16:25:00 34.6 C 41 % 19.41 C
199 20-07-2016 16:30:00 34.8 C 48 % 22.16 C
200 20-07-2016 16:35:00 34.9 C 47 % 21.9 C
Sensor: Nr:Datum:Temp:Feuchte:Taupunkt:
Aussen-T/F 201 20-07-2016 16:40:00 35.1 C 41 % 19.86 C
202 20-07-2016 16:45:00 35.3 C 48 % 22.61 C
203 20-07-2016 16:50:00 35.2 C 45 % 21.46 C
204 20-07-2016 16:55:00 35.3 C 49 % 22.95 C
205 20-07-2016 17:00:00 35.3 C 42 % 20.43 C
206 20-07-2016 17:05:00 35.3 C 50 % 23.28 C
207 20-07-2016 17:10:00 35.4 C 53 % 24.35 C
208 20-07-2016 17:15:00 35.2 C 50 % 23.19 C
209 20-07-2016 17:20:00 35.1 C 53 % 24.07 C
210 20-07-2016 17:25:00 34.9 C 51 % 23.25 C
211 20-07-2016 17:30:00 34.8 C 53 % 23.79 C
212 20-07-2016 17:35:00 34.6 C 53 % 23.61 C
213 20-07-2016 17:40:00 34.3 C 49 % 22.04 C
214 20-07-2016 17:45:00 34.3 C 54 % 23.64 C
215 20-07-2016 17:50:00 34.1 C 52 % 22.83 C
216 20-07-2016 17:55:00 33.7 C 55 % 23.39 C
217 20-07-2016 18:00:00 33.2 C 55 % 22.93 C
218 20-07-2016 18:05:00 32.6 C 57 % 22.96 C
219 20-07-2016 18:10:00 32.1 C 57 % 22.5 C
220 20-07-2016 18:15:00 32.2 C 61 % 23.72 C
221 20-07-2016 18:20:00 32.4 C 58 % 23.07 C
222 20-07-2016 18:25:00 32.8 C 52 % 21.64 C
223 20-07-2016 18:30:00 33.2 C 52 % 22.01 C
224 20-07-2016 18:35:00 33.4 C 52 % 22.19 C
225 20-07-2016 18:40:00 33.6 C 51 % 22.06 C
Sensor: Nr:Datum:Temp:Feuchte:Taupunkt:
Aussen-T/F 226 20-07-2016 18:45:00 33.4 C 52 % 22.19 C
227 20-07-2016 18:50:00 33.2 C 51 % 21.69 C
228 20-07-2016 18:55:00 33.1 C 53 % 22.23 C
229 20-07-2016 19:00:00 32.9 C 55 % 22.65 C
230 20-07-2016 19:05:00 32.8 C 54 % 22.26 C
231 20-07-2016 19:10:00 32.7 C 54 % 22.17 C
232 20-07-2016 19:15:00 32.1 C 52 % 21 C
233 20-07-2016 19:20:00 31.3 C 54 % 20.87 C
234 20-07-2016 19:25:00 30.3 C 57 % 20.83 C
235 20-07-2016 19:30:00 29.5 C 57 % 20.08 C
236 20-07-2016 19:35:00 28.8 C 58 % 19.71 C
237 20-07-2016 19:40:00 28.4 C 59 % 19.61 C
238 20-07-2016 19:45:00 28.1 C 61 % 19.87 C
239 20-07-2016 19:50:00 27.8 C 59 % 19.05 C
240 20-07-2016 19:55:00 27.7 C 61 % 19.49 C
241 20-07-2016 20:00:00 27.4 C 63 % 19.73 C
242 20-07-2016 20:05:00 27.2 C 62 % 19.28 C
243 20-07-2016 20:10:00 27.1 C 63 % 19.45 C
244 20-07-2016 20:15:00 26.9 C 63 % 19.26 C
245 20-07-2016 20:20:00 26.7 C 65 % 19.57 C
246 20-07-2016 20:25:00 26.6 C 64 % 19.23 C
247 20-07-2016 20:30:00 26.5 C 64 % 19.13 C
248 20-07-2016 20:35:00 26.4 C 64 % 19.04 C
249 20-07-2016 20:40:00 26.3 C 64 % 18.94 C
250 20-07-2016 20:45:00 26.2 C 65 % 19.1 C
Sensor: Nr:Datum:Temp:Feuchte:Taupunkt:
Aussen-T/F 251 20-07-2016 20:50:00 26.2 C 64 % 18.85 C
252 20-07-2016 20:55:00 26.1 C 65 % 19 C
253 20-07-2016 21:00:00 26.1 C 66 % 19.25 C
254 20-07-2016 21:05:00 26 C 66 % 19.15 C
255 20-07-2016 21:10:00 25.9 C 65 % 18.81 C
256 20-07-2016 21:15:00 25.9 C 66 % 19.06 C
257 20-07-2016 21:20:00 25.9 C 67 % 19.3 C
258 20-07-2016 21:25:00 25.9 C 68 % 19.54 C
259 20-07-2016 21:30:00 25.9 C 68 % 19.54 C
260 20-07-2016 21:35:00 25.8 C 67 % 19.2 C
261 20-07-2016 21:40:00 25.8 C 68 % 19.44 C
262 20-07-2016 21:45:00 25.8 C 68 % 19.44 C
263 20-07-2016 21:50:00 25.8 C 68 % 19.44 C
264 20-07-2016 21:55:00 25.8 C 68 % 19.44 C
265 20-07-2016 22:00:00 25.8 C 68 % 19.44 C
266 20-07-2016 22:05:00 25.7 C 69 % 19.58 C
267 20-07-2016 22:10:00 25.6 C 70 % 19.72 C
268 20-07-2016 22:15:00 25.4 C 70 % 19.53 C
269 20-07-2016 22:20:00 25.3 C 70 % 19.43 C
270 20-07-2016 22:25:00 25.3 C 69 % 19.2 C
271 20-07-2016 22:30:00 25.2 C 69 % 19.11 C
272 20-07-2016 22:35:00 25.2 C 70 % 19.34 C
273 20-07-2016 22:40:00 25.1 C 71 % 19.47 C
274 20-07-2016 22:45:00 24.9 C 71 % 19.28 C
275 20-07-2016 22:50:00 24.8 C 72 % 19.41 C
Sensor: Nr:Datum:Temp:Feuchte:Taupunkt:
Aussen-T/F 276 20-07-2016 22:55:00 24.7 C 72 % 19.31 C
277 20-07-2016 23:00:00 24.4 C 71 % 18.8 C
278 20-07-2016 23:05:00 24.3 C 71 % 18.7 C
279 20-07-2016 23:10:00 24.2 C 71 % 18.61 C
280 20-07-2016 23:15:00 24.1 C 73 % 18.96 C
281 20-07-2016 23:20:00 23.9 C 72 % 18.54 C
282 20-07-2016 23:25:00 23.9 C 74 % 18.98 C
283 20-07-2016 23:30:00 23.9 C 75 % 19.2 C
284 20-07-2016 23:35:00 23.7 C 75 % 19 C
285 20-07-2016 23:40:00 23.6 C 75 % 18.91 C
286 20-07-2016 23:45:00 23.6 C 75 % 18.91 C
287 20-07-2016 23:50:00 23.6 C 74 % 18.69 C
288 20-07-2016 23:55:00 23.6 C 73 % 18.48 C
289 21-07-2016 00:00:00 23.7 C 72 % 18.35 C
290 21-07-2016 00:05:00 23.8 C 71 % 18.22 C
291 21-07-2016 00:10:00 23.9 C 73 % 18.76 C
292 21-07-2016 00:15:00 23.8 C 74 % 18.89 C
293 21-07-2016 00:20:00 23.7 C 74 % 18.79 C
294 21-07-2016 00:25:00 23.6 C 74 % 18.69 C
295 21-07-2016 00:30:00 23.4 C 75 % 18.71 C
296 21-07-2016 00:35:00 23.4 C 74 % 18.5 C
297 21-07-2016 00:40:00 23.3 C 75 % 18.62 C
298 21-07-2016 00:45:00 23.2 C 74 % 18.31 C
299 21-07-2016 00:50:00 23.1 C 76 % 18.64 C
300 21-07-2016 00:55:00 23.1 C 76 % 18.64 C
Sensor: Nr:Datum:Temp:Feuchte:Taupunkt:
Aussen-T/F 301 21-07-2016 01:00:00 23 C 76 % 18.54 C
302 21-07-2016 01:05:00 23 C 77 % 18.75 C
303 21-07-2016 01:10:00 23.1 C 78 % 19.05 C
304 21-07-2016 01:15:00 23 C 78 % 18.96 C
305 21-07-2016 01:20:00 22.9 C 77 % 18.65 C
306 21-07-2016 01:25:00 22.8 C 77 % 18.56 C
307 21-07-2016 01:30:00 22.8 C 78 % 18.76 C
308 21-07-2016 01:35:00 22.7 C 77 % 18.46 C
309 21-07-2016 01:40:00 22.7 C 77 % 18.46 C
310 21-07-2016 01:45:00 22.6 C 78 % 18.57 C
311 21-07-2016 01:50:00 22.6 C 77 % 18.36 C
312 21-07-2016 01:55:00 22.4 C 77 % 18.17 C
313 21-07-2016 02:00:00 22.4 C 78 % 18.37 C
314 21-07-2016 02:05:00 22.4 C 78 % 18.37 C
315 21-07-2016 02:10:00 22.4 C 78 % 18.37 C
316 21-07-2016 02:15:00 22.3 C 77 % 18.07 C
317 21-07-2016 02:20:00 22.3 C 78 % 18.28 C
318 21-07-2016 02:25:00 22.3 C 77 % 18.07 C
319 21-07-2016 02:30:00 22.4 C 78 % 18.37 C
320 21-07-2016 02:35:00 22.4 C 77 % 18.17 C
321 21-07-2016 02:40:00 22.5 C 79 % 18.67 C
322 21-07-2016 02:45:00 22.5 C 78 % 18.47 C
323 21-07-2016 02:50:00 22.4 C 78 % 18.37 C
324 21-07-2016 02:55:00 22.4 C 78 % 18.37 C
325 21-07-2016 03:00:00 22.3 C 77 % 18.07 C
Sensor: Nr:Datum:Temp:Feuchte:Taupunkt:
Aussen-T/F 326 21-07-2016 03:05:00 22.3 C 77 % 18.07 C
327 21-07-2016 03:10:00 22.2 C 78 % 18.18 C
328 21-07-2016 03:15:00 22.2 C 79 % 18.38 C
329 21-07-2016 03:20:00 22.2 C 80 % 18.58 C
330 21-07-2016 03:25:00 22.2 C 80 % 18.58 C
331 21-07-2016 03:30:00 22.3 C 77 % 18.07 C
332 21-07-2016 03:35:00 22.6 C 76 % 18.15 C
333 21-07-2016 03:40:00 22.8 C 75 % 18.14 C
334 21-07-2016 03:45:00 22.9 C 75 % 18.23 C
335 21-07-2016 03:50:00 23 C 75 % 18.33 C
336 21-07-2016 03:55:00 23 C 76 % 18.54 C
337 21-07-2016 04:00:00 22.9 C 76 % 18.44 C
338 21-07-2016 04:05:00 22.8 C 76 % 18.35 C
339 21-07-2016 04:10:00 22.8 C 76 % 18.35 C
340 21-07-2016 04:15:00 22.8 C 76 % 18.35 C
341 21-07-2016 04:20:00 22.8 C 76 % 18.35 C
342 21-07-2016 04:25:00 22.8 C 77 % 18.56 C
343 21-07-2016 04:30:00 22.7 C 77 % 18.46 C
344 21-07-2016 04:35:00 22.6 C 78 % 18.57 C
345 21-07-2016 04:40:00 22.5 C 78 % 18.47 C
346 21-07-2016 04:45:00 22.4 C 78 % 18.37 C
347 21-07-2016 04:50:00 22.3 C 78 % 18.28 C
348 21-07-2016 04:55:00 22.3 C 77 % 18.07 C
349 21-07-2016 05:00:00 22.3 C 77 % 18.07 C
350 21-07-2016 05:05:00 22.3 C 77 % 18.07 C
Sensor: Nr:Datum:Temp:Feuchte:Taupunkt:
Aussen-T/F 351 21-07-2016 05:10:00 22.3 C 77 % 18.07 C
352 21-07-2016 05:15:00 22.2 C 78 % 18.18 C
353 21-07-2016 05:20:00 22.1 C 78 % 18.08 C
354 21-07-2016 05:25:00 22 C 79 % 18.19 C
355 21-07-2016 05:30:00 21.8 C 81 % 18.39 C
356 21-07-2016 05:35:00 21.6 C 81 % 18.2 C
357 21-07-2016 05:40:00 21.4 C 82 % 18.2 C
358 21-07-2016 05:45:00 21.2 C 82 % 18 C
359 21-07-2016 05:50:00 21.1 C 83 % 18.1 C
360 21-07-2016 05:55:00 20.9 C 83 % 17.9 C
361 21-07-2016 06:00:00 20.8 C 84 % 18 C
362 21-07-2016 06:05:00 20.8 C 83 % 17.81 C
363 21-07-2016 06:10:00 20.7 C 84 % 17.9 C
364 21-07-2016 06:15:00 20.7 C 84 % 17.9 C
365 21-07-2016 06:20:00 20.6 C 84 % 17.8 C
366 21-07-2016 06:25:00 20.6 C 84 % 17.8 C
367 21-07-2016 06:30:00 20.6 C 84 % 17.8 C
368 21-07-2016 06:35:00 20.5 C 85 % 17.89 C
369 21-07-2016 06:40:00 20.4 C 85 % 17.79 C
370 21-07-2016 06:45:00 20.4 C 86 % 17.98 C
371 21-07-2016 06:50:00 20.3 C 86 % 17.88 C
372 21-07-2016 06:55:00 20.3 C 86 % 17.88 C
373 21-07-2016 07:00:00 20.2 C 86 % 17.78 C
374 21-07-2016 07:05:00 20.2 C 86 % 17.78 C
375 21-07-2016 07:10:00 20.1 C 85 % 17.5 C
Sensor: Nr:Datum:Temp:Feuchte:Taupunkt:
Aussen-T/F 376 21-07-2016 07:15:00 20.1 C 84 % 17.31 C
377 21-07-2016 07:20:00 20.2 C 85 % 17.6 C
378 21-07-2016 07:25:00 20.2 C 85 % 17.6 C
379 21-07-2016 07:30:00 20.2 C 86 % 17.78 C
380 21-07-2016 07:35:00 20.2 C 86 % 17.78 C
381 21-07-2016 07:40:00 20.1 C 87 % 17.87 C
382 21-07-2016 07:45:00 19.9 C 88 % 17.85 C
383 21-07-2016 07:50:00 19.8 C 88 % 17.75 C
384 21-07-2016 07:55:00 19.7 C 89 % 17.84 C
385 21-07-2016 08:00:00 19.7 C 89 % 17.84 C
386 21-07-2016 08:05:00 19.6 C 89 % 17.74 C
387 21-07-2016 08:10:00 19.5 C 90 % 17.82 C
388 21-07-2016 08:15:00 19.5 C 91 % 17.99 C
389 21-07-2016 08:20:00 19.4 C 91 % 17.89 C
390 21-07-2016 08:25:00 19.2 C 92 % 17.87 C
391 21-07-2016 08:30:00 19.1 C 92 % 17.77 C
392 21-07-2016 08:35:00 19.1 C 92 % 17.77 C
393 21-07-2016 08:40:00 19.1 C 93 % 17.94 C
394 21-07-2016 08:45:00 19 C 93 % 17.84 C
395 21-07-2016 08:50:00 19.1 C 93 % 17.94 C
396 21-07-2016 08:55:00 19.1 C 94 % 18.11 C
397 21-07-2016 09:00:00 19.1 C 94 % 18.11 C
398 21-07-2016 09:05:00 19 C 94 % 18.01 C
399 21-07-2016 09:10:00 19.1 C 94 % 18.11 C
400 21-07-2016 09:15:00 19.1 C 94 % 18.11 C
Sensor: Nr:Datum:Temp:Feuchte:Taupunkt:
Aussen-T/F 401 21-07-2016 09:20:00 19.2 C 94 % 18.21 C
402 21-07-2016 09:25:00 19.2 C 94 % 18.21 C
403 21-07-2016 09:30:00 19.2 C 94 % 18.21 C
404 21-07-2016 09:35:00 19.3 C 95 % 18.48 C
405 21-07-2016 09:40:00 19.3 C 95 % 18.48 C
406 21-07-2016 09:45:00 19.3 C 95 % 18.48 C
407 21-07-2016 09:50:00 19.4 C 95 % 18.58 C
408 21-07-2016 09:55:00 19.4 C 95 % 18.58 C
409 21-07-2016 10:00:00 19.5 C 95 % 18.68 C
410 21-07-2016 10:05:00 19.6 C 95 % 18.78 C
411 21-07-2016 10:10:00 19.6 C 95 % 18.78 C
412 21-07-2016 10:15:00 19.7 C 95 % 18.88 C
413 21-07-2016 10:20:00 19.8 C 95 % 18.98 C
414 21-07-2016 10:25:00 19.8 C 95 % 18.98 C
415 21-07-2016 10:30:00 19.9 C 95 % 19.07 C
416 21-07-2016 10:35:00 19.9 C 95 % 19.07 C
417 21-07-2016 10:40:00 20 C 95 % 19.17 C
418 21-07-2016 10:45:00 20.1 C 95 % 19.27 C
419 21-07-2016 10:50:00 20.1 C 95 % 19.27 C
420 21-07-2016 10:55:00 20.2 C 95 % 19.37 C
421 21-07-2016 11:00:00 20.2 C 95 % 19.37 C
422 21-07-2016 11:05:00 20.2 C 95 % 19.37 C
423 21-07-2016 11:10:00 20.3 C 95 % 19.47 C
424 21-07-2016 11:15:00 20.4 C 95 % 19.57 C
425 21-07-2016 11:20:00 20.5 C 95 % 19.67 C
Sensor: Nr:Datum:Temp:Feuchte:Taupunkt:
Aussen-T/F 426 21-07-2016 11:25:00 20.6 C 95 % 19.77 C
427 21-07-2016 11:30:00 20.7 C 95 % 19.87 C
428 21-07-2016 11:35:00 20.9 C 95 % 20.07 C
429 21-07-2016 11:40:00 21 C 95 % 20.17 C
430 21-07-2016 11:45:00 21.1 C 94 % 20.1 C
431 21-07-2016 11:50:00 21.2 C 94 % 20.19 C
432 21-07-2016 11:55:00 21.2 C 93 % 20.02 C
433 21-07-2016 12:00:00 21.3 C 93 % 20.12 C
434 21-07-2016 12:05:00 21.4 C 93 % 20.22 C
435 21-07-2016 12:10:00 21.6 C 91 % 20.07 C
436 21-07-2016 12:15:00 21.8 C 91 % 20.26 C
437 21-07-2016 12:20:00 21.9 C 90 % 20.18 C
438 21-07-2016 12:25:00 22.3 C 91 % 20.76 C
439 21-07-2016 12:30:00 22.6 C 92 % 21.23 C
440 21-07-2016 12:35:00 22.6 C 89 % 20.69 C
441 21-07-2016 12:40:00 22.7 C 91 % 21.15 C
442 21-07-2016 12:45:00 22.9 C 91 % 21.35 C
443 21-07-2016 12:50:00 23 C 91 % 21.45 C
444 21-07-2016 12:55:00 22.8 C 87 % 20.52 C
445 21-07-2016 13:00:00 22.9 C 89 % 20.99 C
446 21-07-2016 13:05:00 22.9 C 88 % 20.81 C
447 21-07-2016 13:10:00 23 C 87 % 20.72 C
448 21-07-2016 13:15:00 23.1 C 86 % 20.63 C
449 21-07-2016 13:20:00 23.2 C 83 % 20.15 C
450 21-07-2016 13:25:00 23.2 C 81 % 19.76 C
Sensor: Nr:Datum:Temp:Feuchte:Taupunkt:
Aussen-T/F 451 21-07-2016 13:30:00 23.4 C 82 % 20.15 C
452 21-07-2016 13:35:00 23.4 C 80 % 19.75 C
453 21-07-2016 13:40:00 23.6 C 80 % 19.95 C
454 21-07-2016 13:45:00 23.7 C 82 % 20.44 C
455 21-07-2016 13:50:00 23.8 C 80 % 20.14 C
456 21-07-2016 13:55:00 23.9 C 82 % 20.64 C
457 21-07-2016 14:00:00 23.9 C 79 % 20.03 C
458 21-07-2016 14:05:00 23.9 C 77 % 19.62 C
459 21-07-2016 14:10:00 24.3 C 79 % 20.42 C
460 21-07-2016 14:15:00 24.5 C 76 % 19.99 C
461 21-07-2016 14:20:00 24.7 C 76 % 20.18 C
462 21-07-2016 14:25:00 24.9 C 76 % 20.38 C
463 21-07-2016 14:30:00 25 C 75 % 20.26 C
464 21-07-2016 14:35:00 25.2 C 72 % 19.79 C
465 21-07-2016 14:40:00 25.4 C 74 % 20.43 C
466 21-07-2016 14:45:00 25.6 C 75 % 20.84 C
467 21-07-2016 14:50:00 25.6 C 72 % 20.17 C
468 21-07-2016 14:55:00 25.7 C 72 % 20.27 C
469 21-07-2016 15:00:00 25.8 C 76 % 21.24 C
470 21-07-2016 15:05:00 25.9 C 71 % 20.24 C
471 21-07-2016 15:10:00 26.3 C 73 % 21.07 C
472 21-07-2016 15:15:00 26.5 C 71 % 20.81 C
473 21-07-2016 15:20:00 26.6 C 70 % 20.67 C
474 21-07-2016 15:25:00 26.5 C 78 % 22.35 C
475 21-07-2016 15:30:00 26.3 C 78 % 22.15 C
Sensor: Nr:Datum:Temp:Feuchte:Taupunkt:
Aussen-T/F 476 21-07-2016 15:35:00 25.9 C 79 % 21.97 C
477 21-07-2016 15:40:00 25.6 C 81 % 22.09 C
478 21-07-2016 15:45:00 25.2 C 82 % 21.91 C
479 21-07-2016 15:50:00 24.9 C 82 % 21.61 C
480 21-07-2016 15:55:00 24.6 C 84 % 21.71 C
481 21-07-2016 16:00:00 24.4 C 85 % 21.71 C
482 21-07-2016 16:05:00 24.1 C 85 % 21.42 C
483 21-07-2016 16:10:00 23.9 C 86 % 21.41 C
484 21-07-2016 16:15:00 23.6 C 86 % 21.12 C
485 21-07-2016 16:20:00 23.3 C 78 % 19.25 C
486 21-07-2016 16:25:00 23.3 C 81 % 19.85 C
487 21-07-2016 16:30:00 23.1 C 78 % 19.05 C
488 21-07-2016 16:35:00 22.8 C 80 % 19.17 C
489 21-07-2016 16:40:00 22.6 C 83 % 19.56 C
490 21-07-2016 16:45:00 22.3 C 85 % 19.65 C
491 21-07-2016 16:50:00 22 C 86 % 19.55 C
492 21-07-2016 16:55:00 21.8 C 87 % 19.54 C
493 21-07-2016 17:00:00 21.6 C 88 % 19.53 C
494 21-07-2016 17:05:00 21.3 C 89 % 19.41 C
495 21-07-2016 17:10:00 21.2 C 90 % 19.49 C
496 21-07-2016 17:15:00 21 C 90 % 19.3 C
497 21-07-2016 17:20:00 20.9 C 91 % 19.37 C
498 21-07-2016 17:25:00 20.8 C 91 % 19.28 C
499 21-07-2016 17:30:00 20.7 C 91 % 19.18 C
500 21-07-2016 17:35:00 20.5 C 91 % 18.98 C
Sensor: Nr:Datum:Temp:Feuchte:Taupunkt:
Aussen-T/F 501 21-07-2016 17:40:00 20.3 C 91 % 18.78 C
502 21-07-2016 17:45:00 20.2 C 91 % 18.68 C
503 21-07-2016 17:50:00 20.1 C 92 % 18.76 C
504 21-07-2016 17:55:00 20 C 92 % 18.66 C
505 21-07-2016 18:00:00 19.9 C 92 % 18.56 C
506 21-07-2016 18:05:00 19.8 C 93 % 18.63 C
507 21-07-2016 18:10:00 19.8 C 93 % 18.63 C
508 21-07-2016 18:15:00 19.8 C 93 % 18.63 C
509 21-07-2016 18:20:00 19.8 C 94 % 18.81 C
510 21-07-2016 18:25:00 19.8 C 94 % 18.81 C
511 21-07-2016 18:30:00 19.8 C 94 % 18.81 C
512 21-07-2016 18:35:00 19.7 C 94 % 18.71 C
513 21-07-2016 18:40:00 19.7 C 94 % 18.71 C
514 21-07-2016 18:45:00 19.7 C 94 % 18.71 C
515 21-07-2016 18:50:00 19.7 C 94 % 18.71 C
516 21-07-2016 18:55:00 19.7 C 94 % 18.71 C
517 21-07-2016 19:00:00 19.7 C 94 % 18.71 C
518 21-07-2016 19:05:00 19.6 C 94 % 18.61 C
519 21-07-2016 19:10:00 19.6 C 94 % 18.61 C
520 21-07-2016 19:15:00 19.6 C 94 % 18.61 C
521 21-07-2016 19:20:00 19.6 C 94 % 18.61 C
522 21-07-2016 19:25:00 19.6 C 95 % 18.78 C
523 21-07-2016 19:30:00 19.6 C 95 % 18.78 C
524 21-07-2016 19:35:00 19.6 C 95 % 18.78 C
525 21-07-2016 19:40:00 19.6 C 95 % 18.78 C
Sensor: Nr:Datum:Temp:Feuchte:Taupunkt:
Aussen-T/F 526 21-07-2016 19:45:00 19.6 C 95 % 18.78 C
527 21-07-2016 19:50:00 19.6 C 95 % 18.78 C
528 21-07-2016 19:55:00 19.5 C 95 % 18.68 C
529 21-07-2016 20:00:00 19.4 C 95 % 18.58 C
530 21-07-2016 20:05:00 19.2 C 94 % 18.21 C
531 21-07-2016 20:10:00 19.1 C 94 % 18.11 C
532 21-07-2016 20:15:00 19 C 95 % 18.18 C
533 21-07-2016 20:20:00 18.9 C 95 % 18.08 C
534 21-07-2016 20:25:00 18.9 C 95 % 18.08 C
535 21-07-2016 20:30:00 18.9 C 95 % 18.08 C
536 21-07-2016 20:35:00 19 C 95 % 18.18 C
537 21-07-2016 20:40:00 18.9 C 95 % 18.08 C
538 21-07-2016 20:45:00 18.9 C 95 % 18.08 C
539 21-07-2016 20:50:00 18.9 C 95 % 18.08 C
540 21-07-2016 20:55:00 19 C 95 % 18.18 C
541 21-07-2016 21:00:00 19 C 96 % 18.35 C
542 21-07-2016 21:05:00 19.1 C 96 % 18.45 C
543 21-07-2016 21:10:00 19 C 95 % 18.18 C
544 21-07-2016 21:15:00 19 C 95 % 18.18 C
545 21-07-2016 21:20:00 18.9 C 95 % 18.08 C
546 21-07-2016 21:25:00 18.9 C 95 % 18.08 C
547 21-07-2016 21:30:00 18.9 C 95 % 18.08 C
548 21-07-2016 21:35:00 18.9 C 95 % 18.08 C
549 21-07-2016 21:40:00 18.9 C 95 % 18.08 C
550 21-07-2016 21:45:00 18.8 C 95 % 17.98 C
Sensor: Nr:Datum:Temp:Feuchte:Taupunkt:
Aussen-T/F 551 21-07-2016 21:50:00 18.8 C 95 % 17.98 C
552 21-07-2016 21:55:00 18.8 C 96 % 18.15 C
553 21-07-2016 22:00:00 18.7 C 96 % 18.05 C
554 21-07-2016 22:05:00 18.7 C 96 % 18.05 C
555 21-07-2016 22:10:00 18.7 C 96 % 18.05 C
556 21-07-2016 22:15:00 18.7 C 95 % 17.88 C
557 21-07-2016 22:20:00 18.6 C 95 % 17.78 C
558 21-07-2016 22:25:00 18.6 C 96 % 17.95 C
559 21-07-2016 22:30:00 18.7 C 96 % 18.05 C
560 21-07-2016 22:35:00 18.6 C 96 % 17.95 C
561 21-07-2016 22:40:00 18.6 C 96 % 17.95 C
562 21-07-2016 22:45:00 18.6 C 96 % 17.95 C
563 21-07-2016 22:50:00 18.6 C 96 % 17.95 C
564 21-07-2016 22:55:00 18.6 C 96 % 17.95 C
565 21-07-2016 23:00:00 18.5 C 96 % 17.85 C
566 21-07-2016 23:05:00 18.5 C 96 % 17.85 C
567 21-07-2016 23:10:00 18.4 C 96 % 17.75 C
568 21-07-2016 23:15:00 18.4 C 96 % 17.75 C
569 21-07-2016 23:20:00 18.4 C 96 % 17.75 C
570 21-07-2016 23:25:00 18.4 C 96 % 17.75 C
571 21-07-2016 23:30:00 18.4 C 96 % 17.75 C
572 21-07-2016 23:35:00 18.4 C 96 % 17.75 C
573 21-07-2016 23:40:00 18.4 C 96 % 17.75 C
574 21-07-2016 23:45:00 18.4 C 96 % 17.75 C
575 21-07-2016 23:50:00 18.3 C 96 % 17.65 C
Sensor: Nr:Datum:Temp:Feuchte:Taupunkt:
Aussen-T/F 576 21-07-2016 23:55:00 18.3 C 96 % 17.65 C
577 22-07-2016 00:00:00 18.3 C 96 % 17.65 C
578 22-07-2016 00:05:00 18.3 C 96 % 17.65 C
579 22-07-2016 00:10:00 18.3 C 96 % 17.65 C
580 22-07-2016 00:15:00 18.3 C 96 % 17.65 C
581 22-07-2016 00:20:00 18.3 C 96 % 17.65 C
582 22-07-2016 00:25:00 18.3 C 96 % 17.65 C
583 22-07-2016 00:30:00 18.2 C 96 % 17.55 C
584 22-07-2016 00:35:00 18.2 C 96 % 17.55 C
585 22-07-2016 00:40:00 18.2 C 96 % 17.55 C
586 22-07-2016 00:45:00 18.2 C 96 % 17.55 C
587 22-07-2016 00:50:00 18.2 C 96 % 17.55 C
588 22-07-2016 00:55:00 18.1 C 96 % 17.45 C
589 22-07-2016 01:00:00 18.1 C 96 % 17.45 C
590 22-07-2016 01:05:00 18.1 C 96 % 17.45 C
591 22-07-2016 01:10:00 18.1 C 96 % 17.45 C
592 22-07-2016 01:15:00 18.1 C 96 % 17.45 C
593 22-07-2016 01:20:00 18.1 C 96 % 17.45 C
594 22-07-2016 01:25:00 18.1 C 96 % 17.45 C
595 22-07-2016 01:30:00 18 C 96 % 17.35 C
596 22-07-2016 01:35:00 18 C 96 % 17.35 C
597 22-07-2016 01:40:00 18 C 96 % 17.35 C
598 22-07-2016 01:45:00 18 C 96 % 17.35 C
599 22-07-2016 01:50:00 18 C 96 % 17.35 C
600 22-07-2016 01:55:00 18 C 96 % 17.35 C
Sensor: Nr:Datum:Temp:Feuchte:Taupunkt:
Aussen-T/F 601 22-07-2016 02:00:00 18 C 96 % 17.35 C
602 22-07-2016 02:05:00 18 C 96 % 17.35 C
603 22-07-2016 02:10:00 18.1 C 97 % 17.62 C
604 22-07-2016 02:15:00 18.1 C 97 % 17.62 C
605 22-07-2016 02:20:00 18.1 C 96 % 17.45 C
606 22-07-2016 02:25:00 18 C 96 % 17.35 C
607 22-07-2016 02:30:00 17.9 C 96 % 17.25 C
608 22-07-2016 02:35:00 17.9 C 96 % 17.25 C
609 22-07-2016 02:40:00 17.9 C 96 % 17.25 C
610 22-07-2016 02:45:00 17.8 C 96 % 17.15 C
611 22-07-2016 02:50:00 17.8 C 96 % 17.15 C
612 22-07-2016 02:55:00 17.8 C 96 % 17.15 C
613 22-07-2016 03:00:00 17.7 C 96 % 17.05 C
614 22-07-2016 03:05:00 17.6 C 96 % 16.95 C
615 22-07-2016 03:10:00 17.5 C 96 % 16.85 C
616 22-07-2016 03:15:00 17.4 C 96 % 16.76 C
617 22-07-2016 03:20:00 17.3 C 96 % 16.66 C
618 22-07-2016 03:25:00 17.3 C 96 % 16.66 C
619 22-07-2016 03:30:00 17.3 C 96 % 16.66 C
620 22-07-2016 03:35:00 17.3 C 96 % 16.66 C
621 22-07-2016 03:40:00 17.2 C 96 % 16.56 C
622 22-07-2016 03:45:00 17.2 C 96 % 16.56 C
623 22-07-2016 03:50:00 17.2 C 96 % 16.56 C
624 22-07-2016 03:55:00 17.2 C 96 % 16.56 C
625 22-07-2016 04:00:00 17.2 C 96 % 16.56 C
Sensor: Nr:Datum:Temp:Feuchte:Taupunkt:
Aussen-T/F 626 22-07-2016 04:05:00 17.2 C 96 % 16.56 C
627 22-07-2016 04:10:00 17.2 C 96 % 16.56 C
628 22-07-2016 04:15:00 17.1 C 96 % 16.46 C
629 22-07-2016 04:20:00 17.1 C 96 % 16.46 C
630 22-07-2016 04:25:00 17 C 96 % 16.36 C
631 22-07-2016 04:30:00 16.9 C 97 % 16.42 C
632 22-07-2016 04:35:00 16.9 C 97 % 16.42 C
633 22-07-2016 04:40:00 16.9 C 97 % 16.42 C
634 22-07-2016 04:45:00 16.9 C 97 % 16.42 C
635 22-07-2016 04:50:00 16.9 C 96 % 16.26 C
636 22-07-2016 04:55:00 16.8 C 96 % 16.16 C
637 22-07-2016 05:00:00 16.8 C 96 % 16.16 C
638 22-07-2016 05:05:00 16.8 C 96 % 16.16 C
639 22-07-2016 05:10:00 16.8 C 96 % 16.16 C
640 22-07-2016 05:15:00 16.8 C 96 % 16.16 C
641 22-07-2016 05:20:00 16.8 C 97 % 16.32 C
642 22-07-2016 05:25:00 16.8 C 97 % 16.32 C
643 22-07-2016 05:30:00 16.8 C 97 % 16.32 C
644 22-07-2016 05:35:00 16.7 C 97 % 16.22 C
645 22-07-2016 05:40:00 16.6 C 97 % 16.12 C
646 22-07-2016 05:45:00 16.6 C 97 % 16.12 C
647 22-07-2016 05:50:00 16.6 C 96 % 15.96 C
648 22-07-2016 05:55:00 16.5 C 96 % 15.86 C
649 22-07-2016 06:00:00 16.5 C 96 % 15.86 C
650 22-07-2016 06:05:00 16.5 C 97 % 16.02 C
Sensor: Nr:Datum:Temp:Feuchte:Taupunkt:
Aussen-T/F 651 22-07-2016 06:10:00 16.6 C 97 % 16.12 C
652 22-07-2016 06:15:00 16.6 C 97 % 16.12 C
653 22-07-2016 06:20:00 16.6 C 97 % 16.12 C
654 22-07-2016 06:25:00 16.6 C 97 % 16.12 C
655 22-07-2016 06:30:00 16.6 C 97 % 16.12 C
656 22-07-2016 06:35:00 16.6 C 97 % 16.12 C
657 22-07-2016 06:40:00 16.7 C 97 % 16.22 C
658 22-07-2016 06:45:00 16.8 C 97 % 16.32 C
659 22-07-2016 06:50:00 16.9 C 97 % 16.42 C
660 22-07-2016 06:55:00 17.1 C 97 % 16.62 C
661 22-07-2016 07:00:00 17.1 C 97 % 16.62 C
662 22-07-2016 07:05:00 17.2 C 97 % 16.72 C
663 22-07-2016 07:10:00 17.2 C 97 % 16.72 C
664 22-07-2016 07:15:00 17.2 C 97 % 16.72 C
665 22-07-2016 07:20:00 17.3 C 97 % 16.82 C
666 22-07-2016 07:25:00 17.3 C 97 % 16.82 C
667 22-07-2016 07:30:00 17.3 C 97 % 16.82 C
668 22-07-2016 07:35:00 17.4 C 97 % 16.92 C
669 22-07-2016 07:40:00 17.4 C 97 % 16.92 C
670 22-07-2016 07:45:00 17.5 C 97 % 17.02 C
671 22-07-2016 07:50:00 17.6 C 97 % 17.12 C
672 22-07-2016 07:55:00 17.6 C 97 % 17.12 C
673 22-07-2016 08:00:00 17.6 C 97 % 17.12 C
674 22-07-2016 08:05:00 17.6 C 97 % 17.12 C
675 22-07-2016 08:10:00 17.6 C 97 % 17.12 C
Sensor: Nr:Datum:Temp:Feuchte:Taupunkt:
Aussen-T/F 676 22-07-2016 08:15:00 17.6 C 97 % 17.12 C
677 22-07-2016 08:20:00 17.5 C 97 % 17.02 C
678 22-07-2016 08:25:00 17.5 C 97 % 17.02 C
679 22-07-2016 08:30:00 17.5 C 97 % 17.02 C
680 22-07-2016 08:35:00 17.6 C 97 % 17.12 C
681 22-07-2016 08:40:00 17.7 C 97 % 17.22 C
682 22-07-2016 08:45:00 17.6 C 97 % 17.12 C
683 22-07-2016 08:50:00 17.6 C 97 % 17.12 C
684 22-07-2016 08:55:00 17.6 C 97 % 17.12 C
685 22-07-2016 09:00:00 17.7 C 97 % 17.22 C
686 22-07-2016 09:05:00 17.7 C 97 % 17.22 C
687 22-07-2016 09:10:00 17.8 C 97 % 17.32 C
688 22-07-2016 09:15:00 18 C 97 % 17.52 C
689 22-07-2016 09:20:00 18.2 C 97 % 17.72 C
690 22-07-2016 09:25:00 18.2 C 97 % 17.72 C
691 22-07-2016 09:30:00 18.3 C 97 % 17.82 C
692 22-07-2016 09:35:00 18.3 C 97 % 17.82 C
693 22-07-2016 09:40:00 18.4 C 97 % 17.91 C
694 22-07-2016 09:45:00 18.6 C 97 % 18.11 C
695 22-07-2016 09:50:00 18.6 C 97 % 18.11 C
696 22-07-2016 09:55:00 18.7 C 97 % 18.21 C
697 22-07-2016 10:00:00 18.7 C 97 % 18.21 C
698 22-07-2016 10:05:00 18.8 C 97 % 18.31 C
699 22-07-2016 10:10:00 18.9 C 97 % 18.41 C
700 22-07-2016 10:15:00 19 C 97 % 18.51 C
Sensor: Nr:Datum:Temp:Feuchte:Taupunkt:
Aussen-T/F 701 22-07-2016 10:20:00 19.2 C 97 % 18.71 C
702 22-07-2016 10:25:00 19.3 C 97 % 18.81 C
703 22-07-2016 10:30:00 19.4 C 97 % 18.91 C
704 22-07-2016 10:35:00 19.5 C 97 % 19.01 C
705 22-07-2016 10:40:00 19.6 C 97 % 19.11 C
706 22-07-2016 10:45:00 19.8 C 97 % 19.31 C
707 22-07-2016 10:50:00 20 C 97 % 19.51 C
708 22-07-2016 10:55:00 20.2 C 97 % 19.71 C
709 22-07-2016 11:00:00 20.3 C 97 % 19.81 C
710 22-07-2016 11:05:00 20.4 C 97 % 19.91 C
711 22-07-2016 11:10:00 20.5 C 97 % 20.01 C
712 22-07-2016 11:15:00 20.7 C 97 % 20.21 C
713 22-07-2016 11:20:00 20.8 C 97 % 20.31 C
714 22-07-2016 11:25:00 20.9 C 97 % 20.41 C
715 22-07-2016 11:30:00 21.1 C 97 % 20.6 C
716 22-07-2016 11:35:00 21.3 C 96 % 20.64 C
717 22-07-2016 11:40:00 21.4 C 96 % 20.74 C
718 22-07-2016 11:45:00 21.6 C 96 % 20.93 C
719 22-07-2016 11:50:00 21.7 C 96 % 21.03 C
720 22-07-2016 11:55:00 21.7 C 96 % 21.03 C
721 22-07-2016 12:00:00 21.9 C 96 % 21.23 C
722 22-07-2016 12:05:00 21.9 C 95 % 21.06 C
723 22-07-2016 12:10:00 22.2 C 95 % 21.36 C
724 22-07-2016 12:15:00 22.3 C 94 % 21.29 C
725 22-07-2016 12:20:00 22.7 C 94 % 21.68 C
Sensor: Nr:Datum:Temp:Feuchte:Taupunkt:
Aussen-T/F 726 22-07-2016 12:25:00 23.1 C 92 % 21.73 C
727 22-07-2016 12:30:00 23.4 C 93 % 22.2 C
728 22-07-2016 12:35:00 23.7 C 93 % 22.5 C
729 22-07-2016 12:40:00 23.7 C 92 % 22.32 C
730 22-07-2016 12:45:00 23.8 C 90 % 22.06 C
731 22-07-2016 12:50:00 24 C 89 % 22.07 C
732 22-07-2016 12:55:00 24.1 C 86 % 21.61 C
733 22-07-2016 13:00:00 24.3 C 89 % 22.37 C
734 22-07-2016 13:05:00 24.5 C 88 % 22.38 C
735 22-07-2016 13:10:00 24.6 C 89 % 22.66 C
736 22-07-2016 13:15:00 24.6 C 90 % 22.85 C
737 22-07-2016 13:20:00 24.6 C 90 % 22.85 C
738 22-07-2016 13:25:00 24.4 C 87 % 22.09 C
739 22-07-2016 13:30:00 24.5 C 86 % 22 C
740 22-07-2016 13:35:00 24.7 C 83 % 21.62 C
741 22-07-2016 13:40:00 24.9 C 82 % 21.61 C
742 22-07-2016 13:45:00 25.1 C 82 % 21.81 C
743 22-07-2016 13:50:00 25.3 C 80 % 21.6 C
744 22-07-2016 13:55:00 25.6 C 78 % 21.48 C
745 22-07-2016 14:00:00 25.7 C 79 % 21.78 C
746 22-07-2016 14:05:00 25.9 C 76 % 21.34 C
747 22-07-2016 14:10:00 26 C 77 % 21.65 C
748 22-07-2016 14:15:00 26.2 C 76 % 21.63 C
749 22-07-2016 14:20:00 26.3 C 74 % 21.29 C
750 22-07-2016 14:25:00 26.5 C 73 % 21.26 C
Sensor: Nr:Datum:Temp:Feuchte:Taupunkt:
Aussen-T/F 751 22-07-2016 14:30:00 26.7 C 70 % 20.77 C
752 22-07-2016 14:35:00 26.9 C 71 % 21.19 C
753 22-07-2016 14:40:00 27 C 69 % 20.82 C
754 22-07-2016 14:45:00 27.1 C 70 % 21.15 C
755 22-07-2016 14:50:00 27.1 C 71 % 21.38 C
756 22-07-2016 14:55:00 27.2 C 74 % 22.16 C
757 22-07-2016 15:00:00 27.3 C 71 % 21.58 C
758 22-07-2016 15:05:00 27.4 C 75 % 22.57 C
759 22-07-2016 15:10:00 27.4 C 68 % 20.97 C
760 22-07-2016 15:15:00 27.6 C 72 % 22.09 C
761 22-07-2016 15:20:00 27.7 C 78 % 23.51 C
762 22-07-2016 15:25:00 27.6 C 73 % 22.32 C
763 22-07-2016 15:30:00 27.5 C 76 % 22.89 C
764 22-07-2016 15:35:00 27.3 C 69 % 21.11 C
765 22-07-2016 15:40:00 27.4 C 76 % 22.79 C
766 22-07-2016 15:45:00 27.4 C 72 % 21.9 C
767 22-07-2016 15:50:00 27.8 C 80 % 24.03 C
768 22-07-2016 15:55:00 28.2 C 74 % 23.12 C
769 22-07-2016 16:00:00 28.3 C 64 % 20.83 C
770 22-07-2016 16:05:00 28.8 C 76 % 24.14 C
771 22-07-2016 16:10:00 29.1 C 61 % 20.81 C
772 22-07-2016 16:15:00 29.3 C 64 % 21.78 C
773 22-07-2016 16:20:00 29.6 C 60 % 21.01 C
774 22-07-2016 16:25:00 29.6 C 67 % 22.82 C
775 22-07-2016 16:30:00 29.2 C 64 % 21.68 C
Sensor: Nr:Datum:Temp:Feuchte:Taupunkt:
Aussen-T/F 776 22-07-2016 16:35:00 28.5 C 70 % 22.49 C
777 22-07-2016 16:40:00 28 C 71 % 22.25 C
778 22-07-2016 16:45:00 27.7 C 65 % 20.52 C
779 22-07-2016 16:50:00 27.8 C 64 % 20.36 C
780 22-07-2016 16:55:00 27.8 C 66 % 20.86 C
781 22-07-2016 17:00:00 27.5 C 66 % 20.58 C
782 22-07-2016 17:05:00 27.2 C 66 % 20.29 C
783 22-07-2016 17:10:00 27 C 65 % 19.86 C
784 22-07-2016 17:15:00 27.1 C 65 % 19.95 C
785 22-07-2016 17:20:00 26.9 C 65 % 19.76 C
786 22-07-2016 17:25:00 26.8 C 64 % 19.42 C
787 22-07-2016 17:30:00 26.8 C 64 % 19.42 C
788 22-07-2016 17:35:00 27.1 C 69 % 20.92 C
789 22-07-2016 17:40:00 27.1 C 68 % 20.68 C
790 22-07-2016 17:45:00 27 C 69 % 20.82 C
791 22-07-2016 17:50:00 26.9 C 70 % 20.96 C
792 22-07-2016 17:55:00 26.8 C 67 % 20.16 C
793 22-07-2016 18:00:00 26.6 C 66 % 19.72 C
794 22-07-2016 18:05:00 26.4 C 74 % 21.39 C
795 22-07-2016 18:10:00 26.3 C 76 % 21.73 C
796 22-07-2016 18:15:00 26.1 C 76 % 21.53 C
797 22-07-2016 18:20:00 25.8 C 78 % 21.67 C
798 22-07-2016 18:25:00 25.6 C 78 % 21.48 C
799 22-07-2016 18:30:00 25.2 C 79 % 21.3 C
800 22-07-2016 18:35:00 24.8 C 81 % 21.31 C
Sensor: Nr:Datum:Temp:Feuchte:Taupunkt:
Aussen-T/F 801 22-07-2016 18:40:00 24.2 C 79 % 20.32 C
802 22-07-2016 18:45:00 23.9 C 77 % 19.62 C
803 22-07-2016 18:50:00 23.8 C 80 % 20.14 C
804 22-07-2016 18:55:00 23.7 C 82 % 20.44 C
805 22-07-2016 19:00:00 23.5 C 82 % 20.25 C
806 22-07-2016 19:05:00 23.3 C 83 % 20.25 C
807 22-07-2016 19:10:00 23.1 C 80 % 19.46 C
808 22-07-2016 19:15:00 23 C 84 % 20.15 C
809 22-07-2016 19:20:00 22.9 C 84 % 20.05 C
810 22-07-2016 19:25:00 22.8 C 84 % 19.95 C
811 22-07-2016 19:30:00 22.7 C 84 % 19.86 C
812 22-07-2016 19:35:00 22.6 C 84 % 19.76 C
813 22-07-2016 19:40:00 22.4 C 85 % 19.75 C
814 22-07-2016 19:45:00 22.3 C 85 % 19.65 C
815 22-07-2016 19:50:00 22.2 C 86 % 19.75 C
816 22-07-2016 19:55:00 22.1 C 87 % 19.83 C
817 22-07-2016 20:00:00 22.1 C 87 % 19.83 C
818 22-07-2016 20:05:00 21.9 C 87 % 19.64 C
819 22-07-2016 20:10:00 21.8 C 87 % 19.54 C
820 22-07-2016 20:15:00 21.8 C 88 % 19.72 C
821 22-07-2016 20:20:00 21.7 C 88 % 19.62 C
822 22-07-2016 20:25:00 21.7 C 88 % 19.62 C
823 22-07-2016 20:30:00 21.6 C 89 % 19.71 C
824 22-07-2016 20:35:00 21.5 C 87 % 19.24 C
825 22-07-2016 20:40:00 21.5 C 88 % 19.43 C
Sensor: Nr:Datum:Temp:Feuchte:Taupunkt:
Aussen-T/F 826 22-07-2016 20:45:00 21.4 C 88 % 19.33 C
827 22-07-2016 20:50:00 21.4 C 86 % 18.96 C
828 22-07-2016 20:55:00 21.3 C 87 % 19.05 C
829 22-07-2016 21:00:00 21.2 C 87 % 18.95 C
830 22-07-2016 21:05:00 21.2 C 87 % 18.95 C
831 22-07-2016 21:10:00 21.1 C 87 % 18.85 C
832 22-07-2016 21:15:00 20.9 C 88 % 18.84 C
833 22-07-2016 21:20:00 20.8 C 88 % 18.74 C
834 22-07-2016 21:25:00 20.7 C 88 % 18.64 C
835 22-07-2016 21:30:00 20.7 C 89 % 18.82 C
836 22-07-2016 21:35:00 20.6 C 88 % 18.54 C
837 22-07-2016 21:40:00 20.4 C 88 % 18.34 C
838 22-07-2016 21:45:00 20.4 C 88 % 18.34 C
839 22-07-2016 21:50:00 20.3 C 89 % 18.43 C
840 22-07-2016 21:55:00 20.3 C 89 % 18.43 C
841 22-07-2016 22:00:00 20.2 C 89 % 18.33 C
842 22-07-2016 22:05:00 20.2 C 89 % 18.33 C
843 22-07-2016 22:10:00 20.1 C 89 % 18.23 C
844 22-07-2016 22:15:00 20.1 C 89 % 18.23 C
845 22-07-2016 22:20:00 20 C 89 % 18.13 C
846 22-07-2016 22:25:00 19.9 C 89 % 18.03 C
847 22-07-2016 22:30:00 19.9 C 89 % 18.03 C
848 22-07-2016 22:35:00 19.9 C 89 % 18.03 C
849 22-07-2016 22:40:00 19.9 C 88 % 17.85 C
850 22-07-2016 22:45:00 19.8 C 88 % 17.75 C
Sensor: Nr:Datum:Temp:Feuchte:Taupunkt:
Aussen-T/F 851 22-07-2016 22:50:00 19.9 C 88 % 17.85 C
852 22-07-2016 22:55:00 19.9 C 88 % 17.85 C
853 22-07-2016 23:00:00 19.9 C 89 % 18.03 C
854 22-07-2016 23:05:00 19.9 C 89 % 18.03 C
855 22-07-2016 23:10:00 19.9 C 89 % 18.03 C
856 22-07-2016 23:15:00 19.9 C 89 % 18.03 C
857 22-07-2016 23:20:00 19.9 C 89 % 18.03 C
858 22-07-2016 23:25:00 19.9 C 89 % 18.03 C
859 22-07-2016 23:30:00 19.8 C 89 % 17.93 C
860 22-07-2016 23:35:00 19.8 C 89 % 17.93 C
861 22-07-2016 23:40:00 19.8 C 90 % 18.11 C
862 22-07-2016 23:45:00 19.8 C 90 % 18.11 C
863 22-07-2016 23:50:00 19.8 C 90 % 18.11 C
864 22-07-2016 23:55:00 19.7 C 90 % 18.01 C
865 23-07-2016 00:00:00 19.7 C 90 % 18.01 C
866 23-07-2016 00:05:00 19.7 C 90 % 18.01 C
867 23-07-2016 00:10:00 19.6 C 90 % 17.91 C
868 23-07-2016 00:15:00 19.6 C 91 % 18.09 C
869 23-07-2016 00:20:00 19.6 C 91 % 18.09 C
870 23-07-2016 00:25:00 19.5 C 91 % 17.99 C
871 23-07-2016 00:30:00 19.5 C 91 % 17.99 C
872 23-07-2016 00:35:00 19.4 C 91 % 17.89 C
873 23-07-2016 00:40:00 19.3 C 91 % 17.79 C
874 23-07-2016 00:45:00 19.3 C 91 % 17.79 C
875 23-07-2016 00:50:00 19.3 C 91 % 17.79 C
Sensor: Nr:Datum:Temp:Feuchte:Taupunkt:
Aussen-T/F 876 23-07-2016 00:55:00 19.2 C 92 % 17.87 C
877 23-07-2016 01:00:00 19.2 C 92 % 17.87 C
878 23-07-2016 01:05:00 19.2 C 92 % 17.87 C
879 23-07-2016 01:10:00 19.2 C 92 % 17.87 C
880 23-07-2016 01:15:00 19.2 C 92 % 17.87 C
881 23-07-2016 01:20:00 19.2 C 92 % 17.87 C
882 23-07-2016 01:25:00 19.2 C 93 % 18.04 C
883 23-07-2016 01:30:00 19.2 C 93 % 18.04 C
884 23-07-2016 01:35:00 19.2 C 93 % 18.04 C
885 23-07-2016 01:40:00 19.1 C 93 % 17.94 C
886 23-07-2016 01:45:00 19.1 C 92 % 17.77 C
887 23-07-2016 01:50:00 19.1 C 92 % 17.77 C
888 23-07-2016 01:55:00 19.1 C 93 % 17.94 C
889 23-07-2016 02:00:00 19.1 C 93 % 17.94 C
890 23-07-2016 02:05:00 19.1 C 93 % 17.94 C
891 23-07-2016 02:10:00 19 C 93 % 17.84 C
892 23-07-2016 02:15:00 18.9 C 93 % 17.74 C
893 23-07-2016 02:20:00 18.9 C 93 % 17.74 C
894 23-07-2016 02:25:00 18.9 C 93 % 17.74 C
895 23-07-2016 02:30:00 18.9 C 93 % 17.74 C
896 23-07-2016 02:35:00 18.9 C 93 % 17.74 C
897 23-07-2016 02:40:00 18.8 C 93 % 17.64 C
898 23-07-2016 02:45:00 18.8 C 93 % 17.64 C
899 23-07-2016 02:50:00 18.8 C 93 % 17.64 C
900 23-07-2016 02:55:00 18.8 C 93 % 17.64 C
Sensor: Nr:Datum:Temp:Feuchte:Taupunkt:
Aussen-T/F 901 23-07-2016 03:00:00 18.7 C 93 % 17.54 C
902 23-07-2016 03:05:00 18.7 C 93 % 17.54 C
903 23-07-2016 03:10:00 18.7 C 93 % 17.54 C
904 23-07-2016 03:15:00 18.7 C 93 % 17.54 C
905 23-07-2016 03:20:00 18.6 C 93 % 17.45 C
906 23-07-2016 03:25:00 18.6 C 93 % 17.45 C
907 23-07-2016 03:30:00 18.6 C 93 % 17.45 C
908 23-07-2016 03:35:00 18.6 C 93 % 17.45 C
909 23-07-2016 03:40:00 18.6 C 93 % 17.45 C
910 23-07-2016 03:45:00 18.6 C 93 % 17.45 C
911 23-07-2016 03:50:00 18.5 C 93 % 17.35 C
912 23-07-2016 03:55:00 18.4 C 93 % 17.25 C
913 23-07-2016 04:00:00 18.4 C 93 % 17.25 C
914 23-07-2016 04:05:00 18.4 C 93 % 17.25 C
915 23-07-2016 04:10:00 18.4 C 93 % 17.25 C
916 23-07-2016 04:15:00 18.3 C 93 % 17.15 C
917 23-07-2016 04:20:00 18.3 C 93 % 17.15 C
918 23-07-2016 04:25:00 18.3 C 93 % 17.15 C
919 23-07-2016 04:30:00 18.3 C 93 % 17.15 C
920 23-07-2016 04:35:00 18.4 C 93 % 17.25 C
921 23-07-2016 04:40:00 18.4 C 93 % 17.25 C
922 23-07-2016 04:45:00 18.4 C 94 % 17.42 C
923 23-07-2016 04:50:00 18.4 C 94 % 17.42 C
924 23-07-2016 04:55:00 18.5 C 94 % 17.52 C
925 23-07-2016 05:00:00 18.4 C 94 % 17.42 C
Sensor: Nr:Datum:Temp:Feuchte:Taupunkt:
Aussen-T/F 926 23-07-2016 05:05:00 18.4 C 94 % 17.42 C
927 23-07-2016 05:10:00 18.4 C 94 % 17.42 C
928 23-07-2016 05:15:00 18.4 C 94 % 17.42 C
929 23-07-2016 05:20:00 18.3 C 94 % 17.32 C
930 23-07-2016 05:25:00 18.3 C 94 % 17.32 C
931 23-07-2016 05:30:00 18.3 C 94 % 17.32 C
932 23-07-2016 05:35:00 18.3 C 94 % 17.32 C
933 23-07-2016 05:40:00 18.3 C 94 % 17.32 C
934 23-07-2016 05:45:00 18.3 C 94 % 17.32 C
935 23-07-2016 05:50:00 18.3 C 95 % 17.48 C
936 23-07-2016 05:55:00 18.3 C 95 % 17.48 C
937 23-07-2016 06:00:00 18.3 C 95 % 17.48 C
938 23-07-2016 06:05:00 18.3 C 95 % 17.48 C
939 23-07-2016 06:10:00 18.3 C 95 % 17.48 C
940 23-07-2016 06:15:00 18.3 C 95 % 17.48 C
941 23-07-2016 06:20:00 18.3 C 95 % 17.48 C
942 23-07-2016 06:25:00 18.4 C 95 % 17.58 C
943 23-07-2016 06:30:00 18.4 C 95 % 17.58 C
944 23-07-2016 06:35:00 18.4 C 95 % 17.58 C
945 23-07-2016 06:40:00 18.4 C 95 % 17.58 C
946 23-07-2016 06:45:00 18.4 C 95 % 17.58 C
947 23-07-2016 06:50:00 18.4 C 95 % 17.58 C
948 23-07-2016 06:55:00 18.4 C 95 % 17.58 C
949 23-07-2016 07:00:00 18.4 C 95 % 17.58 C
950 23-07-2016 07:05:00 18.5 C 95 % 17.68 C
Sensor: Nr:Datum:Temp:Feuchte:Taupunkt:
Aussen-T/F 951 23-07-2016 07:10:00 18.6 C 95 % 17.78 C
952 23-07-2016 07:15:00 18.6 C 95 % 17.78 C
953 23-07-2016 07:20:00 18.6 C 95 % 17.78 C
954 23-07-2016 07:25:00 18.6 C 95 % 17.78 C
955 23-07-2016 07:30:00 18.7 C 95 % 17.88 C
956 23-07-2016 07:35:00 18.7 C 96 % 18.05 C
957 23-07-2016 07:40:00 18.8 C 96 % 18.15 C
958 23-07-2016 07:45:00 18.9 C 96 % 18.25 C
959 23-07-2016 07:50:00 18.9 C 96 % 18.25 C
960 23-07-2016 07:55:00 19 C 96 % 18.35 C
961 23-07-2016 08:00:00 19 C 96 % 18.35 C
962 23-07-2016 08:05:00 19 C 95 % 18.18 C
963 23-07-2016 08:10:00 19 C 95 % 18.18 C
964 23-07-2016 08:15:00 19 C 95 % 18.18 C
965 23-07-2016 08:20:00 19 C 95 % 18.18 C
966 23-07-2016 08:25:00 19 C 95 % 18.18 C
967 23-07-2016 08:30:00 19.1 C 96 % 18.45 C
968 23-07-2016 08:35:00 19.2 C 96 % 18.55 C
969 23-07-2016 08:40:00 19.3 C 95 % 18.48 C
970 23-07-2016 08:45:00 19.4 C 96 % 18.75 C
971 23-07-2016 08:50:00 19.4 C 96 % 18.75 C
972 23-07-2016 08:55:00 19.5 C 95 % 18.68 C
973 23-07-2016 09:00:00 19.6 C 95 % 18.78 C
974 23-07-2016 09:05:00 19.7 C 95 % 18.88 C
975 23-07-2016 09:10:00 19.7 C 95 % 18.88 C
Sensor: Nr:Datum:Temp:Feuchte:Taupunkt:
Aussen-T/F 976 23-07-2016 09:15:00 19.8 C 95 % 18.98 C
977 23-07-2016 09:20:00 19.9 C 95 % 19.07 C
978 23-07-2016 09:25:00 19.9 C 95 % 19.07 C
979 23-07-2016 09:30:00 20 C 95 % 19.17 C
980 23-07-2016 09:35:00 20.1 C 95 % 19.27 C
981 23-07-2016 09:40:00 20.1 C 95 % 19.27 C
982 23-07-2016 09:45:00 20.1 C 94 % 19.1 C
983 23-07-2016 09:50:00 20.1 C 94 % 19.1 C
984 23-07-2016 09:55:00 20.1 C 94 % 19.1 C
985 23-07-2016 10:00:00 20.3 C 94 % 19.3 C
986 23-07-2016 10:05:00 20.4 C 94 % 19.4 C
987 23-07-2016 10:10:00 20.4 C 93 % 19.23 C
988 23-07-2016 10:15:00 20.5 C 93 % 19.33 C
989 23-07-2016 10:20:00 20.6 C 93 % 19.43 C
990 23-07-2016 10:25:00 20.7 C 93 % 19.53 C
991 23-07-2016 10:30:00 20.7 C 92 % 19.35 C
992 23-07-2016 10:35:00 20.7 C 92 % 19.35 C
993 23-07-2016 10:40:00 20.7 C 91 % 19.18 C
994 23-07-2016 10:45:00 20.8 C 92 % 19.45 C
995 23-07-2016 10:50:00 20.8 C 92 % 19.45 C
996 23-07-2016 10:55:00 20.9 C 92 % 19.55 C
997 23-07-2016 11:00:00 21 C 92 % 19.65 C
998 23-07-2016 11:05:00 21.1 C 92 % 19.75 C
999 23-07-2016 11:10:00 21.1 C 92 % 19.75 C
1000 23-07-2016 11:15:00 21.2 C 93 % 20.02 C
Sensor: Nr:Datum:Temp:Feuchte:Taupunkt:
Aussen-T/F 1001 23-07-2016 11:20:00 21.1 C 91 % 19.57 C
1002 23-07-2016 11:25:00 21.1 C 92 % 19.75 C
1003 23-07-2016 11:30:00 21.2 C 92 % 19.85 C
1004 23-07-2016 11:35:00 21.1 C 91 % 19.57 C
1005 23-07-2016 11:40:00 21.1 C 91 % 19.57 C
1006 23-07-2016 11:45:00 21.1 C 90 % 19.39 C
1007 23-07-2016 11:50:00 21.1 C 90 % 19.39 C
1008 23-07-2016 11:55:00 21.2 C 90 % 19.49 C
1009 23-07-2016 12:00:00 21.3 C 89 % 19.41 C
1010 23-07-2016 12:05:00 21.4 C 90 % 19.69 C
1011 23-07-2016 12:10:00 21.7 C 89 % 19.81 C
1012 23-07-2016 12:15:00 21.8 C 89 % 19.9 C
1013 23-07-2016 12:20:00 21.9 C 87 % 19.64 C
1014 23-07-2016 12:25:00 22.1 C 87 % 19.83 C
1015 23-07-2016 12:30:00 22.1 C 86 % 19.65 C
1016 23-07-2016 12:35:00 22.2 C 85 % 19.56 C
1017 23-07-2016 12:40:00 22.3 C 85 % 19.65 C
1018 23-07-2016 12:45:00 22.3 C 84 % 19.46 C
1019 23-07-2016 12:50:00 22.4 C 84 % 19.56 C
1020 23-07-2016 12:55:00 22.5 C 84 % 19.66 C
1021 23-07-2016 13:00:00 22.5 C 82 % 19.27 C
1022 23-07-2016 13:05:00 22.6 C 82 % 19.37 C
1023 23-07-2016 13:10:00 22.6 C 82 % 19.37 C
1024 23-07-2016 13:15:00 22.7 C 82 % 19.47 C
1025 23-07-2016 13:20:00 22.8 C 83 % 19.76 C
Sensor: Nr:Datum:Temp:Feuchte:Taupunkt:
Aussen-T/F 1026 23-07-2016 13:25:00 22.8 C 82 % 19.56 C
1027 23-07-2016 13:30:00 22.9 C 82 % 19.66 C
1028 23-07-2016 13:35:00 23.1 C 84 % 20.25 C
1029 23-07-2016 13:40:00 23.3 C 82 % 20.05 C
1030 23-07-2016 13:45:00 23.4 C 82 % 20.15 C
1031 23-07-2016 13:50:00 23.5 C 79 % 19.65 C
1032 23-07-2016 13:55:00 23.6 C 79 % 19.74 C
1033 23-07-2016 14:00:00 23.7 C 79 % 19.84 C
1034 23-07-2016 14:05:00 23.8 C 80 % 20.14 C
1035 23-07-2016 14:10:00 23.9 C 78 % 19.83 C
1036 23-07-2016 14:15:00 24.1 C 78 % 20.02 C
1037 23-07-2016 14:20:00 24.1 C 79 % 20.23 C
1038 23-07-2016 14:25:00 24.2 C 76 % 19.7 C
1039 23-07-2016 14:30:00 24.3 C 77 % 20.01 C
1040 23-07-2016 14:35:00 24.3 C 75 % 19.58 C
1041 23-07-2016 14:40:00 24.3 C 74 % 19.37 C
1042 23-07-2016 14:45:00 24.2 C 74 % 19.27 C
1043 23-07-2016 14:50:00 24.2 C 77 % 19.91 C
1044 23-07-2016 14:55:00 24.1 C 77 % 19.81 C
1045 23-07-2016 15:00:00 23.9 C 77 % 19.62 C
1046 23-07-2016 15:05:00 23.8 C 79 % 19.94 C
1047 23-07-2016 15:10:00 23.7 C 79 % 19.84 C
1048 23-07-2016 15:15:00 23.7 C 78 % 19.63 C
1049 23-07-2016 15:20:00 23.6 C 78 % 19.54 C
1050 23-07-2016 15:25:00 23.4 C 79 % 19.55 C
Sensor: Nr:Datum:Temp:Feuchte:Taupunkt:
Aussen-T/F 1051 23-07-2016 15:30:00 23.4 C 80 % 19.75 C
1052 23-07-2016 15:35:00 23.4 C 80 % 19.75 C
1053 23-07-2016 15:40:00 23.3 C 82 % 20.05 C
1054 23-07-2016 15:45:00 23.2 C 81 % 19.76 C
1055 23-07-2016 15:50:00 23 C 81 % 19.56 C
1056 23-07-2016 15:55:00 22.9 C 82 % 19.66 C
1057 23-07-2016 16:00:00 22.9 C 83 % 19.86 C
1058 23-07-2016 16:05:00 22.9 C 84 % 20.05 C
1059 23-07-2016 16:10:00 22.9 C 83 % 19.86 C
1060 23-07-2016 16:15:00 23.1 C 83 % 20.05 C
1061 23-07-2016 16:20:00 23.1 C 83 % 20.05 C
1062 23-07-2016 16:25:00 23.1 C 83 % 20.05 C
1063 23-07-2016 16:30:00 23 C 82 % 19.76 C
1064 23-07-2016 16:35:00 22.8 C 85 % 20.14 C
1065 23-07-2016 16:40:00 22.5 C 87 % 20.23 C
1066 23-07-2016 16:45:00 22 C 88 % 19.92 C
1067 23-07-2016 16:50:00 21.7 C 89 % 19.81 C
1068 23-07-2016 16:55:00 21.4 C 91 % 19.87 C
1069 23-07-2016 17:00:00 21.2 C 91 % 19.67 C
1070 23-07-2016 17:05:00 20.9 C 92 % 19.55 C
1071 23-07-2016 17:10:00 20.8 C 92 % 19.45 C
1072 23-07-2016 17:15:00 20.7 C 92 % 19.35 C
1073 23-07-2016 17:20:00 20.6 C 93 % 19.43 C
1074 23-07-2016 17:25:00 20.5 C 93 % 19.33 C
1075 23-07-2016 17:30:00 20.5 C 93 % 19.33 C
Sensor: Nr:Datum:Temp:Feuchte:Taupunkt:
Aussen-T/F 1076 23-07-2016 17:35:00 20.5 C 93 % 19.33 C
1077 23-07-2016 17:40:00 20.4 C 93 % 19.23 C
1078 23-07-2016 17:45:00 20.4 C 93 % 19.23 C
1079 23-07-2016 17:50:00 20.4 C 93 % 19.23 C
1080 23-07-2016 17:55:00 20.4 C 94 % 19.4 C
1081 23-07-2016 18:00:00 20.4 C 94 % 19.4 C
1082 23-07-2016 18:05:00 20.5 C 94 % 19.5 C
1083 23-07-2016 18:10:00 20.6 C 95 % 19.77 C
1084 23-07-2016 18:15:00 20.6 C 94 % 19.6 C
1085 23-07-2016 18:20:00 20.6 C 95 % 19.77 C
1086 23-07-2016 18:25:00 20.8 C 95 % 19.97 C
1087 23-07-2016 18:30:00 20.8 C 95 % 19.97 C
1088 23-07-2016 18:35:00 20.8 C 95 % 19.97 C
1089 23-07-2016 18:40:00 20.9 C 95 % 20.07 C
1090 23-07-2016 18:45:00 21.1 C 95 % 20.27 C
1091 23-07-2016 18:50:00 21.1 C 95 % 20.27 C
1092 23-07-2016 18:55:00 21.2 C 95 % 20.37 C
1093 23-07-2016 19:00:00 21.2 C 95 % 20.37 C
1094 23-07-2016 19:05:00 21.1 C 95 % 20.27 C
1095 23-07-2016 19:10:00 21.1 C 95 % 20.27 C
1096 23-07-2016 19:15:00 21.1 C 95 % 20.27 C
1097 23-07-2016 19:20:00 21.2 C 95 % 20.37 C
1098 23-07-2016 19:25:00 21.1 C 95 % 20.27 C
1099 23-07-2016 19:30:00 21.1 C 95 % 20.27 C
1100 23-07-2016 19:35:00 21.1 C 95 % 20.27 C
Sensor: Nr:Datum:Temp:Feuchte:Taupunkt:
Aussen-T/F 1101 23-07-2016 19:40:00 21.1 C 95 % 20.27 C
1102 23-07-2016 19:45:00 21 C 95 % 20.17 C
1103 23-07-2016 19:50:00 20.9 C 95 % 20.07 C
1104 23-07-2016 19:55:00 20.9 C 95 % 20.07 C
1105 23-07-2016 20:00:00 20.8 C 95 % 19.97 C
1106 23-07-2016 20:05:00 20.8 C 95 % 19.97 C
1107 23-07-2016 20:10:00 20.8 C 95 % 19.97 C
1108 23-07-2016 20:15:00 20.7 C 95 % 19.87 C
1109 23-07-2016 20:20:00 20.7 C 95 % 19.87 C
1110 23-07-2016 20:25:00 20.7 C 95 % 19.87 C
1111 23-07-2016 20:30:00 20.6 C 95 % 19.77 C
1112 23-07-2016 20:35:00 20.6 C 95 % 19.77 C
1113 23-07-2016 20:40:00 20.6 C 95 % 19.77 C
1114 23-07-2016 20:45:00 20.5 C 95 % 19.67 C
1115 23-07-2016 20:50:00 20.5 C 95 % 19.67 C
1116 23-07-2016 20:55:00 20.4 C 96 % 19.74 C
1117 23-07-2016 21:00:00 20.5 C 96 % 19.84 C
1118 23-07-2016 21:05:00 20.5 C 96 % 19.84 C
1119 23-07-2016 21:10:00 20.4 C 95 % 19.57 C
1120 23-07-2016 21:15:00 20.4 C 96 % 19.74 C
1121 23-07-2016 21:20:00 20.4 C 96 % 19.74 C
1122 23-07-2016 21:25:00 20.4 C 96 % 19.74 C
1123 23-07-2016 21:30:00 20.3 C 95 % 19.47 C
1124 23-07-2016 21:35:00 20.2 C 96 % 19.54 C
1125 23-07-2016 21:40:00 20.1 C 96 % 19.44 C
Sensor: Nr:Datum:Temp:Feuchte:Taupunkt:
Aussen-T/F 1126 23-07-2016 21:45:00 20.1 C 95 % 19.27 C
1127 23-07-2016 21:50:00 19.9 C 95 % 19.07 C
1128 23-07-2016 21:55:00 19.9 C 95 % 19.07 C
1129 23-07-2016 22:00:00 19.8 C 96 % 19.14 C
1130 23-07-2016 22:05:00 19.8 C 96 % 19.14 C
1131 23-07-2016 22:10:00 19.7 C 95 % 18.88 C
1132 23-07-2016 22:15:00 19.7 C 96 % 19.04 C
1133 23-07-2016 22:20:00 19.7 C 96 % 19.04 C
1134 23-07-2016 22:25:00 19.6 C 96 % 18.94 C
1135 23-07-2016 22:30:00 19.6 C 96 % 18.94 C
1136 23-07-2016 22:35:00 19.6 C 96 % 18.94 C
1137 23-07-2016 22:40:00 19.6 C 96 % 18.94 C
1138 23-07-2016 22:45:00 19.5 C 96 % 18.84 C
1139 23-07-2016 22:50:00 19.5 C 96 % 18.84 C
1140 23-07-2016 22:55:00 19.4 C 96 % 18.75 C
1141 23-07-2016 23:00:00 19.4 C 96 % 18.75 C
1142 23-07-2016 23:05:00 19.4 C 96 % 18.75 C
1143 23-07-2016 23:10:00 19.4 C 96 % 18.75 C
1144 23-07-2016 23:15:00 19.4 C 96 % 18.75 C
1145 23-07-2016 23:20:00 19.4 C 96 % 18.75 C
1146 23-07-2016 23:25:00 19.4 C 96 % 18.75 C
1147 23-07-2016 23:30:00 19.4 C 96 % 18.75 C
1148 23-07-2016 23:35:00 19.4 C 96 % 18.75 C
1149 23-07-2016 23:40:00 19.3 C 96 % 18.65 C
1150 23-07-2016 23:45:00 19.3 C 96 % 18.65 C
Sensor: Nr:Datum:Temp:Feuchte:Taupunkt:
Aussen-T/F 1151 23-07-2016 23:50:00 19.3 C 96 % 18.65 C
1152 23-07-2016 23:55:00 19.3 C 96 % 18.65 C
1153 24-07-2016 00:00:00 19.3 C 96 % 18.65 C
1154 24-07-2016 00:05:00 19.3 C 96 % 18.65 C
1155 24-07-2016 00:10:00 19.3 C 96 % 18.65 C
1156 24-07-2016 00:15:00 19.3 C 96 % 18.65 C
1157 24-07-2016 00:20:00 19.3 C 96 % 18.65 C
1158 24-07-2016 00:25:00 19.2 C 96 % 18.55 C
1159 24-07-2016 00:30:00 19.2 C 96 % 18.55 C
1160 24-07-2016 00:35:00 19.1 C 96 % 18.45 C
1161 24-07-2016 00:40:00 19.1 C 96 % 18.45 C
1162 24-07-2016 00:45:00 19.1 C 96 % 18.45 C
1163 24-07-2016 00:50:00 19.1 C 96 % 18.45 C
1164 24-07-2016 00:55:00 19.1 C 96 % 18.45 C
1165 24-07-2016 01:00:00 19.1 C 96 % 18.45 C
1166 24-07-2016 01:05:00 19.1 C 96 % 18.45 C
1167 24-07-2016 01:10:00 19.1 C 96 % 18.45 C
1168 24-07-2016 01:15:00 19.1 C 96 % 18.45 C
1169 24-07-2016 01:20:00 19.1 C 96 % 18.45 C
1170 24-07-2016 01:25:00 19.1 C 96 % 18.45 C
1171 24-07-2016 01:30:00 19.1 C 96 % 18.45 C
1172 24-07-2016 01:35:00 19.2 C 97 % 18.71 C
1173 24-07-2016 01:40:00 19.2 C 97 % 18.71 C
1174 24-07-2016 01:45:00 19.2 C 97 % 18.71 C
1175 24-07-2016 01:50:00 19.2 C 97 % 18.71 C
Sensor: Nr:Datum:Temp:Feuchte:Taupunkt:
Aussen-T/F 1176 24-07-2016 01:55:00 19.1 C 97 % 18.61 C
1177 24-07-2016 02:00:00 19.1 C 97 % 18.61 C
1178 24-07-2016 02:05:00 19.1 C 97 % 18.61 C
1179 24-07-2016 02:10:00 19.1 C 97 % 18.61 C
1180 24-07-2016 02:15:00 19.1 C 97 % 18.61 C
1181 24-07-2016 02:20:00 19.1 C 96 % 18.45 C
1182 24-07-2016 02:25:00 19.1 C 96 % 18.45 C
1183 24-07-2016 02:30:00 19.1 C 96 % 18.45 C
1184 24-07-2016 02:35:00 19.1 C 96 % 18.45 C
1185 24-07-2016 02:40:00 19.1 C 97 % 18.61 C
1186 24-07-2016 02:45:00 19.1 C 97 % 18.61 C
1187 24-07-2016 02:50:00 19.1 C 97 % 18.61 C
1188 24-07-2016 02:55:00 19.1 C 97 % 18.61 C
1189 24-07-2016 03:00:00 19.1 C 97 % 18.61 C
1190 24-07-2016 03:05:00 19.1 C 97 % 18.61 C
1191 24-07-2016 03:10:00 19.1 C 97 % 18.61 C
1192 24-07-2016 03:15:00 19.1 C 97 % 18.61 C
1193 24-07-2016 03:20:00 19.1 C 97 % 18.61 C
1194 24-07-2016 03:25:00 19.1 C 97 % 18.61 C
1195 24-07-2016 03:30:00 19.1 C 97 % 18.61 C
1196 24-07-2016 03:35:00 19.1 C 97 % 18.61 C
1197 24-07-2016 03:40:00 19.1 C 97 % 18.61 C
1198 24-07-2016 03:45:00 19.1 C 97 % 18.61 C
1199 24-07-2016 03:50:00 19.2 C 97 % 18.71 C
1200 24-07-2016 03:55:00 19.1 C 97 % 18.61 C
Sensor: Nr:Datum:Temp:Feuchte:Taupunkt:
Aussen-T/F 1201 24-07-2016 04:00:00 19.1 C 97 % 18.61 C
1202 24-07-2016 04:05:00 19.1 C 97 % 18.61 C
1203 24-07-2016 04:10:00 19.1 C 97 % 18.61 C
1204 24-07-2016 04:15:00 19.1 C 97 % 18.61 C
1205 24-07-2016 04:20:00 19.1 C 97 % 18.61 C
1206 24-07-2016 04:25:00 19.1 C 97 % 18.61 C
1207 24-07-2016 04:30:00 19.1 C 97 % 18.61 C
1208 24-07-2016 04:35:00 19.1 C 97 % 18.61 C
1209 24-07-2016 04:40:00 19 C 97 % 18.51 C
1210 24-07-2016 04:45:00 18.9 C 97 % 18.41 C
1211 24-07-2016 04:50:00 18.9 C 97 % 18.41 C
1212 24-07-2016 04:55:00 18.8 C 97 % 18.31 C
1213 24-07-2016 05:00:00 18.8 C 97 % 18.31 C
1214 24-07-2016 05:05:00 18.7 C 96 % 18.05 C
1215 24-07-2016 05:10:00 18.7 C 96 % 18.05 C
1216 24-07-2016 05:15:00 18.6 C 97 % 18.11 C
1217 24-07-2016 05:20:00 18.6 C 97 % 18.11 C
1218 24-07-2016 05:25:00 18.6 C 97 % 18.11 C
1219 24-07-2016 05:30:00 18.5 C 97 % 18.01 C
1220 24-07-2016 05:35:00 18.5 C 97 % 18.01 C
1221 24-07-2016 05:40:00 18.5 C 97 % 18.01 C
1222 24-07-2016 05:45:00 18.6 C 97 % 18.11 C
1223 24-07-2016 05:50:00 18.6 C 97 % 18.11 C
1224 24-07-2016 05:55:00 18.6 C 97 % 18.11 C
1225 24-07-2016 06:00:00 18.6 C 97 % 18.11 C
Sensor: Nr:Datum:Temp:Feuchte:Taupunkt:
Aussen-T/F 1226 24-07-2016 06:05:00 18.6 C 97 % 18.11 C
1227 24-07-2016 06:10:00 18.6 C 97 % 18.11 C
1228 24-07-2016 06:15:00 18.6 C 97 % 18.11 C
1229 24-07-2016 06:20:00 18.6 C 97 % 18.11 C
1230 24-07-2016 06:25:00 18.6 C 97 % 18.11 C
1231 24-07-2016 06:30:00 18.7 C 97 % 18.21 C
1232 24-07-2016 06:35:00 18.7 C 97 % 18.21 C
1233 24-07-2016 06:40:00 18.7 C 97 % 18.21 C
1234 24-07-2016 06:45:00 18.7 C 97 % 18.21 C
1235 24-07-2016 06:50:00 18.8 C 97 % 18.31 C
1236 24-07-2016 06:55:00 18.8 C 97 % 18.31 C
1237 24-07-2016 07:00:00 18.8 C 97 % 18.31 C
1238 24-07-2016 07:05:00 18.8 C 97 % 18.31 C
1239 24-07-2016 07:10:00 18.9 C 97 % 18.41 C
1240 24-07-2016 07:15:00 18.9 C 97 % 18.41 C
1241 24-07-2016 07:20:00 18.9 C 97 % 18.41 C
1242 24-07-2016 07:25:00 19 C 97 % 18.51 C
1243 24-07-2016 07:30:00 19 C 97 % 18.51 C
1244 24-07-2016 07:35:00 19.1 C 97 % 18.61 C
1245 24-07-2016 07:40:00 19.1 C 97 % 18.61 C
1246 24-07-2016 07:45:00 19.2 C 97 % 18.71 C
1247 24-07-2016 07:50:00 19.2 C 97 % 18.71 C
1248 24-07-2016 07:55:00 19.3 C 97 % 18.81 C
1249 24-07-2016 08:00:00 19.3 C 97 % 18.81 C
1250 24-07-2016 08:05:00 19.3 C 97 % 18.81 C
Sensor: Nr:Datum:Temp:Feuchte:Taupunkt:
Aussen-T/F 1251 24-07-2016 08:10:00 19.3 C 97 % 18.81 C
1252 24-07-2016 08:15:00 19.3 C 97 % 18.81 C
1253 24-07-2016 08:20:00 19.4 C 97 % 18.91 C
1254 24-07-2016 08:25:00 19.4 C 97 % 18.91 C
1255 24-07-2016 08:30:00 19.4 C 97 % 18.91 C
1256 24-07-2016 08:35:00 19.4 C 97 % 18.91 C
1257 24-07-2016 08:40:00 19.4 C 97 % 18.91 C
1258 24-07-2016 08:45:00 19.6 C 97 % 19.11 C
1259 24-07-2016 08:50:00 19.6 C 97 % 19.11 C
1260 24-07-2016 08:55:00 19.6 C 97 % 19.11 C
1261 24-07-2016 09:00:00 19.6 C 97 % 19.11 C
1262 24-07-2016 09:05:00 19.7 C 97 % 19.21 C
1263 24-07-2016 09:10:00 19.7 C 97 % 19.21 C
1264 24-07-2016 09:15:00 19.7 C 97 % 19.21 C
1265 24-07-2016 09:20:00 19.7 C 97 % 19.21 C
1266 24-07-2016 09:25:00 19.8 C 97 % 19.31 C
1267 24-07-2016 09:30:00 19.7 C 97 % 19.21 C
1268 24-07-2016 09:35:00 19.7 C 97 % 19.21 C
1269 24-07-2016 09:40:00 19.7 C 97 % 19.21 C
1270 24-07-2016 09:45:00 19.7 C 97 % 19.21 C
1271 24-07-2016 09:50:00 19.7 C 96 % 19.04 C
1272 24-07-2016 09:55:00 19.8 C 96 % 19.14 C
1273 24-07-2016 10:00:00 19.9 C 96 % 19.24 C
1274 24-07-2016 10:05:00 19.9 C 96 % 19.24 C
1275 24-07-2016 10:10:00 20.1 C 96 % 19.44 C
Sensor: Nr:Datum:Temp:Feuchte:Taupunkt:
Aussen-T/F 1276 24-07-2016 10:15:00 20.1 C 95 % 19.27 C
1277 24-07-2016 10:20:00 20.2 C 94 % 19.2 C
1278 24-07-2016 10:25:00 20.3 C 94 % 19.3 C
1279 24-07-2016 10:30:00 20.4 C 94 % 19.4 C
1280 24-07-2016 10:35:00 20.4 C 93 % 19.23 C
1281 24-07-2016 10:40:00 20.6 C 93 % 19.43 C
1282 24-07-2016 10:45:00 20.7 C 92 % 19.35 C
1283 24-07-2016 10:50:00 20.7 C 92 % 19.35 C
1284 24-07-2016 10:55:00 20.8 C 91 % 19.28 C
1285 24-07-2016 11:00:00 20.8 C 91 % 19.28 C
1286 24-07-2016 11:05:00 20.9 C 91 % 19.37 C
1287 24-07-2016 11:10:00 21.1 C 90 % 19.39 C
1288 24-07-2016 11:15:00 21.3 C 89 % 19.41 C
1289 24-07-2016 11:20:00 21.4 C 90 % 19.69 C
1290 24-07-2016 11:25:00 21.4 C 88 % 19.33 C
1291 24-07-2016 11:30:00 21.7 C 91 % 20.17 C
1292 24-07-2016 11:35:00 21.8 C 92 % 20.44 C
1293 24-07-2016 11:40:00 21.8 C 89 % 19.9 C
1294 24-07-2016 11:45:00 21.9 C 90 % 20.18 C
1295 24-07-2016 11:50:00 22 C 88 % 19.92 C
1296 24-07-2016 11:55:00 22.1 C 87 % 19.83 C
1297 24-07-2016 12:00:00 22.3 C 85 % 19.65 C
1298 24-07-2016 12:05:00 22.5 C 87 % 20.23 C
1299 24-07-2016 12:10:00 22.7 C 85 % 20.05 C
1300 24-07-2016 12:15:00 22.9 C 82 % 19.66 C
Sensor: Nr:Datum:Temp:Feuchte:Taupunkt:
Aussen-T/F 1301 24-07-2016 12:20:00 23.2 C 82 % 19.95 C
1302 24-07-2016 12:25:00 23.3 C 81 % 19.85 C
1303 24-07-2016 12:30:00 23.3 C 80 % 19.65 C
1304 24-07-2016 12:35:00 23.3 C 79 % 19.45 C
1305 24-07-2016 12:40:00 23.3 C 79 % 19.45 C
1306 24-07-2016 12:45:00 23.3 C 79 % 19.45 C
1307 24-07-2016 12:50:00 23.3 C 77 % 19.04 C
1308 24-07-2016 12:55:00 23.4 C 83 % 20.35 C
1309 24-07-2016 13:00:00 23.5 C 80 % 19.85 C
1310 24-07-2016 13:05:00 23.6 C 80 % 19.95 C
1311 24-07-2016 13:10:00 23.7 C 81 % 20.24 C
1312 24-07-2016 13:15:00 23.7 C 81 % 20.24 C
1313 24-07-2016 13:20:00 23.6 C 81 % 20.15 C
1314 24-07-2016 13:25:00 23.7 C 81 % 20.24 C
1315 24-07-2016 13:30:00 23.7 C 82 % 20.44 C
1316 24-07-2016 13:35:00 23.8 C 83 % 20.74 C
1317 24-07-2016 13:40:00 23.9 C 79 % 20.03 C
1318 24-07-2016 13:45:00 23.9 C 76 % 19.41 C
1319 24-07-2016 13:50:00 24 C 80 % 20.33 C
1320 24-07-2016 13:55:00 24.1 C 77 % 19.81 C
1321 24-07-2016 14:00:00 24.2 C 76 % 19.7 C
1322 24-07-2016 14:05:00 24.3 C 76 % 19.8 C
1323 24-07-2016 14:10:00 24.3 C 76 % 19.8 C
1324 24-07-2016 14:15:00 24.5 C 77 % 20.2 C
1325 24-07-2016 14:20:00 24.6 C 74 % 19.66 C
Sensor: Nr:Datum:Temp:Feuchte:Taupunkt:
Aussen-T/F 1326 24-07-2016 14:25:00 24.6 C 73 % 19.44 C
1327 24-07-2016 14:30:00 24.7 C 75 % 19.97 C
1328 24-07-2016 14:35:00 24.7 C 73 % 19.53 C
1329 24-07-2016 14:40:00 24.7 C 73 % 19.53 C
1330 24-07-2016 14:45:00 24.7 C 74 % 19.75 C
1331 24-07-2016 14:50:00 24.7 C 82 % 21.42 C
1332 24-07-2016 14:55:00 24.7 C 76 % 20.18 C
1333 24-07-2016 15:00:00 24.8 C 74 % 19.85 C
1334 24-07-2016 15:05:00 25.2 C 75 % 20.45 C
1335 24-07-2016 15:10:00 25.6 C 70 % 19.72 C
1336 24-07-2016 15:15:00 25.8 C 70 % 19.91 C
1337 24-07-2016 15:20:00 25.9 C 69 % 19.77 C
1338 24-07-2016 15:25:00 25.9 C 70 % 20.01 C
1339 24-07-2016 15:30:00 26.1 C 67 % 19.49 C
1340 24-07-2016 15:35:00 26.3 C 66 % 19.44 C
1341 24-07-2016 15:40:00 26.6 C 66 % 19.72 C
1342 24-07-2016 15:45:00 27 C 63 % 19.35 C
1343 24-07-2016 15:50:00 27.3 C 63 % 19.63 C
1344 24-07-2016 15:55:00 27.4 C 59 % 18.68 C
1345 24-07-2016 16:00:00 27.7 C 63 % 20.01 C
1346 24-07-2016 16:05:00 28 C 59 % 19.24 C
1347 24-07-2016 16:10:00 28.1 C 64 % 20.64 C
1348 24-07-2016 16:15:00 28.2 C 70 % 22.2 C
1349 24-07-2016 16:20:00 28 C 60 % 19.51 C
1350 24-07-2016 16:25:00 27.8 C 59 % 19.05 C
Sensor: Nr:Datum:Temp:Feuchte:Taupunkt:
Aussen-T/F 1351 24-07-2016 16:30:00 28.1 C 67 % 21.39 C
1352 24-07-2016 16:35:00 28.1 C 64 % 20.64 C
1353 24-07-2016 16:40:00 27.9 C 62 % 19.94 C
1354 24-07-2016 16:45:00 27.6 C 63 % 19.92 C
1355 24-07-2016 16:50:00 27.5 C 60 % 19.04 C
1356 24-07-2016 16:55:00 27.6 C 71 % 21.86 C
1357 24-07-2016 17:00:00 27.5 C 65 % 20.33 C
1358 24-07-2016 17:05:00 27.8 C 74 % 22.73 C
1359 24-07-2016 17:10:00 27.9 C 61 % 19.68 C
1360 24-07-2016 17:15:00 28.2 C 61 % 19.96 C
1361 24-07-2016 17:20:00 28.3 C 60 % 19.79 C
1362 24-07-2016 17:25:00 28.4 C 59 % 19.61 C
1363 24-07-2016 17:30:00 28.5 C 57 % 19.15 C
1364 24-07-2016 17:35:00 28.6 C 58 % 19.52 C
1365 24-07-2016 17:40:00 28.7 C 63 % 20.95 C
1366 24-07-2016 17:45:00 28.7 C 57 % 19.34 C
1367 24-07-2016 17:50:00 28.8 C 59 % 19.99 C
1368 24-07-2016 17:55:00 29.1 C 56 % 19.42 C
1369 24-07-2016 18:00:00 29.2 C 57 % 19.8 C
1370 24-07-2016 18:05:00 29.1 C 57 % 19.71 C
1371 24-07-2016 18:10:00 28.9 C 56 % 19.24 C
1372 24-07-2016 18:15:00 28.9 C 58 % 19.8 C
1373 24-07-2016 18:20:00 28.7 C 59 % 19.89 C
1374 24-07-2016 18:25:00 28.5 C 60 % 19.98 C
1375 24-07-2016 18:30:00 28.2 C 62 % 20.22 C
Sensor: Nr:Datum:Temp:Feuchte:Taupunkt:
Aussen-T/F 1376 24-07-2016 18:35:00 28 C 62 % 20.04 C
1377 24-07-2016 18:40:00 27.8 C 60 % 19.32 C
1378 24-07-2016 18:45:00 27.8 C 69 % 21.59 C
1379 24-07-2016 18:50:00 27.6 C 71 % 21.86 C
1380 24-07-2016 18:55:00 27.5 C 67 % 20.82 C
1381 24-07-2016 19:00:00 27.7 C 64 % 20.27 C
1382 24-07-2016 19:05:00 28 C 67 % 21.3 C
1383 24-07-2016 19:10:00 28 C 62 % 20.04 C
1384 24-07-2016 19:15:00 28.1 C 63 % 20.39 C
1385 24-07-2016 19:20:00 28.1 C 63 % 20.39 C
1386 24-07-2016 19:25:00 28.1 C 68 % 21.63 C
1387 24-07-2016 19:30:00 27.9 C 63 % 20.2 C
1388 24-07-2016 19:35:00 27.7 C 69 % 21.49 C
1389 24-07-2016 19:40:00 27.6 C 72 % 22.09 C
1390 24-07-2016 19:45:00 27.3 C 73 % 22.03 C
1391 24-07-2016 19:50:00 27.1 C 73 % 21.84 C
1392 24-07-2016 19:55:00 26.7 C 74 % 21.68 C
1393 24-07-2016 20:00:00 26.4 C 75 % 21.61 C
1394 24-07-2016 20:05:00 26.1 C 75 % 21.32 C
1395 24-07-2016 20:10:00 25.7 C 75 % 20.93 C
1396 24-07-2016 20:15:00 25.4 C 77 % 21.07 C
1397 24-07-2016 20:20:00 25.1 C 77 % 20.78 C
1398 24-07-2016 20:25:00 24.8 C 78 % 20.7 C
1399 24-07-2016 20:30:00 24.6 C 79 % 20.71 C
1400 24-07-2016 20:35:00 24.3 C 80 % 20.63 C
Sensor: Nr:Datum:Temp:Feuchte:Taupunkt:
Aussen-T/F 1401 24-07-2016 20:40:00 24 C 80 % 20.33 C
1402 24-07-2016 20:45:00 23.7 C 81 % 20.24 C
1403 24-07-2016 20:50:00 23.4 C 81 % 19.95 C
1404 24-07-2016 20:55:00 23.2 C 82 % 19.95 C
1405 24-07-2016 21:00:00 22.9 C 82 % 19.66 C
1406 24-07-2016 21:05:00 22.8 C 83 % 19.76 C
1407 24-07-2016 21:10:00 22.6 C 83 % 19.56 C
1408 24-07-2016 21:15:00 22.3 C 84 % 19.46 C
1409 24-07-2016 21:20:00 22.1 C 84 % 19.27 C
1410 24-07-2016 21:25:00 21.9 C 84 % 19.07 C
1411 24-07-2016 21:30:00 21.8 C 85 % 19.16 C
1412 24-07-2016 21:35:00 21.6 C 85 % 18.97 C
1413 24-07-2016 21:40:00 21.5 C 85 % 18.87 C
1414 24-07-2016 21:45:00 21.4 C 85 % 18.77 C
1415 24-07-2016 21:50:00 21.3 C 85 % 18.67 C
1416 24-07-2016 21:55:00 21.2 C 86 % 18.76 C
1417 24-07-2016 22:00:00 21.2 C 86 % 18.76 C
1418 24-07-2016 22:05:00 21.1 C 87 % 18.85 C
1419 24-07-2016 22:10:00 21 C 87 % 18.75 C
1420 24-07-2016 22:15:00 20.9 C 87 % 18.65 C
1421 24-07-2016 22:20:00 20.8 C 87 % 18.56 C
1422 24-07-2016 22:25:00 20.7 C 88 % 18.64 C
1423 24-07-2016 22:30:00 20.7 C 88 % 18.64 C
1424 24-07-2016 22:35:00 20.6 C 89 % 18.72 C
1425 24-07-2016 22:40:00 20.4 C 89 % 18.53 C
Sensor: Nr:Datum:Temp:Feuchte:Taupunkt:
Aussen-T/F 1426 24-07-2016 22:45:00 20.4 C 89 % 18.53 C
1427 24-07-2016 22:50:00 20.3 C 90 % 18.61 C
1428 24-07-2016 22:55:00 20.3 C 90 % 18.61 C
1429 24-07-2016 23:00:00 20.3 C 90 % 18.61 C
1430 24-07-2016 23:05:00 20.3 C 91 % 18.78 C
1431 24-07-2016 23:10:00 20.3 C 91 % 18.78 C
1432 24-07-2016 23:15:00 20.3 C 91 % 18.78 C
1433 24-07-2016 23:20:00 20.3 C 91 % 18.78 C
1434 24-07-2016 23:25:00 20.3 C 91 % 18.78 C
1435 24-07-2016 23:30:00 20.2 C 91 % 18.68 C
1436 24-07-2016 23:35:00 20.2 C 91 % 18.68 C
1437 24-07-2016 23:40:00 20.1 C 91 % 18.58 C
1438 24-07-2016 23:45:00 20.1 C 91 % 18.58 C
1439 24-07-2016 23:50:00 19.9 C 91 % 18.39 C
1440 24-07-2016 23:55:00 19.9 C 91 % 18.39 C
1441 25-07-2016 00:00:00 19.8 C 91 % 18.29 C
1442 25-07-2016 00:05:00 19.8 C 91 % 18.29 C
1443 25-07-2016 00:10:00 19.7 C 92 % 18.36 C
1444 25-07-2016 00:15:00 19.7 C 92 % 18.36 C
1445 25-07-2016 00:20:00 19.8 C 92 % 18.46 C
1446 25-07-2016 00:25:00 19.8 C 92 % 18.46 C
1447 25-07-2016 00:30:00 19.8 C 92 % 18.46 C
1448 25-07-2016 00:35:00 19.8 C 92 % 18.46 C
1449 25-07-2016 00:40:00 19.8 C 92 % 18.46 C
1450 25-07-2016 00:45:00 19.8 C 92 % 18.46 C
Sensor: Nr:Datum:Temp:Feuchte:Taupunkt:
Aussen-T/F 1451 25-07-2016 00:50:00 19.8 C 92 % 18.46 C
1452 25-07-2016 00:55:00 19.8 C 92 % 18.46 C
1453 25-07-2016 01:00:00 19.8 C 92 % 18.46 C
1454 25-07-2016 01:05:00 19.8 C 92 % 18.46 C
1455 25-07-2016 01:10:00 19.8 C 92 % 18.46 C
1456 25-07-2016 01:15:00 19.8 C 92 % 18.46 C
1457 25-07-2016 01:20:00 19.8 C 92 % 18.46 C
1458 25-07-2016 01:25:00 19.8 C 92 % 18.46 C
1459 25-07-2016 01:30:00 19.7 C 92 % 18.36 C
1460 25-07-2016 01:35:00 19.7 C 92 % 18.36 C
1461 25-07-2016 01:40:00 19.6 C 92 % 18.26 C
1462 25-07-2016 01:45:00 19.5 C 92 % 18.17 C
1463 25-07-2016 01:50:00 19.3 C 91 % 17.79 C
1464 25-07-2016 01:55:00 19.3 C 92 % 17.97 C
1465 25-07-2016 02:00:00 19.2 C 92 % 17.87 C
1466 25-07-2016 02:05:00 19.2 C 92 % 17.87 C
1467 25-07-2016 02:10:00 19.2 C 92 % 17.87 C
1468 25-07-2016 02:15:00 19.1 C 92 % 17.77 C
1469 25-07-2016 02:20:00 18.9 C 92 % 17.57 C
1470 25-07-2016 02:25:00 18.8 C 92 % 17.47 C
1471 25-07-2016 02:30:00 18.7 C 92 % 17.37 C
1472 25-07-2016 02:35:00 18.6 C 92 % 17.27 C
1473 25-07-2016 02:40:00 18.6 C 93 % 17.45 C
1474 25-07-2016 02:45:00 18.5 C 93 % 17.35 C
1475 25-07-2016 02:50:00 18.5 C 93 % 17.35 C
Sensor: Nr:Datum:Temp:Feuchte:Taupunkt:
Aussen-T/F 1476 25-07-2016 02:55:00 18.5 C 94 % 17.52 C
1477 25-07-2016 03:00:00 18.6 C 94 % 17.62 C
1478 25-07-2016 03:05:00 18.6 C 94 % 17.62 C
1479 25-07-2016 03:10:00 18.6 C 94 % 17.62 C
1480 25-07-2016 03:15:00 18.4 C 94 % 17.42 C
1481 25-07-2016 03:20:00 18.4 C 93 % 17.25 C
1482 25-07-2016 03:25:00 18.3 C 94 % 17.32 C
1483 25-07-2016 03:30:00 18.3 C 94 % 17.32 C
1484 25-07-2016 03:35:00 18.2 C 94 % 17.22 C
1485 25-07-2016 03:40:00 18.2 C 94 % 17.22 C
1486 25-07-2016 03:45:00 18.2 C 94 % 17.22 C
1487 25-07-2016 03:50:00 18.1 C 94 % 17.12 C
1488 25-07-2016 03:55:00 18.1 C 94 % 17.12 C
1489 25-07-2016 04:00:00 18.1 C 94 % 17.12 C
1490 25-07-2016 04:05:00 18.1 C 94 % 17.12 C
1491 25-07-2016 04:10:00 18 C 94 % 17.02 C
1492 25-07-2016 04:15:00 17.9 C 94 % 16.92 C
1493 25-07-2016 04:20:00 17.9 C 94 % 16.92 C
1494 25-07-2016 04:25:00 17.8 C 94 % 16.82 C
1495 25-07-2016 04:30:00 17.8 C 94 % 16.82 C
1496 25-07-2016 04:35:00 17.8 C 95 % 16.99 C
1497 25-07-2016 04:40:00 17.8 C 95 % 16.99 C
1498 25-07-2016 04:45:00 17.8 C 95 % 16.99 C
1499 25-07-2016 04:50:00 17.8 C 95 % 16.99 C
1500 25-07-2016 04:55:00 17.8 C 95 % 16.99 C
Sensor: Nr:Datum:Temp:Feuchte:Taupunkt:
Aussen-T/F 1501 25-07-2016 05:00:00 17.7 C 95 % 16.89 C
1502 25-07-2016 05:05:00 17.7 C 95 % 16.89 C
1503 25-07-2016 05:10:00 17.6 C 95 % 16.79 C
1504 25-07-2016 05:15:00 17.6 C 95 % 16.79 C
1505 25-07-2016 05:20:00 17.5 C 95 % 16.69 C
1506 25-07-2016 05:25:00 17.5 C 95 % 16.69 C
1507 25-07-2016 05:30:00 17.5 C 95 % 16.69 C
1508 25-07-2016 05:35:00 17.6 C 95 % 16.79 C
1509 25-07-2016 05:40:00 17.6 C 95 % 16.79 C
1510 25-07-2016 05:45:00 17.6 C 95 % 16.79 C
1511 25-07-2016 05:50:00 17.5 C 95 % 16.69 C
1512 25-07-2016 05:55:00 17.5 C 95 % 16.69 C
1513 25-07-2016 06:00:00 17.4 C 95 % 16.59 C
1514 25-07-2016 06:05:00 17.3 C 95 % 16.49 C
1515 25-07-2016 06:10:00 17.3 C 95 % 16.49 C
1516 25-07-2016 06:15:00 17.2 C 95 % 16.39 C
1517 25-07-2016 06:20:00 17.3 C 95 % 16.49 C
1518 25-07-2016 06:25:00 17.3 C 95 % 16.49 C
1519 25-07-2016 06:30:00 17.3 C 95 % 16.49 C
1520 25-07-2016 06:35:00 17.4 C 95 % 16.59 C
1521 25-07-2016 06:40:00 17.4 C 95 % 16.59 C
1522 25-07-2016 06:45:00 17.5 C 96 % 16.85 C
1523 25-07-2016 06:50:00 17.6 C 96 % 16.95 C
1524 25-07-2016 06:55:00 17.7 C 96 % 17.05 C
1525 25-07-2016 07:00:00 17.7 C 96 % 17.05 C
Sensor: Nr:Datum:Temp:Feuchte:Taupunkt:
Aussen-T/F 1526 25-07-2016 07:05:00 17.8 C 96 % 17.15 C
1527 25-07-2016 07:10:00 17.9 C 96 % 17.25 C
1528 25-07-2016 07:15:00 17.9 C 96 % 17.25 C
1529 25-07-2016 07:20:00 18.1 C 96 % 17.45 C
1530 25-07-2016 07:25:00 18.2 C 96 % 17.55 C
1531 25-07-2016 07:30:00 18.3 C 96 % 17.65 C
1532 25-07-2016 07:35:00 18.3 C 96 % 17.65 C
1533 25-07-2016 07:40:00 18.4 C 96 % 17.75 C
1534 25-07-2016 07:45:00 18.4 C 95 % 17.58 C
1535 25-07-2016 07:50:00 18.6 C 95 % 17.78 C
1536 25-07-2016 07:55:00 18.6 C 95 % 17.78 C
1537 25-07-2016 08:00:00 18.7 C 95 % 17.88 C
1538 25-07-2016 08:05:00 18.8 C 95 % 17.98 C
1539 25-07-2016 08:10:00 18.9 C 95 % 18.08 C
1540 25-07-2016 08:15:00 19 C 95 % 18.18 C
1541 25-07-2016 08:20:00 19.1 C 95 % 18.28 C
1542 25-07-2016 08:25:00 19.1 C 94 % 18.11 C
1543 25-07-2016 08:30:00 19.1 C 94 % 18.11 C
1544 25-07-2016 08:35:00 19.2 C 94 % 18.21 C
1545 25-07-2016 08:40:00 19.3 C 94 % 18.31 C
1546 25-07-2016 08:45:00 19.4 C 94 % 18.41 C
1547 25-07-2016 08:50:00 19.6 C 94 % 18.61 C
1548 25-07-2016 08:55:00 19.7 C 94 % 18.71 C
1549 25-07-2016 09:00:00 19.7 C 93 % 18.54 C
1550 25-07-2016 09:05:00 19.8 C 93 % 18.63 C
Sensor: Nr:Datum:Temp:Feuchte:Taupunkt:
Aussen-T/F 1551 25-07-2016 09:10:00 20 C 93 % 18.83 C
1552 25-07-2016 09:15:00 20.1 C 93 % 18.93 C
1553 25-07-2016 09:20:00 20.1 C 92 % 18.76 C
1554 25-07-2016 09:25:00 20.2 C 91 % 18.68 C
1555 25-07-2016 09:30:00 20.2 C 90 % 18.51 C
1556 25-07-2016 09:35:00 20.3 C 91 % 18.78 C
1557 25-07-2016 09:40:00 20.3 C 88 % 18.25 C
1558 25-07-2016 09:45:00 20.5 C 90 % 18.8 C
1559 25-07-2016 09:50:00 20.6 C 86 % 18.18 C
1560 25-07-2016 09:55:00 20.7 C 87 % 18.46 C
1561 25-07-2016 10:00:00 20.8 C 85 % 18.18 C
1562 25-07-2016 10:05:00 21 C 86 % 18.57 C
1563 25-07-2016 10:10:00 21.1 C 86 % 18.67 C
1564 25-07-2016 10:15:00 21.2 C 84 % 18.39 C
1565 25-07-2016 10:20:00 21.3 C 83 % 18.29 C
1566 25-07-2016 10:25:00 21.5 C 81 % 18.1 C
1567 25-07-2016 10:30:00 21.8 C 84 % 18.97 C
1568 25-07-2016 10:35:00 22 C 79 % 18.19 C
1569 25-07-2016 10:40:00 22.2 C 77 % 17.98 C
1570 25-07-2016 10:45:00 22.4 C 76 % 17.96 C
1571 25-07-2016 10:50:00 22.6 C 76 % 18.15 C
1572 25-07-2016 10:55:00 22.7 C 80 % 19.07 C
1573 25-07-2016 11:00:00 22.6 C 73 % 17.51 C
1574 25-07-2016 11:05:00 22.7 C 76 % 18.25 C
1575 25-07-2016 11:10:00 22.7 C 73 % 17.61 C
Sensor: Nr:Datum:Temp:Feuchte:Taupunkt:
Aussen-T/F 1576 25-07-2016 11:15:00 22.8 C 72 % 17.49 C
1577 25-07-2016 11:20:00 23 C 73 % 17.9 C
1578 25-07-2016 11:25:00 23.1 C 77 % 18.85 C
1579 25-07-2016 11:30:00 23.2 C 71 % 17.65 C
1580 25-07-2016 11:35:00 23.2 C 74 % 18.31 C
1581 25-07-2016 11:40:00 23.4 C 77 % 19.14 C
1582 25-07-2016 11:45:00 23.4 C 69 % 17.39 C
1583 25-07-2016 11:50:00 23.6 C 69 % 17.58 C
1584 25-07-2016 11:55:00 23.7 C 69 % 17.67 C
1585 25-07-2016 12:00:00 23.7 C 69 % 17.67 C
1586 25-07-2016 12:05:00 23.8 C 69 % 17.77 C
1587 25-07-2016 12:10:00 23.9 C 69 % 17.87 C
1588 25-07-2016 12:15:00 24.1 C 69 % 18.06 C
1589 25-07-2016 12:20:00 24.2 C 68 % 17.92 C
1590 25-07-2016 12:25:00 24.2 C 67 % 17.68 C
1591 25-07-2016 12:30:00 24.2 C 69 % 18.15 C
1592 25-07-2016 12:35:00 24.2 C 72 % 18.83 C
1593 25-07-2016 12:40:00 24.2 C 70 % 18.38 C
1594 25-07-2016 12:45:00 24.2 C 72 % 18.83 C
1595 25-07-2016 12:50:00 24.2 C 74 % 19.27 C
1596 25-07-2016 12:55:00 24.1 C 74 % 19.17 C
1597 25-07-2016 13:00:00 24.1 C 73 % 18.96 C
1598 25-07-2016 13:05:00 24.1 C 72 % 18.73 C
1599 25-07-2016 13:10:00 24.1 C 75 % 19.39 C
1600 25-07-2016 13:15:00 24.1 C 74 % 19.17 C
Sensor: Nr:Datum:Temp:Feuchte:Taupunkt:
Aussen-T/F 1601 25-07-2016 13:20:00 24.2 C 73 % 19.05 C
1602 25-07-2016 13:25:00 24.5 C 71 % 18.89 C
1603 25-07-2016 13:30:00 24.8 C 69 % 18.72 C
1604 25-07-2016 13:35:00 24.9 C 70 % 19.05 C
1605 25-07-2016 13:40:00 24.8 C 75 % 20.06 C
1606 25-07-2016 13:45:00 24.7 C 76 % 20.18 C
1607 25-07-2016 13:50:00 24.4 C 73 % 19.24 C
1608 25-07-2016 13:55:00 24.3 C 77 % 20.01 C
1609 25-07-2016 14:00:00 24.3 C 78 % 20.22 C
1610 25-07-2016 14:05:00 24.3 C 71 % 18.7 C
1611 25-07-2016 14:10:00 24.6 C 70 % 18.76 C
1612 25-07-2016 14:15:00 24.8 C 69 % 18.72 C
1613 25-07-2016 14:20:00 25.1 C 67 % 18.54 C
1614 25-07-2016 14:25:00 25.3 C 67 % 18.73 C
1615 25-07-2016 14:30:00 25.4 C 68 % 19.06 C
1616 25-07-2016 14:35:00 25.5 C 69 % 19.39 C
1617 25-07-2016 14:40:00 25.5 C 68 % 19.16 C
1618 25-07-2016 14:45:00 25.6 C 65 % 18.53 C
1619 25-07-2016 14:50:00 25.7 C 72 % 20.27 C
1620 25-07-2016 14:55:00 25.7 C 68 % 19.35 C
1621 25-07-2016 15:00:00 25.8 C 68 % 19.44 C
1622 25-07-2016 15:05:00 25.9 C 63 % 18.31 C
1623 25-07-2016 15:10:00 26 C 65 % 18.91 C
1624 25-07-2016 15:15:00 26.1 C 72 % 20.65 C
1625 25-07-2016 15:20:00 25.9 C 63 % 18.31 C
Sensor: Nr:Datum:Temp:Feuchte:Taupunkt:
Aussen-T/F 1626 25-07-2016 15:25:00 26.1 C 62 % 18.25 C
1627 25-07-2016 15:30:00 26.3 C 63 % 18.69 C
1628 25-07-2016 15:35:00 26.5 C 65 % 19.38 C
1629 25-07-2016 15:40:00 26.2 C 68 % 19.82 C
1630 25-07-2016 15:45:00 25.9 C 73 % 20.69 C
1631 25-07-2016 15:50:00 25.7 C 67 % 19.11 C
1632 25-07-2016 15:55:00 25.9 C 64 % 18.57 C
1633 25-07-2016 16:00:00 26.5 C 66 % 19.63 C
1634 25-07-2016 16:05:00 26.7 C 67 % 20.06 C
1635 25-07-2016 16:10:00 26.6 C 62 % 18.72 C
1636 25-07-2016 16:15:00 26.6 C 59 % 17.93 C
1637 25-07-2016 16:20:00 26.6 C 59 % 17.93 C
1638 25-07-2016 16:25:00 26.4 C 60 % 18.01 C
1639 25-07-2016 16:30:00 26.3 C 61 % 18.18 C
1640 25-07-2016 16:35:00 26.3 C 61 % 18.18 C
1641 25-07-2016 16:40:00 26.2 C 60 % 17.82 C
1642 25-07-2016 16:45:00 26.2 C 62 % 18.34 C
1643 25-07-2016 16:50:00 26.2 C 62 % 18.34 C
1644 25-07-2016 16:55:00 26.3 C 60 % 17.91 C
1645 25-07-2016 17:00:00 26.3 C 59 % 17.65 C
1646 25-07-2016 17:05:00 26.3 C 60 % 17.91 C
1647 25-07-2016 17:10:00 26.3 C 64 % 18.94 C
1648 25-07-2016 17:15:00 26.2 C 68 % 19.82 C
1649 25-07-2016 17:20:00 26.1 C 70 % 20.2 C
1650 25-07-2016 17:25:00 25.8 C 64 % 18.47 C
Sensor: Nr:Datum:Temp:Feuchte:Taupunkt:
Aussen-T/F 1651 25-07-2016 17:30:00 25.8 C 70 % 19.91 C
1652 25-07-2016 17:35:00 25.8 C 73 % 20.59 C
1653 25-07-2016 17:40:00 25.8 C 74 % 20.81 C
1654 25-07-2016 17:45:00 25.7 C 64 % 18.38 C
1655 25-07-2016 17:50:00 25.6 C 65 % 18.53 C
1656 25-07-2016 17:55:00 25.5 C 63 % 17.94 C
1657 25-07-2016 18:00:00 25.6 C 63 % 18.03 C
1658 25-07-2016 18:05:00 25.7 C 72 % 20.27 C
1659 25-07-2016 18:10:00 25.6 C 75 % 20.84 C
1660 25-07-2016 18:15:00 25.2 C 70 % 19.34 C
1661 25-07-2016 18:20:00 24.9 C 76 % 20.38 C
1662 25-07-2016 18:25:00 24.7 C 76 % 20.18 C
1663 25-07-2016 18:30:00 24.6 C 78 % 20.51 C
1664 25-07-2016 18:35:00 24.3 C 78 % 20.22 C
1665 25-07-2016 18:40:00 24.3 C 80 % 20.63 C
1666 25-07-2016 18:45:00 24.3 C 80 % 20.63 C
1667 25-07-2016 18:50:00 24.7 C 76 % 20.18 C
1668 25-07-2016 18:55:00 25.3 C 68 % 18.97 C
1669 25-07-2016 19:00:00 25.9 C 75 % 21.13 C
1670 25-07-2016 19:05:00 25.9 C 75 % 21.13 C
1671 25-07-2016 19:10:00 25.7 C 75 % 20.93 C
1672 25-07-2016 19:15:00 25.3 C 76 % 20.76 C
1673 25-07-2016 19:20:00 24.8 C 78 % 20.7 C
1674 25-07-2016 19:25:00 24.5 C 79 % 20.62 C
1675 25-07-2016 19:30:00 24.3 C 80 % 20.63 C
Sensor: Nr:Datum:Temp:Feuchte:Taupunkt:
Aussen-T/F 1676 25-07-2016 19:35:00 24.3 C 72 % 18.93 C
1677 25-07-2016 19:40:00 24.6 C 72 % 19.21 C
1678 25-07-2016 19:45:00 24.9 C 68 % 18.59 C
1679 25-07-2016 19:50:00 25.2 C 70 % 19.34 C
1680 25-07-2016 19:55:00 25.3 C 66 % 18.49 C
1681 25-07-2016 20:00:00 25.4 C 65 % 18.34 C
1682 25-07-2016 20:05:00 25.6 C 67 % 19.01 C
1683 25-07-2016 20:10:00 25.6 C 67 % 19.01 C
1684 25-07-2016 20:15:00 25.7 C 65 % 18.62 C
1685 25-07-2016 20:20:00 25.7 C 65 % 18.62 C
1686 25-07-2016 20:25:00 25.7 C 66 % 18.87 C
1687 25-07-2016 20:30:00 25.5 C 65 % 18.44 C
1688 25-07-2016 20:35:00 25.3 C 68 % 18.97 C
1689 25-07-2016 20:40:00 25.1 C 69 % 19.01 C
1690 25-07-2016 20:45:00 24.8 C 68 % 18.49 C
1691 25-07-2016 20:50:00 24.6 C 68 % 18.3 C
1692 25-07-2016 20:55:00 24.4 C 69 % 18.34 C
1693 25-07-2016 21:00:00 24.2 C 71 % 18.61 C
1694 25-07-2016 21:05:00 23.9 C 76 % 19.41 C
1695 25-07-2016 21:10:00 23.4 C 77 % 19.14 C
1696 25-07-2016 21:15:00 23 C 78 % 18.96 C
1697 25-07-2016 21:20:00 22.6 C 80 % 18.97 C
1698 25-07-2016 21:25:00 22.3 C 81 % 18.88 C
1699 25-07-2016 21:30:00 22.2 C 83 % 19.17 C
1700 25-07-2016 21:35:00 22 C 83 % 18.98 C
Sensor: Nr:Datum:Temp:Feuchte:Taupunkt:
Aussen-T/F 1701 25-07-2016 21:40:00 21.8 C 83 % 18.78 C
1702 25-07-2016 21:45:00 21.8 C 84 % 18.97 C
1703 25-07-2016 21:50:00 21.8 C 84 % 18.97 C
1704 25-07-2016 21:55:00 21.7 C 84 % 18.88 C
1705 25-07-2016 22:00:00 21.7 C 84 % 18.88 C
1706 25-07-2016 22:05:00 21.7 C 84 % 18.88 C
1707 25-07-2016 22:10:00 21.7 C 83 % 18.69 C
1708 25-07-2016 22:15:00 21.7 C 83 % 18.69 C
1709 25-07-2016 22:20:00 21.7 C 84 % 18.88 C
1710 25-07-2016 22:25:00 21.7 C 84 % 18.88 C
1711 25-07-2016 22:30:00 21.6 C 84 % 18.78 C
1712 25-07-2016 22:35:00 21.5 C 83 % 18.49 C
1713 25-07-2016 22:40:00 21.5 C 84 % 18.68 C
1714 25-07-2016 22:45:00 21.4 C 84 % 18.58 C
1715 25-07-2016 22:50:00 21.3 C 84 % 18.49 C
1716 25-07-2016 22:55:00 21.2 C 84 % 18.39 C
1717 25-07-2016 23:00:00 21 C 84 % 18.19 C
1718 25-07-2016 23:05:00 20.8 C 84 % 18 C
1719 25-07-2016 23:10:00 20.7 C 85 % 18.09 C
1720 25-07-2016 23:15:00 20.6 C 85 % 17.99 C
1721 25-07-2016 23:20:00 20.5 C 85 % 17.89 C
1722 25-07-2016 23:25:00 20.4 C 85 % 17.79 C
1723 25-07-2016 23:30:00 20.4 C 86 % 17.98 C
1724 25-07-2016 23:35:00 20.3 C 86 % 17.88 C
1725 25-07-2016 23:40:00 20.2 C 85 % 17.6 C
Sensor: Nr:Datum:Temp:Feuchte:Taupunkt:
Aussen-T/F 1726 25-07-2016 23:45:00 20.2 C 86 % 17.78 C
1727 25-07-2016 23:50:00 20.1 C 86 % 17.68 C
1728 25-07-2016 23:55:00 19.9 C 87 % 17.67 C
1729 26-07-2016 00:00:00 19.8 C 87 % 17.57 C
1730 26-07-2016 00:05:00 19.8 C 87 % 17.57 C
1731 26-07-2016 00:10:00 19.7 C 88 % 17.66 C
1732 26-07-2016 00:15:00 19.7 C 88 % 17.66 C
1733 26-07-2016 00:20:00 19.7 C 88 % 17.66 C
1734 26-07-2016 00:25:00 19.6 C 88 % 17.56 C
1735 26-07-2016 00:30:00 19.6 C 88 % 17.56 C
1736 26-07-2016 00:35:00 19.4 C 89 % 17.54 C
1737 26-07-2016 00:40:00 19.3 C 89 % 17.44 C
1738 26-07-2016 00:45:00 19.3 C 89 % 17.44 C
1739 26-07-2016 00:50:00 19.2 C 90 % 17.52 C
1740 26-07-2016 00:55:00 19.2 C 90 % 17.52 C
1741 26-07-2016 01:00:00 19.1 C 90 % 17.42 C
1742 26-07-2016 01:05:00 19 C 91 % 17.5 C
1743 26-07-2016 01:10:00 18.9 C 91 % 17.4 C
1744 26-07-2016 01:15:00 18.9 C 91 % 17.4 C
1745 26-07-2016 01:20:00 18.8 C 91 % 17.3 C
1746 26-07-2016 01:25:00 18.7 C 91 % 17.2 C
1747 26-07-2016 01:30:00 18.7 C 91 % 17.2 C
1748 26-07-2016 01:35:00 18.6 C 92 % 17.27 C
1749 26-07-2016 01:40:00 18.6 C 92 % 17.27 C
1750 26-07-2016 01:45:00 18.5 C 92 % 17.18 C
Sensor: Nr:Datum:Temp:Feuchte:Taupunkt:
Aussen-T/F 1751 26-07-2016 01:50:00 18.4 C 92 % 17.08 C
1752 26-07-2016 01:55:00 18.4 C 92 % 17.08 C
1753 26-07-2016 02:00:00 18.3 C 92 % 16.98 C
1754 26-07-2016 02:05:00 18.2 C 92 % 16.88 C
1755 26-07-2016 02:10:00 18.2 C 92 % 16.88 C
1756 26-07-2016 02:15:00 18.1 C 93 % 16.95 C
1757 26-07-2016 02:20:00 18.1 C 93 % 16.95 C
1758 26-07-2016 02:25:00 18.1 C 93 % 16.95 C
1759 26-07-2016 02:30:00 18.1 C 93 % 16.95 C
1760 26-07-2016 02:35:00 18.1 C 93 % 16.95 C
1761 26-07-2016 02:40:00 18.1 C 93 % 16.95 C
1762 26-07-2016 02:45:00 18.2 C 94 % 17.22 C
1763 26-07-2016 02:50:00 18.2 C 94 % 17.22 C
1764 26-07-2016 02:55:00 18.2 C 94 % 17.22 C
1765 26-07-2016 03:00:00 18.2 C 94 % 17.22 C
1766 26-07-2016 03:05:00 18.2 C 94 % 17.22 C
1767 26-07-2016 03:10:00 18.2 C 93 % 17.05 C
1768 26-07-2016 03:15:00 18.1 C 93 % 16.95 C
1769 26-07-2016 03:20:00 18.1 C 93 % 16.95 C
1770 26-07-2016 03:25:00 18 C 93 % 16.85 C
1771 26-07-2016 03:30:00 18 C 93 % 16.85 C
1772 26-07-2016 03:35:00 17.9 C 93 % 16.75 C
1773 26-07-2016 03:40:00 17.9 C 93 % 16.75 C
1774 26-07-2016 03:45:00 17.9 C 94 % 16.92 C
1775 26-07-2016 03:50:00 17.9 C 94 % 16.92 C
Sensor: Nr:Datum:Temp:Feuchte:Taupunkt:
Aussen-T/F 1776 26-07-2016 03:55:00 17.9 C 94 % 16.92 C
1777 26-07-2016 04:00:00 17.9 C 94 % 16.92 C
1778 26-07-2016 04:05:00 17.9 C 94 % 16.92 C
1779 26-07-2016 04:10:00 17.9 C 94 % 16.92 C
1780 26-07-2016 04:15:00 17.9 C 94 % 16.92 C
1781 26-07-2016 04:20:00 17.9 C 94 % 16.92 C
1782 26-07-2016 04:25:00 17.9 C 94 % 16.92 C
1783 26-07-2016 04:30:00 17.9 C 94 % 16.92 C
1784 26-07-2016 04:35:00 17.9 C 94 % 16.92 C
1785 26-07-2016 04:40:00 17.9 C 94 % 16.92 C
1786 26-07-2016 04:45:00 17.9 C 94 % 16.92 C
1787 26-07-2016 04:50:00 17.9 C 94 % 16.92 C
1788 26-07-2016 04:55:00 17.8 C 94 % 16.82 C
1789 26-07-2016 05:00:00 17.8 C 94 % 16.82 C
1790 26-07-2016 05:05:00 17.8 C 94 % 16.82 C
1791 26-07-2016 05:10:00 17.7 C 94 % 16.72 C
1792 26-07-2016 05:15:00 17.7 C 94 % 16.72 C
1793 26-07-2016 05:20:00 17.7 C 94 % 16.72 C
1794 26-07-2016 05:25:00 17.6 C 94 % 16.62 C
1795 26-07-2016 05:30:00 17.6 C 94 % 16.62 C
1796 26-07-2016 05:35:00 17.4 C 94 % 16.42 C
1797 26-07-2016 05:40:00 17.4 C 94 % 16.42 C
1798 26-07-2016 05:45:00 17.3 C 94 % 16.33 C
1799 26-07-2016 05:50:00 17.3 C 94 % 16.33 C
1800 26-07-2016 05:55:00 17.3 C 95 % 16.49 C
Sensor: Nr:Datum:Temp:Feuchte:Taupunkt:
Aussen-T/F 1801 26-07-2016 06:00:00 17.3 C 95 % 16.49 C
1802 26-07-2016 06:05:00 17.4 C 95 % 16.59 C
1803 26-07-2016 06:10:00 17.4 C 95 % 16.59 C
1804 26-07-2016 06:15:00 17.4 C 95 % 16.59 C
1805 26-07-2016 06:20:00 17.5 C 95 % 16.69 C
1806 26-07-2016 06:25:00 17.6 C 95 % 16.79 C
1807 26-07-2016 06:30:00 17.6 C 95 % 16.79 C
1808 26-07-2016 06:35:00 17.7 C 95 % 16.89 C
1809 26-07-2016 06:40:00 17.7 C 95 % 16.89 C
1810 26-07-2016 06:45:00 17.8 C 95 % 16.99 C
1811 26-07-2016 06:50:00 17.8 C 95 % 16.99 C
1812 26-07-2016 06:55:00 17.9 C 95 % 17.09 C
1813 26-07-2016 07:00:00 18 C 95 % 17.19 C
1814 26-07-2016 07:05:00 18.1 C 95 % 17.29 C
1815 26-07-2016 07:10:00 18.2 C 95 % 17.39 C
1816 26-07-2016 07:15:00 18.4 C 96 % 17.75 C
1817 26-07-2016 07:20:00 18.4 C 95 % 17.58 C
1818 26-07-2016 07:25:00 18.5 C 95 % 17.68 C
1819 26-07-2016 07:30:00 18.6 C 95 % 17.78 C
1820 26-07-2016 07:35:00 18.6 C 95 % 17.78 C
1821 26-07-2016 07:40:00 18.7 C 95 % 17.88 C
1822 26-07-2016 07:45:00 18.7 C 95 % 17.88 C
1823 26-07-2016 07:50:00 18.8 C 94 % 17.81 C
1824 26-07-2016 07:55:00 18.9 C 94 % 17.91 C
1825 26-07-2016 08:00:00 19 C 94 % 18.01 C
Sensor: Nr:Datum:Temp:Feuchte:Taupunkt:
Aussen-T/F 1826 26-07-2016 08:05:00 19.1 C 93 % 17.94 C
1827 26-07-2016 08:10:00 19.2 C 93 % 18.04 C
1828 26-07-2016 08:15:00 19.2 C 92 % 17.87 C
1829 26-07-2016 08:20:00 19.3 C 92 % 17.97 C
1830 26-07-2016 08:25:00 19.4 C 92 % 18.07 C
1831 26-07-2016 08:30:00 19.5 C 91 % 17.99 C
1832 26-07-2016 08:35:00 19.7 C 91 % 18.19 C
1833 26-07-2016 08:40:00 19.8 C 91 % 18.29 C
1834 26-07-2016 08:45:00 20 C 90 % 18.31 C
1835 26-07-2016 08:50:00 20.1 C 90 % 18.41 C
1836 26-07-2016 08:55:00 20.2 C 89 % 18.33 C
1837 26-07-2016 09:00:00 20.3 C 89 % 18.43 C
1838 26-07-2016 09:05:00 20.3 C 89 % 18.43 C
1839 26-07-2016 09:10:00 20.4 C 89 % 18.53 C
1840 26-07-2016 09:15:00 20.5 C 88 % 18.44 C
1841 26-07-2016 09:20:00 20.6 C 88 % 18.54 C
1842 26-07-2016 09:25:00 20.7 C 88 % 18.64 C
1843 26-07-2016 09:30:00 20.8 C 88 % 18.74 C
1844 26-07-2016 09:35:00 20.8 C 88 % 18.74 C
1845 26-07-2016 09:40:00 20.8 C 87 % 18.56 C
1846 26-07-2016 09:45:00 20.8 C 88 % 18.74 C
1847 26-07-2016 09:50:00 20.8 C 88 % 18.74 C
1848 26-07-2016 09:55:00 20.8 C 87 % 18.56 C
1849 26-07-2016 10:00:00 20.8 C 88 % 18.74 C
1850 26-07-2016 10:05:00 20.8 C 88 % 18.74 C
Sensor: Nr:Datum:Temp:Feuchte:Taupunkt:
Aussen-T/F 1851 26-07-2016 10:10:00 20.8 C 87 % 18.56 C
1852 26-07-2016 10:15:00 20.7 C 87 % 18.46 C
1853 26-07-2016 10:20:00 20.7 C 88 % 18.64 C
1854 26-07-2016 10:25:00 20.7 C 87 % 18.46 C
1855 26-07-2016 10:30:00 20.6 C 87 % 18.36 C
1856 26-07-2016 10:35:00 20.7 C 88 % 18.64 C
1857 26-07-2016 10:40:00 20.6 C 87 % 18.36 C
1858 26-07-2016 10:45:00 20.7 C 87 % 18.46 C
1859 26-07-2016 10:50:00 20.6 C 87 % 18.36 C
1860 26-07-2016 10:55:00 20.7 C 88 % 18.64 C
1861 26-07-2016 11:00:00 20.8 C 89 % 18.92 C
1862 26-07-2016 11:05:00 20.9 C 89 % 19.02 C
1863 26-07-2016 11:10:00 20.8 C 88 % 18.74 C
1864 26-07-2016 11:15:00 20.7 C 87 % 18.46 C
1865 26-07-2016 11:20:00 20.7 C 88 % 18.64 C
1866 26-07-2016 11:25:00 20.6 C 88 % 18.54 C
1867 26-07-2016 11:30:00 20.6 C 87 % 18.36 C
1868 26-07-2016 11:35:00 20.7 C 86 % 18.27 C
1869 26-07-2016 11:40:00 20.8 C 86 % 18.37 C
1870 26-07-2016 11:45:00 21 C 85 % 18.38 C
1871 26-07-2016 11:50:00 21.3 C 84 % 18.49 C
1872 26-07-2016 11:55:00 21.4 C 83 % 18.39 C
1873 26-07-2016 12:00:00 21.6 C 84 % 18.78 C
1874 26-07-2016 12:05:00 21.7 C 83 % 18.69 C
1875 26-07-2016 12:10:00 21.8 C 84 % 18.97 C
Sensor: Nr:Datum:Temp:Feuchte:Taupunkt:
Aussen-T/F 1876 26-07-2016 12:15:00 21.9 C 82 % 18.69 C
1877 26-07-2016 12:20:00 22.1 C 82 % 18.88 C
1878 26-07-2016 12:25:00 22.1 C 81 % 18.69 C
1879 26-07-2016 12:30:00 22.2 C 82 % 18.98 C
1880 26-07-2016 12:35:00 22.3 C 82 % 19.08 C
1881 26-07-2016 12:40:00 22.5 C 83 % 19.47 C
1882 26-07-2016 12:45:00 22.7 C 82 % 19.47 C
1883 26-07-2016 12:50:00 22.7 C 79 % 18.87 C
1884 26-07-2016 12:55:00 22.7 C 80 % 19.07 C
1885 26-07-2016 13:00:00 22.8 C 79 % 18.97 C
1886 26-07-2016 13:05:00 22.9 C 79 % 19.06 C
1887 26-07-2016 13:10:00 22.9 C 79 % 19.06 C
1888 26-07-2016 13:15:00 22.9 C 79 % 19.06 C
1889 26-07-2016 13:20:00 23.1 C 79 % 19.26 C
1890 26-07-2016 13:25:00 23.2 C 79 % 19.35 C
1891 26-07-2016 13:30:00 23.3 C 79 % 19.45 C
1892 26-07-2016 13:35:00 23.5 C 80 % 19.85 C
1893 26-07-2016 13:40:00 23.6 C 78 % 19.54 C
1894 26-07-2016 13:45:00 23.7 C 76 % 19.22 C
1895 26-07-2016 13:50:00 23.7 C 77 % 19.43 C
1896 26-07-2016 13:55:00 23.8 C 78 % 19.73 C
1897 26-07-2016 14:00:00 23.8 C 77 % 19.52 C
1898 26-07-2016 14:05:00 23.9 C 77 % 19.62 C
1899 26-07-2016 14:10:00 24 C 76 % 19.51 C
1900 26-07-2016 14:15:00 24.1 C 76 % 19.6 C
Sensor: Nr:Datum:Temp:Feuchte:Taupunkt:
Aussen-T/F 1901 26-07-2016 14:20:00 24.3 C 76 % 19.8 C
1902 26-07-2016 14:25:00 24.3 C 75 % 19.58 C
1903 26-07-2016 14:30:00 24.3 C 76 % 19.8 C
1904 26-07-2016 14:35:00 24.3 C 74 % 19.37 C
1905 26-07-2016 14:40:00 24.3 C 75 % 19.58 C
1906 26-07-2016 14:45:00 24.3 C 72 % 18.93 C
1907 26-07-2016 14:50:00 24.3 C 73 % 19.15 C
1908 26-07-2016 14:55:00 24.3 C 73 % 19.15 C
1909 26-07-2016 15:00:00 24.3 C 75 % 19.58 C
1910 26-07-2016 15:05:00 24.3 C 73 % 19.15 C
1911 26-07-2016 15:10:00 24.3 C 73 % 19.15 C
1912 26-07-2016 15:15:00 24.3 C 73 % 19.15 C
1913 26-07-2016 15:20:00 24.3 C 73 % 19.15 C
1914 26-07-2016 15:25:00 24.3 C 72 % 18.93 C
1915 26-07-2016 15:30:00 24.2 C 72 % 18.83 C
1916 26-07-2016 15:35:00 24.1 C 73 % 18.96 C
1917 26-07-2016 15:40:00 24 C 72 % 18.64 C
1918 26-07-2016 15:45:00 24 C 74 % 19.08 C
1919 26-07-2016 15:50:00 23.9 C 74 % 18.98 C
1920 26-07-2016 15:55:00 23.9 C 75 % 19.2 C
1921 26-07-2016 16:00:00 23.9 C 74 % 18.98 C
1922 26-07-2016 16:05:00 23.8 C 75 % 19.1 C
1923 26-07-2016 16:10:00 23.6 C 75 % 18.91 C
1924 26-07-2016 16:15:00 23.4 C 75 % 18.71 C
1925 26-07-2016 16:20:00 23.2 C 76 % 18.73 C
Sensor: Nr:Datum:Temp:Feuchte:Taupunkt:
Aussen-T/F 1926 26-07-2016 16:25:00 23.2 C 76 % 18.73 C
1927 26-07-2016 16:30:00 23.1 C 76 % 18.64 C
1928 26-07-2016 16:35:00 22.9 C 77 % 18.65 C
1929 26-07-2016 16:40:00 22.7 C 78 % 18.67 C
1930 26-07-2016 16:45:00 22.4 C 80 % 18.78 C
1931 26-07-2016 16:50:00 22.2 C 81 % 18.78 C
1932 26-07-2016 16:55:00 22.1 C 81 % 18.69 C
1933 26-07-2016 17:00:00 21.9 C 81 % 18.49 C
1934 26-07-2016 17:05:00 21.7 C 81 % 18.3 C
1935 26-07-2016 17:10:00 21.6 C 81 % 18.2 C
1936 26-07-2016 17:15:00 21.5 C 81 % 18.1 C
1937 26-07-2016 17:20:00 21.4 C 81 % 18 C
1938 26-07-2016 17:25:00 21.4 C 81 % 18 C
1939 26-07-2016 17:30:00 21.3 C 81 % 17.91 C
1940 26-07-2016 17:35:00 21.3 C 81 % 17.91 C
1941 26-07-2016 17:40:00 21.7 C 80 % 18.1 C
1942 26-07-2016 17:45:00 22.1 C 78 % 18.08 C
1943 26-07-2016 17:50:00 22.3 C 78 % 18.28 C
1944 26-07-2016 17:55:00 22.6 C 77 % 18.36 C
1945 26-07-2016 18:00:00 22.7 C 76 % 18.25 C
1946 26-07-2016 18:05:00 22.8 C 76 % 18.35 C
1947 26-07-2016 18:10:00 22.8 C 76 % 18.35 C
1948 26-07-2016 18:15:00 22.8 C 76 % 18.35 C
1949 26-07-2016 18:20:00 22.8 C 76 % 18.35 C
1950 26-07-2016 18:25:00 22.7 C 77 % 18.46 C
Sensor: Nr:Datum:Temp:Feuchte:Taupunkt:
Aussen-T/F 1951 26-07-2016 18:30:00 22.7 C 77 % 18.46 C
1952 26-07-2016 18:35:00 22.7 C 77 % 18.46 C
1953 26-07-2016 18:40:00 22.6 C 77 % 18.36 C
1954 26-07-2016 18:45:00 22.6 C 76 % 18.15 C
1955 26-07-2016 18:50:00 22.3 C 77 % 18.07 C
1956 26-07-2016 18:55:00 22 C 77 % 17.78 C
1957 26-07-2016 19:00:00 21.8 C 79 % 18 C
1958 26-07-2016 19:05:00 21.7 C 79 % 17.9 C
1959 26-07-2016 19:10:00 21.7 C 80 % 18.1 C
1960 26-07-2016 19:15:00 21.6 C 80 % 18 C
1961 26-07-2016 19:20:00 21.6 C 80 % 18 C
1962 26-07-2016 19:25:00 21.6 C 79 % 17.8 C
1963 26-07-2016 19:30:00 21.7 C 80 % 18.1 C
1964 26-07-2016 19:35:00 21.7 C 79 % 17.9 C
1965 26-07-2016 19:40:00 21.7 C 79 % 17.9 C
1966 26-07-2016 19:45:00 21.6 C 80 % 18 C
1967 26-07-2016 19:50:00 21.6 C 81 % 18.2 C
1968 26-07-2016 19:55:00 21.6 C 80 % 18 C
1969 26-07-2016 20:00:00 21.7 C 80 % 18.1 C
1970 26-07-2016 20:05:00 21.7 C 79 % 17.9 C
1971 26-07-2016 20:10:00 21.6 C 79 % 17.8 C
1972 26-07-2016 20:15:00 21.4 C 80 % 17.81 C
1973 26-07-2016 20:20:00 21.1 C 80 % 17.51 C
1974 26-07-2016 20:25:00 20.9 C 81 % 17.52 C
1975 26-07-2016 20:30:00 20.7 C 81 % 17.32 C
Sensor: Nr:Datum:Temp:Feuchte:Taupunkt:
Aussen-T/F 1976 26-07-2016 20:35:00 20.4 C 82 % 17.22 C
1977 26-07-2016 20:40:00 20.3 C 83 % 17.32 C
1978 26-07-2016 20:45:00 20.2 C 83 % 17.22 C
1979 26-07-2016 20:50:00 20 C 83 % 17.02 C
1980 26-07-2016 20:55:00 19.9 C 84 % 17.12 C
1981 26-07-2016 21:00:00 19.8 C 85 % 17.21 C
1982 26-07-2016 21:05:00 19.7 C 85 % 17.11 C
1983 26-07-2016 21:10:00 19.5 C 86 % 17.1 C
1984 26-07-2016 21:15:00 19.3 C 86 % 16.9 C
1985 26-07-2016 21:20:00 19.1 C 87 % 16.89 C
1986 26-07-2016 21:25:00 18.9 C 87 % 16.69 C
1987 26-07-2016 21:30:00 18.8 C 87 % 16.59 C
1988 26-07-2016 21:35:00 18.6 C 88 % 16.57 C
1989 26-07-2016 21:40:00 18.4 C 88 % 16.38 C
1990 26-07-2016 21:45:00 18.3 C 89 % 16.46 C
1991 26-07-2016 21:50:00 18.1 C 89 % 16.26 C
1992 26-07-2016 21:55:00 18 C 89 % 16.16 C
1993 26-07-2016 22:00:00 17.8 C 90 % 16.14 C
1994 26-07-2016 22:05:00 17.8 C 90 % 16.14 C
1995 26-07-2016 22:10:00 17.7 C 90 % 16.04 C
1996 26-07-2016 22:15:00 17.6 C 91 % 16.11 C
1997 26-07-2016 22:20:00 17.4 C 91 % 15.92 C
1998 26-07-2016 22:25:00 17.4 C 91 % 15.92 C
1999 26-07-2016 22:30:00 17.3 C 91 % 15.82 C
2000 26-07-2016 22:35:00 17.3 C 92 % 15.99 C
Sensor: Nr:Datum:Temp:Feuchte:Taupunkt:
Aussen-T/F 2001 26-07-2016 22:40:00 17.3 C 92 % 15.99 C
2002 26-07-2016 22:45:00 17.3 C 92 % 15.99 C
2003 26-07-2016 22:50:00 17.2 C 92 % 15.89 C
2004 26-07-2016 22:55:00 17.2 C 92 % 15.89 C
2005 26-07-2016 23:00:00 17.2 C 92 % 15.89 C
2006 26-07-2016 23:05:00 17.2 C 93 % 16.06 C
2007 26-07-2016 23:10:00 17.3 C 93 % 16.16 C
2008 26-07-2016 23:15:00 17.3 C 93 % 16.16 C
2009 26-07-2016 23:20:00 17.3 C 93 % 16.16 C
2010 26-07-2016 23:25:00 17.2 C 92 % 15.89 C
2011 26-07-2016 23:30:00 17.2 C 92 % 15.89 C
2012 26-07-2016 23:35:00 17.1 C 92 % 15.79 C
2013 26-07-2016 23:40:00 17.1 C 92 % 15.79 C
2014 26-07-2016 23:45:00 17 C 93 % 15.86 C
2015 26-07-2016 23:50:00 17 C 93 % 15.86 C
2016 26-07-2016 23:55:00 16.9 C 93 % 15.76 C
2017 27-07-2016 00:00:00 16.9 C 93 % 15.76 C
2018 27-07-2016 00:05:00 16.9 C 93 % 15.76 C
2019 27-07-2016 00:10:00 16.8 C 93 % 15.66 C
2020 27-07-2016 00:15:00 16.8 C 93 % 15.66 C
2021 27-07-2016 00:20:00 16.8 C 93 % 15.66 C
2022 27-07-2016 00:25:00 16.7 C 93 % 15.56 C
2023 27-07-2016 00:30:00 16.6 C 93 % 15.46 C
2024 27-07-2016 00:35:00 16.6 C 93 % 15.46 C
2025 27-07-2016 00:40:00 16.5 C 93 % 15.36 C
Sensor: Nr:Datum:Temp:Feuchte:Taupunkt:
Aussen-T/F 2026 27-07-2016 00:45:00 16.4 C 93 % 15.27 C
2027 27-07-2016 00:50:00 16.3 C 93 % 15.17 C
2028 27-07-2016 00:55:00 16.3 C 93 % 15.17 C
2029 27-07-2016 01:00:00 16.3 C 93 % 15.17 C
2030 27-07-2016 01:05:00 16.2 C 94 % 15.23 C
2031 27-07-2016 01:10:00 16.3 C 94 % 15.33 C
2032 27-07-2016 01:15:00 16.2 C 93 % 15.07 C
2033 27-07-2016 01:20:00 16.2 C 94 % 15.23 C
2034 27-07-2016 01:25:00 16.1 C 93 % 14.97 C
2035 27-07-2016 01:30:00 15.9 C 93 % 14.77 C
2036 27-07-2016 01:35:00 15.9 C 94 % 14.94 C
2037 27-07-2016 01:40:00 15.9 C 94 % 14.94 C
2038 27-07-2016 01:45:00 15.8 C 94 % 14.84 C
2039 27-07-2016 01:50:00 15.8 C 94 % 14.84 C
2040 27-07-2016 01:55:00 15.8 C 94 % 14.84 C
2041 27-07-2016 02:00:00 15.7 C 94 % 14.74 C
2042 27-07-2016 02:05:00 15.8 C 94 % 14.84 C
2043 27-07-2016 02:10:00 15.9 C 95 % 15.1 C
2044 27-07-2016 02:15:00 15.9 C 95 % 15.1 C
2045 27-07-2016 02:20:00 16.1 C 95 % 15.3 C
2046 27-07-2016 02:25:00 16.1 C 95 % 15.3 C
2047 27-07-2016 02:30:00 16.2 C 95 % 15.4 C
2048 27-07-2016 02:35:00 16.2 C 95 % 15.4 C
2049 27-07-2016 02:40:00 16.2 C 95 % 15.4 C
2050 27-07-2016 02:45:00 16.3 C 95 % 15.5 C
Sensor: Nr:Datum:Temp:Feuchte:Taupunkt:
Aussen-T/F 2051 27-07-2016 02:50:00 16.3 C 95 % 15.5 C
2052 27-07-2016 02:55:00 16.3 C 95 % 15.5 C
2053 27-07-2016 03:00:00 16.3 C 95 % 15.5 C
2054 27-07-2016 03:05:00 16.2 C 95 % 15.4 C
2055 27-07-2016 03:10:00 16.2 C 95 % 15.4 C
2056 27-07-2016 03:15:00 16.1 C 95 % 15.3 C
2057 27-07-2016 03:20:00 16.1 C 95 % 15.3 C
2058 27-07-2016 03:25:00 16 C 95 % 15.2 C
2059 27-07-2016 03:30:00 15.9 C 95 % 15.1 C
2060 27-07-2016 03:35:00 15.9 C 95 % 15.1 C
2061 27-07-2016 03:40:00 15.8 C 95 % 15 C
2062 27-07-2016 03:45:00 15.8 C 95 % 15 C
2063 27-07-2016 03:50:00 15.8 C 95 % 15 C
2064 27-07-2016 03:55:00 15.7 C 95 % 14.9 C
2065 27-07-2016 04:00:00 15.7 C 95 % 14.9 C
2066 27-07-2016 04:05:00 15.7 C 95 % 14.9 C
2067 27-07-2016 04:10:00 15.7 C 95 % 14.9 C
2068 27-07-2016 04:15:00 15.7 C 95 % 14.9 C
2069 27-07-2016 04:20:00 15.8 C 95 % 15 C
2070 27-07-2016 04:25:00 15.8 C 95 % 15 C
2071 27-07-2016 04:30:00 15.8 C 95 % 15 C
2072 27-07-2016 04:35:00 15.8 C 95 % 15 C
2073 27-07-2016 04:40:00 15.8 C 95 % 15 C
2074 27-07-2016 04:45:00 15.8 C 96 % 15.16 C
2075 27-07-2016 04:50:00 15.8 C 96 % 15.16 C
Sensor: Nr:Datum:Temp:Feuchte:Taupunkt:
Aussen-T/F 2076 27-07-2016 04:55:00 15.9 C 96 % 15.26 C
2077 27-07-2016 05:00:00 15.9 C 96 % 15.26 C
2078 27-07-2016 05:05:00 15.9 C 96 % 15.26 C
2079 27-07-2016 05:10:00 15.9 C 96 % 15.26 C
2080 27-07-2016 05:15:00 15.9 C 96 % 15.26 C
2081 27-07-2016 05:20:00 15.8 C 96 % 15.16 C
2082 27-07-2016 05:25:00 15.8 C 95 % 15 C
2083 27-07-2016 05:30:00 15.8 C 95 % 15 C
2084 27-07-2016 05:35:00 15.7 C 95 % 14.9 C
2085 27-07-2016 05:40:00 15.7 C 95 % 14.9 C
2086 27-07-2016 05:45:00 15.6 C 95 % 14.8 C
2087 27-07-2016 05:50:00 15.6 C 95 % 14.8 C
2088 27-07-2016 05:55:00 15.6 C 95 % 14.8 C
2089 27-07-2016 06:00:00 15.6 C 95 % 14.8 C
2090 27-07-2016 06:05:00 15.5 C 95 % 14.7 C
2091 27-07-2016 06:10:00 15.4 C 95 % 14.6 C
2092 27-07-2016 06:15:00 15.4 C 95 % 14.6 C
2093 27-07-2016 06:20:00 15.4 C 96 % 14.77 C
2094 27-07-2016 06:25:00 15.4 C 96 % 14.77 C
2095 27-07-2016 06:30:00 15.4 C 96 % 14.77 C
2096 27-07-2016 06:35:00 15.5 C 96 % 14.86 C
2097 27-07-2016 06:40:00 15.6 C 96 % 14.96 C
2098 27-07-2016 06:45:00 15.6 C 96 % 14.96 C
2099 27-07-2016 06:50:00 15.7 C 96 % 15.06 C
2100 27-07-2016 06:55:00 15.7 C 96 % 15.06 C
Sensor: Nr:Datum:Temp:Feuchte:Taupunkt:
Aussen-T/F 2101 27-07-2016 07:00:00 15.7 C 96 % 15.06 C
2102 27-07-2016 07:05:00 15.7 C 96 % 15.06 C
2103 27-07-2016 07:10:00 15.8 C 96 % 15.16 C
2104 27-07-2016 07:15:00 15.8 C 96 % 15.16 C
2105 27-07-2016 07:20:00 15.8 C 96 % 15.16 C
2106 27-07-2016 07:25:00 15.9 C 96 % 15.26 C
2107 27-07-2016 07:30:00 16 C 96 % 15.36 C
2108 27-07-2016 07:35:00 16.1 C 96 % 15.46 C
2109 27-07-2016 07:40:00 16.1 C 96 % 15.46 C
2110 27-07-2016 07:45:00 16.1 C 96 % 15.46 C
2111 27-07-2016 07:50:00 16.1 C 96 % 15.46 C
2112 27-07-2016 07:55:00 16.2 C 96 % 15.56 C
2113 27-07-2016 08:00:00 16.3 C 96 % 15.66 C
2114 27-07-2016 08:05:00 16.3 C 96 % 15.66 C
2115 27-07-2016 08:10:00 16.4 C 96 % 15.76 C
2116 27-07-2016 08:15:00 16.5 C 96 % 15.86 C
2117 27-07-2016 08:20:00 16.4 C 95 % 15.6 C
2118 27-07-2016 08:25:00 16.4 C 95 % 15.6 C
2119 27-07-2016 08:30:00 16.4 C 95 % 15.6 C
2120 27-07-2016 08:35:00 16.5 C 95 % 15.7 C
2121 27-07-2016 08:40:00 16.6 C 94 % 15.63 C
2122 27-07-2016 08:45:00 16.7 C 94 % 15.73 C
2123 27-07-2016 08:50:00 16.7 C 94 % 15.73 C
2124 27-07-2016 08:55:00 16.8 C 94 % 15.83 C
2125 27-07-2016 09:00:00 16.8 C 94 % 15.83 C
Sensor: Nr:Datum:Temp:Feuchte:Taupunkt:
Aussen-T/F 2126 27-07-2016 09:05:00 17 C 94 % 16.03 C
2127 27-07-2016 09:10:00 17.1 C 93 % 15.96 C
2128 27-07-2016 09:15:00 17.2 C 93 % 16.06 C
2129 27-07-2016 09:20:00 17.3 C 92 % 15.99 C
2130 27-07-2016 09:25:00 17.6 C 92 % 16.28 C
2131 27-07-2016 09:30:00 17.7 C 92 % 16.38 C
2132 27-07-2016 09:35:00 17.8 C 91 % 16.31 C
2133 27-07-2016 09:40:00 18 C 90 % 16.34 C
2134 27-07-2016 09:45:00 18.2 C 90 % 16.53 C
2135 27-07-2016 09:50:00 18.3 C 90 % 16.63 C
2136 27-07-2016 09:55:00 18.3 C 90 % 16.63 C
2137 27-07-2016 10:00:00 18.3 C 90 % 16.63 C
2138 27-07-2016 10:05:00 18.3 C 91 % 16.81 C
2139 27-07-2016 10:10:00 18.3 C 89 % 16.46 C
2140 27-07-2016 10:15:00 18.4 C 88 % 16.38 C
2141 27-07-2016 10:20:00 18.5 C 87 % 16.3 C
2142 27-07-2016 10:25:00 18.8 C 86 % 16.41 C
2143 27-07-2016 10:30:00 18.9 C 87 % 16.69 C
2144 27-07-2016 10:35:00 19.1 C 86 % 16.7 C
2145 27-07-2016 10:40:00 19.3 C 85 % 16.72 C
2146 27-07-2016 10:45:00 19.5 C 83 % 16.54 C
2147 27-07-2016 10:50:00 19.7 C 84 % 16.92 C
2148 27-07-2016 10:55:00 19.8 C 83 % 16.83 C
2149 27-07-2016 11:00:00 19.9 C 81 % 16.54 C
2150 27-07-2016 11:05:00 20.1 C 84 % 17.31 C
Sensor: Nr:Datum:Temp:Feuchte:Taupunkt:
Aussen-T/F 2151 27-07-2016 11:10:00 20.1 C 83 % 17.12 C
2152 27-07-2016 11:15:00 20.1 C 80 % 16.54 C
2153 27-07-2016 11:20:00 20.2 C 78 % 16.24 C
2154 27-07-2016 11:25:00 20.3 C 79 % 16.54 C
2155 27-07-2016 11:30:00 20.6 C 78 % 16.63 C
2156 27-07-2016 11:35:00 20.9 C 76 % 16.51 C
2157 27-07-2016 11:40:00 21.2 C 76 % 16.8 C
2158 27-07-2016 11:45:00 21.3 C 76 % 16.9 C
2159 27-07-2016 11:50:00 21.4 C 78 % 17.4 C
2160 27-07-2016 11:55:00 21.4 C 77 % 17.2 C
2161 27-07-2016 12:00:00 21.4 C 79 % 17.61 C
2162 27-07-2016 12:05:00 21.5 C 76 % 17.09 C
2163 27-07-2016 12:10:00 21.7 C 74 % 16.86 C
2164 27-07-2016 12:15:00 21.8 C 72 % 16.53 C
2165 27-07-2016 12:20:00 21.9 C 72 % 16.62 C
2166 27-07-2016 12:25:00 22.2 C 72 % 16.91 C
2167 27-07-2016 12:30:00 22.3 C 73 % 17.23 C
2168 27-07-2016 12:35:00 22.4 C 71 % 16.88 C
2169 27-07-2016 12:40:00 22.6 C 72 % 17.3 C
2170 27-07-2016 12:45:00 22.6 C 73 % 17.51 C
2171 27-07-2016 12:50:00 22.4 C 71 % 16.88 C
2172 27-07-2016 12:55:00 22.4 C 74 % 17.54 C
2173 27-07-2016 13:00:00 22.5 C 73 % 17.42 C
2174 27-07-2016 13:05:00 22.6 C 70 % 16.85 C
2175 27-07-2016 13:10:00 22.7 C 77 % 18.46 C
Sensor: Nr:Datum:Temp:Feuchte:Taupunkt:
Aussen-T/F 2176 27-07-2016 13:15:00 22.8 C 76 % 18.35 C
2177 27-07-2016 13:20:00 22.9 C 68 % 16.68 C
2178 27-07-2016 13:25:00 23.2 C 69 % 17.2 C
2179 27-07-2016 13:30:00 23.3 C 68 % 17.06 C
2180 27-07-2016 13:35:00 23.4 C 64 % 16.2 C
2181 27-07-2016 13:40:00 23.4 C 65 % 16.45 C
2182 27-07-2016 13:45:00 23.4 C 61 % 15.45 C
2183 27-07-2016 13:50:00 23.5 C 60 % 15.29 C
2184 27-07-2016 13:55:00 23.6 C 62 % 15.89 C
2185 27-07-2016 14:00:00 23.6 C 61 % 15.64 C
2186 27-07-2016 14:05:00 23.7 C 66 % 16.97 C
2187 27-07-2016 14:10:00 23.8 C 59 % 15.31 C
2188 27-07-2016 14:15:00 24 C 58 % 15.23 C
2189 27-07-2016 14:20:00 24.1 C 56 % 14.78 C
2190 27-07-2016 14:25:00 24 C 59 % 15.5 C
2191 27-07-2016 14:30:00 23.9 C 58 % 15.14 C
2192 27-07-2016 14:35:00 23.9 C 60 % 15.66 C
2193 27-07-2016 14:40:00 23.8 C 60 % 15.57 C
2194 27-07-2016 14:45:00 23.7 C 61 % 15.73 C
2195 27-07-2016 14:50:00 23.7 C 59 % 15.21 C
2196 27-07-2016 14:55:00 23.8 C 57 % 14.77 C
2197 27-07-2016 15:00:00 24 C 58 % 15.23 C
2198 27-07-2016 15:05:00 24.1 C 64 % 16.86 C
2199 27-07-2016 15:10:00 24.1 C 58 % 15.32 C
2200 27-07-2016 15:15:00 24 C 64 % 16.77 C
Sensor: Nr:Datum:Temp:Feuchte:Taupunkt:
Aussen-T/F 2201 27-07-2016 15:20:00 23.8 C 61 % 15.83 C
2202 27-07-2016 15:25:00 23.7 C 65 % 16.73 C
2203 27-07-2016 15:30:00 23.7 C 57 % 14.68 C
2204 27-07-2016 15:35:00 23.8 C 69 % 17.77 C
2205 27-07-2016 15:40:00 23.8 C 69 % 17.77 C
2206 27-07-2016 15:45:00 23.7 C 62 % 15.99 C
2207 27-07-2016 15:50:00 23.7 C 66 % 16.97 C
2208 27-07-2016 15:55:00 23.8 C 68 % 17.54 C
2209 27-07-2016 16:00:00 23.7 C 65 % 16.73 C
2210 27-07-2016 16:05:00 23.6 C 69 % 17.58 C
2211 27-07-2016 16:10:00 23.5 C 71 % 17.94 C
2212 27-07-2016 16:15:00 23.3 C 62 % 15.61 C
2213 27-07-2016 16:20:00 23.6 C 63 % 16.14 C
2214 27-07-2016 16:25:00 24 C 59 % 15.5 C
2215 27-07-2016 16:30:00 24.2 C 56 % 14.87 C
2216 27-07-2016 16:35:00 24.1 C 56 % 14.78 C
2217 27-07-2016 16:40:00 24.1 C 58 % 15.32 C
2218 27-07-2016 16:45:00 24.1 C 67 % 17.59 C
2219 27-07-2016 16:50:00 24.1 C 64 % 16.86 C
2220 27-07-2016 16:55:00 24.2 C 59 % 15.68 C
2221 27-07-2016 17:00:00 24.3 C 55 % 14.68 C
2222 27-07-2016 17:05:00 24.6 C 60 % 16.32 C
2223 27-07-2016 17:10:00 24.8 C 63 % 17.28 C
2224 27-07-2016 17:15:00 25.1 C 65 % 18.06 C
2225 27-07-2016 17:20:00 25.2 C 67 % 18.63 C
Sensor: Nr:Datum:Temp:Feuchte:Taupunkt:
Aussen-T/F 2226 27-07-2016 17:25:00 25.4 C 63 % 17.84 C
2227 27-07-2016 17:30:00 25.8 C 61 % 17.71 C
2228 27-07-2016 17:35:00 25.9 C 52 % 15.29 C
2229 27-07-2016 17:40:00 26.4 C 54 % 16.34 C
2230 27-07-2016 17:45:00 27 C 47 % 14.73 C
2231 27-07-2016 17:50:00 27.3 C 46 % 14.67 C
2232 27-07-2016 17:55:00 27.3 C 54 % 17.18 C
2233 27-07-2016 18:00:00 26.9 C 47 % 14.64 C
2234 27-07-2016 18:05:00 26.7 C 55 % 16.91 C
2235 27-07-2016 18:10:00 26.3 C 49 % 14.74 C
2236 27-07-2016 18:15:00 25.9 C 60 % 17.54 C
2237 27-07-2016 18:20:00 25.5 C 55 % 15.8 C
2238 27-07-2016 18:25:00 25.1 C 52 % 14.55 C
2239 27-07-2016 18:30:00 24.9 C 63 % 17.37 C
2240 27-07-2016 18:35:00 24.7 C 66 % 17.92 C
2241 27-07-2016 18:40:00 24.3 C 66 % 17.54 C
2242 27-07-2016 18:45:00 23.9 C 66 % 17.16 C
2243 27-07-2016 18:50:00 23.6 C 68 % 17.35 C
2244 27-07-2016 18:55:00 23.4 C 66 % 16.69 C
2245 27-07-2016 19:00:00 23.4 C 70 % 17.62 C
2246 27-07-2016 19:05:00 23.8 C 62 % 16.08 C
2247 27-07-2016 19:10:00 24.1 C 68 % 17.82 C
2248 27-07-2016 19:15:00 23.8 C 68 % 17.54 C
2249 27-07-2016 19:20:00 23.4 C 69 % 17.39 C
2250 27-07-2016 19:25:00 23.1 C 71 % 17.55 C
Sensor: Nr:Datum:Temp:Feuchte:Taupunkt:
Aussen-T/F 2251 27-07-2016 19:30:00 22.6 C 71 % 17.07 C
2252 27-07-2016 19:35:00 22.3 C 71 % 16.79 C
2253 27-07-2016 19:40:00 22.2 C 72 % 16.91 C
2254 27-07-2016 19:45:00 22 C 73 % 16.94 C
2255 27-07-2016 19:50:00 21.7 C 73 % 16.65 C
2256 27-07-2016 19:55:00 21.4 C 73 % 16.36 C
2257 27-07-2016 20:00:00 21.3 C 75 % 16.69 C
2258 27-07-2016 20:05:00 21.1 C 75 % 16.5 C
2259 27-07-2016 20:10:00 20.9 C 76 % 16.51 C
2260 27-07-2016 20:15:00 20.8 C 77 % 16.62 C
2261 27-07-2016 20:20:00 20.7 C 79 % 16.93 C
2262 27-07-2016 20:25:00 20.6 C 77 % 16.43 C
2263 27-07-2016 20:30:00 20.4 C 78 % 16.44 C
2264 27-07-2016 20:35:00 20.3 C 77 % 16.14 C
2265 27-07-2016 20:40:00 20.3 C 77 % 16.14 C
2266 27-07-2016 20:45:00 20.3 C 77 % 16.14 C
2267 27-07-2016 20:50:00 20.2 C 78 % 16.24 C
2268 27-07-2016 20:55:00 20.2 C 78 % 16.24 C
2269 27-07-2016 21:00:00 20.1 C 76 % 15.74 C
2270 27-07-2016 21:05:00 20.1 C 76 % 15.74 C
2271 27-07-2016 21:10:00 20.1 C 77 % 15.94 C
2272 27-07-2016 21:15:00 20.1 C 77 % 15.94 C
2273 27-07-2016 21:20:00 20.1 C 77 % 15.94 C
2274 27-07-2016 21:25:00 20.1 C 77 % 15.94 C
2275 27-07-2016 21:30:00 20 C 78 % 16.05 C
Sensor: Nr:Datum:Temp:Feuchte:Taupunkt:
Aussen-T/F 2276 27-07-2016 21:35:00 20 C 79 % 16.25 C
2277 27-07-2016 21:40:00 20 C 80 % 16.44 C
2278 27-07-2016 21:45:00 19.9 C 79 % 16.15 C
2279 27-07-2016 21:50:00 19.8 C 79 % 16.05 C
2280 27-07-2016 21:55:00 19.8 C 79 % 16.05 C
2281 27-07-2016 22:00:00 19.7 C 80 % 16.15 C
2282 27-07-2016 22:05:00 19.7 C 81 % 16.35 C
2283 27-07-2016 22:10:00 19.7 C 81 % 16.35 C
2284 27-07-2016 22:15:00 19.6 C 82 % 16.44 C
2285 27-07-2016 22:20:00 19.6 C 82 % 16.44 C
2286 27-07-2016 22:25:00 19.5 C 81 % 16.15 C
2287 27-07-2016 22:30:00 19.4 C 82 % 16.25 C
2288 27-07-2016 22:35:00 19.4 C 83 % 16.44 C
2289 27-07-2016 22:40:00 19.4 C 83 % 16.44 C
2290 27-07-2016 22:45:00 19.4 C 84 % 16.63 C
2291 27-07-2016 22:50:00 19.4 C 84 % 16.63 C
2292 27-07-2016 22:55:00 19.3 C 84 % 16.53 C
2293 27-07-2016 23:00:00 19.3 C 83 % 16.34 C
2294 27-07-2016 23:05:00 19.3 C 82 % 16.15 C
2295 27-07-2016 23:10:00 19.3 C 83 % 16.34 C
2296 27-07-2016 23:15:00 19.3 C 83 % 16.34 C
2297 27-07-2016 23:20:00 19.3 C 84 % 16.53 C
2298 27-07-2016 23:25:00 19.3 C 84 % 16.53 C
2299 27-07-2016 23:30:00 19.2 C 84 % 16.43 C
2300 27-07-2016 23:35:00 19.2 C 84 % 16.43 C
Sensor: Nr:Datum:Temp:Feuchte:Taupunkt:
Aussen-T/F 2301 27-07-2016 23:40:00 19.1 C 84 % 16.33 C
2302 27-07-2016 23:45:00 19.1 C 84 % 16.33 C
2303 27-07-2016 23:50:00 19 C 84 % 16.24 C
2304 27-07-2016 23:55:00 18.9 C 84 % 16.14 C
2305 28-07-2016 00:00:00 18.9 C 84 % 16.14 C
2306 28-07-2016 00:05:00 18.8 C 84 % 16.04 C
2307 28-07-2016 00:10:00 18.8 C 84 % 16.04 C
2308 28-07-2016 00:15:00 18.7 C 84 % 15.94 C
2309 28-07-2016 00:20:00 18.7 C 84 % 15.94 C
2310 28-07-2016 00:25:00 18.6 C 84 % 15.84 C
2311 28-07-2016 00:30:00 18.5 C 85 % 15.93 C
2312 28-07-2016 00:35:00 18.4 C 84 % 15.65 C
2313 28-07-2016 00:40:00 18.4 C 85 % 15.83 C
2314 28-07-2016 00:45:00 18.4 C 85 % 15.83 C
2315 28-07-2016 00:50:00 18.4 C 85 % 15.83 C
2316 28-07-2016 00:55:00 18.3 C 85 % 15.74 C
2317 28-07-2016 01:00:00 18.3 C 85 % 15.74 C
2318 28-07-2016 01:05:00 18.3 C 85 % 15.74 C
2319 28-07-2016 01:10:00 18.3 C 86 % 15.92 C
2320 28-07-2016 01:15:00 18.2 C 86 % 15.82 C
2321 28-07-2016 01:20:00 18.1 C 86 % 15.72 C
2322 28-07-2016 01:25:00 18.1 C 86 % 15.72 C
2323 28-07-2016 01:30:00 18 C 86 % 15.62 C
2324 28-07-2016 01:35:00 17.9 C 87 % 15.71 C
2325 28-07-2016 01:40:00 17.9 C 87 % 15.71 C
Sensor: Nr:Datum:Temp:Feuchte:Taupunkt:
Aussen-T/F 2326 28-07-2016 01:45:00 17.9 C 87 % 15.71 C
2327 28-07-2016 01:50:00 17.8 C 87 % 15.61 C
2328 28-07-2016 01:55:00 17.8 C 87 % 15.61 C
2329 28-07-2016 02:00:00 17.8 C 87 % 15.61 C
2330 28-07-2016 02:05:00 17.8 C 87 % 15.61 C
2331 28-07-2016 02:10:00 17.7 C 88 % 15.69 C
2332 28-07-2016 02:15:00 17.7 C 88 % 15.69 C
2333 28-07-2016 02:20:00 17.7 C 88 % 15.69 C
2334 28-07-2016 02:25:00 17.6 C 88 % 15.59 C
2335 28-07-2016 02:30:00 17.6 C 88 % 15.59 C
2336 28-07-2016 02:35:00 17.6 C 88 % 15.59 C
2337 28-07-2016 02:40:00 17.6 C 88 % 15.59 C
2338 28-07-2016 02:45:00 17.6 C 88 % 15.59 C
2339 28-07-2016 02:50:00 17.6 C 88 % 15.59 C
2340 28-07-2016 02:55:00 17.6 C 88 % 15.59 C
2341 28-07-2016 03:00:00 17.6 C 88 % 15.59 C
2342 28-07-2016 03:05:00 17.6 C 88 % 15.59 C
2343 28-07-2016 03:10:00 17.5 C 88 % 15.49 C
2344 28-07-2016 03:15:00 17.5 C 88 % 15.49 C
2345 28-07-2016 03:20:00 17.6 C 89 % 15.77 C
2346 28-07-2016 03:25:00 17.6 C 89 % 15.77 C
2347 28-07-2016 03:30:00 17.6 C 89 % 15.77 C
2348 28-07-2016 03:35:00 17.6 C 89 % 15.77 C
2349 28-07-2016 03:40:00 17.5 C 89 % 15.67 C
2350 28-07-2016 03:45:00 17.6 C 89 % 15.77 C
Sensor: Nr:Datum:Temp:Feuchte:Taupunkt:
Aussen-T/F 2351 28-07-2016 03:50:00 17.5 C 89 % 15.67 C
2352 28-07-2016 03:55:00 17.5 C 89 % 15.67 C
2353 28-07-2016 04:00:00 17.5 C 89 % 15.67 C
2354 28-07-2016 04:05:00 17.4 C 89 % 15.57 C
2355 28-07-2016 04:10:00 17.3 C 89 % 15.47 C
2356 28-07-2016 04:15:00 17.3 C 89 % 15.47 C
2357 28-07-2016 04:20:00 17.2 C 89 % 15.37 C
2358 28-07-2016 04:25:00 17.1 C 89 % 15.27 C
2359 28-07-2016 04:30:00 17.1 C 89 % 15.27 C
2360 28-07-2016 04:35:00 17.1 C 89 % 15.27 C
2361 28-07-2016 04:40:00 17 C 89 % 15.17 C
2362 28-07-2016 04:45:00 17 C 89 % 15.17 C
2363 28-07-2016 04:50:00 16.9 C 89 % 15.08 C
2364 28-07-2016 04:55:00 16.9 C 89 % 15.08 C
2365 28-07-2016 05:00:00 16.9 C 89 % 15.08 C
2366 28-07-2016 05:05:00 16.8 C 89 % 14.98 C
2367 28-07-2016 05:10:00 16.8 C 90 % 15.15 C
2368 28-07-2016 05:15:00 16.7 C 90 % 15.05 C
2369 28-07-2016 05:20:00 16.7 C 90 % 15.05 C
2370 28-07-2016 05:25:00 16.7 C 90 % 15.05 C
2371 28-07-2016 05:30:00 16.6 C 90 % 14.95 C
2372 28-07-2016 05:35:00 16.5 C 90 % 14.85 C
2373 28-07-2016 05:40:00 16.4 C 90 % 14.76 C
2374 28-07-2016 05:45:00 16.4 C 90 % 14.76 C
2375 28-07-2016 05:50:00 16.4 C 91 % 14.93 C
Sensor: Nr:Datum:Temp:Feuchte:Taupunkt:
Aussen-T/F 2376 28-07-2016 05:55:00 16.4 C 91 % 14.93 C
2377 28-07-2016 06:00:00 16.4 C 91 % 14.93 C
2378 28-07-2016 06:05:00 16.4 C 92 % 15.1 C
2379 28-07-2016 06:10:00 16.4 C 92 % 15.1 C
2380 28-07-2016 06:15:00 16.4 C 92 % 15.1 C
2381 28-07-2016 06:20:00 16.4 C 92 % 15.1 C
2382 28-07-2016 06:25:00 16.4 C 92 % 15.1 C
2383 28-07-2016 06:30:00 16.4 C 92 % 15.1 C
2384 28-07-2016 06:35:00 16.4 C 92 % 15.1 C
2385 28-07-2016 06:40:00 16.4 C 92 % 15.1 C
2386 28-07-2016 06:45:00 16.5 C 92 % 15.2 C
2387 28-07-2016 06:50:00 16.5 C 92 % 15.2 C
2388 28-07-2016 06:55:00 16.6 C 92 % 15.3 C
2389 28-07-2016 07:00:00 16.7 C 93 % 15.56 C
2390 28-07-2016 07:05:00 16.7 C 93 % 15.56 C
2391 28-07-2016 07:10:00 16.8 C 93 % 15.66 C
2392 28-07-2016 07:15:00 16.8 C 93 % 15.66 C
2393 28-07-2016 07:20:00 16.9 C 93 % 15.76 C
2394 28-07-2016 07:25:00 16.9 C 93 % 15.76 C
2395 28-07-2016 07:30:00 17.1 C 93 % 15.96 C
2396 28-07-2016 07:35:00 17.2 C 93 % 16.06 C
2397 28-07-2016 07:40:00 17.3 C 93 % 16.16 C
2398 28-07-2016 07:45:00 17.4 C 92 % 16.09 C
2399 28-07-2016 07:50:00 17.6 C 92 % 16.28 C
2400 28-07-2016 07:55:00 17.7 C 92 % 16.38 C
Sensor: Nr:Datum:Temp:Feuchte:Taupunkt:
Aussen-T/F 2401 28-07-2016 08:00:00 17.8 C 92 % 16.48 C
2402 28-07-2016 08:05:00 17.9 C 92 % 16.58 C
2403 28-07-2016 08:10:00 18 C 91 % 16.51 C
2404 28-07-2016 08:15:00 18.1 C 90 % 16.43 C
2405 28-07-2016 08:20:00 18.2 C 90 % 16.53 C
2406 28-07-2016 08:25:00 18.3 C 89 % 16.46 C
2407 28-07-2016 08:30:00 18.4 C 88 % 16.38 C
2408 28-07-2016 08:35:00 18.7 C 88 % 16.67 C
2409 28-07-2016 08:40:00 18.8 C 87 % 16.59 C
2410 28-07-2016 08:45:00 18.9 C 87 % 16.69 C
2411 28-07-2016 08:50:00 19.1 C 87 % 16.89 C
2412 28-07-2016 08:55:00 19.2 C 85 % 16.62 C
2413 28-07-2016 09:00:00 19.3 C 86 % 16.9 C
2414 28-07-2016 09:05:00 19.5 C 87 % 17.28 C
2415 28-07-2016 09:10:00 19.6 C 87 % 17.38 C
2416 28-07-2016 09:15:00 19.7 C 87 % 17.47 C
2417 28-07-2016 09:20:00 19.8 C 87 % 17.57 C
2418 28-07-2016 09:25:00 19.9 C 85 % 17.3 C
2419 28-07-2016 09:30:00 20.1 C 86 % 17.68 C
2420 28-07-2016 09:35:00 20.3 C 84 % 17.51 C
2421 28-07-2016 09:40:00 20.4 C 80 % 16.83 C
2422 28-07-2016 09:45:00 20.6 C 79 % 16.83 C
2423 28-07-2016 09:50:00 20.7 C 80 % 17.13 C
2424 28-07-2016 09:55:00 20.8 C 81 % 17.42 C
2425 28-07-2016 10:00:00 20.9 C 83 % 17.9 C
Sensor: Nr:Datum:Temp:Feuchte:Taupunkt:
Aussen-T/F 2426 28-07-2016 10:05:00 20.9 C 82 % 17.71 C
2427 28-07-2016 10:10:00 20.9 C 78 % 16.92 C
2428 28-07-2016 10:15:00 20.9 C 77 % 16.72 C
2429 28-07-2016 10:20:00 21.1 C 77 % 16.91 C
2430 28-07-2016 10:25:00 21.3 C 82 % 18.1 C
2431 28-07-2016 10:30:00 21.3 C 79 % 17.51 C
2432 28-07-2016 10:35:00 21.3 C 79 % 17.51 C
2433 28-07-2016 10:40:00 21.3 C 79 % 17.51 C
2434 28-07-2016 10:45:00 21.4 C 83 % 18.39 C
2435 28-07-2016 10:50:00 21.4 C 81 % 18 C
2436 28-07-2016 10:55:00 21.3 C 80 % 17.71 C
2437 28-07-2016 11:00:00 21.4 C 79 % 17.61 C
2438 28-07-2016 11:05:00 21.4 C 79 % 17.61 C
2439 28-07-2016 11:10:00 21.6 C 74 % 16.77 C
2440 28-07-2016 11:15:00 21.7 C 77 % 17.49 C
2441 28-07-2016 11:20:00 21.8 C 75 % 17.17 C
2442 28-07-2016 11:25:00 21.9 C 75 % 17.27 C
2443 28-07-2016 11:30:00 22 C 75 % 17.36 C
2444 28-07-2016 11:35:00 22 C 73 % 16.94 C
2445 28-07-2016 11:40:00 22.1 C 77 % 17.88 C
2446 28-07-2016 11:45:00 22.1 C 75 % 17.46 C
2447 28-07-2016 11:50:00 22.1 C 74 % 17.25 C
2448 28-07-2016 11:55:00 22.2 C 74 % 17.34 C
2449 28-07-2016 12:00:00 22.3 C 72 % 17.01 C
2450 28-07-2016 12:05:00 22.5 C 72 % 17.2 C
Sensor: Nr:Datum:Temp:Feuchte:Taupunkt:
Aussen-T/F 2451 28-07-2016 12:10:00 22.6 C 71 % 17.07 C
2452 28-07-2016 12:15:00 22.7 C 71 % 17.17 C
2453 28-07-2016 12:20:00 22.8 C 76 % 18.35 C
2454 28-07-2016 12:25:00 22.9 C 71 % 17.36 C
2455 28-07-2016 12:30:00 22.9 C 70 % 17.14 C
2456 28-07-2016 12:35:00 23.1 C 71 % 17.55 C
2457 28-07-2016 12:40:00 23.2 C 69 % 17.2 C
2458 28-07-2016 12:45:00 23.3 C 70 % 17.52 C
2459 28-07-2016 12:50:00 23.3 C 73 % 18.19 C
2460 28-07-2016 12:55:00 23.4 C 71 % 17.84 C
2461 28-07-2016 13:00:00 23.4 C 69 % 17.39 C
2462 28-07-2016 13:05:00 23.4 C 69 % 17.39 C
2463 28-07-2016 13:10:00 23.4 C 68 % 17.16 C
2464 28-07-2016 13:15:00 23.3 C 69 % 17.29 C
2465 28-07-2016 13:20:00 23.3 C 68 % 17.06 C
2466 28-07-2016 13:25:00 23.3 C 69 % 17.29 C
2467 28-07-2016 13:30:00 23.3 C 68 % 17.06 C
2468 28-07-2016 13:35:00 23.4 C 69 % 17.39 C
2469 28-07-2016 13:40:00 23.6 C 67 % 17.11 C
2470 28-07-2016 13:45:00 23.7 C 69 % 17.67 C
2471 28-07-2016 13:50:00 23.8 C 69 % 17.77 C
2472 28-07-2016 13:55:00 23.8 C 67 % 17.3 C
2473 28-07-2016 14:00:00 23.9 C 69 % 17.87 C
2474 28-07-2016 14:05:00 24.1 C 67 % 17.59 C
2475 28-07-2016 14:10:00 24.3 C 68 % 18.01 C
Sensor: Nr:Datum:Temp:Feuchte:Taupunkt:
Aussen-T/F 2476 28-07-2016 14:15:00 24.6 C 64 % 17.34 C
2477 28-07-2016 14:20:00 24.6 C 63 % 17.09 C
2478 28-07-2016 14:25:00 24.5 C 65 % 17.49 C
2479 28-07-2016 14:30:00 24.5 C 64 % 17.24 C
2480 28-07-2016 14:35:00 24.4 C 65 % 17.39 C
2481 28-07-2016 14:40:00 24.4 C 66 % 17.64 C
2482 28-07-2016 14:45:00 24.3 C 64 % 17.05 C
2483 28-07-2016 14:50:00 24.2 C 66 % 17.45 C
2484 28-07-2016 14:55:00 23.9 C 65 % 16.92 C
2485 28-07-2016 15:00:00 23.7 C 67 % 17.21 C
2486 28-07-2016 15:05:00 23.6 C 67 % 17.11 C
2487 28-07-2016 15:10:00 23.6 C 70 % 17.81 C
2488 28-07-2016 15:15:00 23.6 C 68 % 17.35 C
2489 28-07-2016 15:20:00 23.7 C 70 % 17.9 C
2490 28-07-2016 15:25:00 23.8 C 71 % 18.22 C
2491 28-07-2016 15:30:00 23.9 C 68 % 17.63 C
2492 28-07-2016 15:35:00 24.1 C 68 % 17.82 C
2493 28-07-2016 15:40:00 24.2 C 69 % 18.15 C
2494 28-07-2016 15:45:00 24.2 C 69 % 18.15 C
2495 28-07-2016 15:50:00 24.2 C 67 % 17.68 C
2496 28-07-2016 15:55:00 24.2 C 68 % 17.92 C
2497 28-07-2016 16:00:00 24.1 C 66 % 17.35 C
2498 28-07-2016 16:05:00 24.1 C 71 % 18.51 C
2499 28-07-2016 16:10:00 23.9 C 72 % 18.54 C
2500 28-07-2016 16:15:00 23.6 C 70 % 17.81 C
Sensor: Nr:Datum:Temp:Feuchte:Taupunkt:
Aussen-T/F 2501 28-07-2016 16:20:00 23.2 C 73 % 18.09 C
2502 28-07-2016 16:25:00 22.7 C 77 % 18.46 C
2503 28-07-2016 16:30:00 22 C 81 % 18.59 C
2504 28-07-2016 16:35:00 21.6 C 83 % 18.59 C
2505 28-07-2016 16:40:00 21.4 C 86 % 18.96 C
2506 28-07-2016 16:45:00 21.5 C 88 % 19.43 C
2507 28-07-2016 16:50:00 21.7 C 88 % 19.62 C
2508 28-07-2016 16:55:00 21.9 C 88 % 19.82 C
2509 28-07-2016 17:00:00 22.4 C 86 % 19.94 C
2510 28-07-2016 17:05:00 22.7 C 83 % 19.66 C
2511 28-07-2016 17:10:00 22.8 C 83 % 19.76 C
2512 28-07-2016 17:15:00 23 C 83 % 19.96 C
2513 28-07-2016 17:20:00 23.2 C 82 % 19.95 C
2514 28-07-2016 17:25:00 23.3 C 81 % 19.85 C
2515 28-07-2016 17:30:00 23.3 C 80 % 19.65 C
2516 28-07-2016 17:35:00 23.2 C 81 % 19.76 C
2517 28-07-2016 17:40:00 23.1 C 80 % 19.46 C
2518 28-07-2016 17:45:00 23.1 C 80 % 19.46 C
2519 28-07-2016 17:50:00 23.2 C 80 % 19.56 C
2520 28-07-2016 17:55:00 23.3 C 78 % 19.25 C
2521 28-07-2016 18:00:00 23.4 C 78 % 19.34 C
2522 28-07-2016 18:05:00 23.6 C 79 % 19.74 C
2523 28-07-2016 18:10:00 23.8 C 78 % 19.73 C
2524 28-07-2016 18:15:00 23.9 C 75 % 19.2 C
2525 28-07-2016 18:20:00 23.6 C 75 % 18.91 C
Sensor: Nr:Datum:Temp:Feuchte:Taupunkt:
Aussen-T/F 2526 28-07-2016 18:25:00 23.3 C 78 % 19.25 C
2527 28-07-2016 18:30:00 22.9 C 78 % 18.86 C
2528 28-07-2016 18:35:00 22.6 C 78 % 18.57 C
2529 28-07-2016 18:40:00 22.5 C 79 % 18.67 C
2530 28-07-2016 18:45:00 22.6 C 77 % 18.36 C
2531 28-07-2016 18:50:00 22.7 C 77 % 18.46 C
2532 28-07-2016 18:55:00 22.8 C 78 % 18.76 C
2533 28-07-2016 19:00:00 22.7 C 77 % 18.46 C
2534 28-07-2016 19:05:00 22.7 C 78 % 18.67 C
2535 28-07-2016 19:10:00 22.6 C 77 % 18.36 C
2536 28-07-2016 19:15:00 22.6 C 79 % 18.77 C
2537 28-07-2016 19:20:00 22.6 C 79 % 18.77 C
2538 28-07-2016 19:25:00 22.6 C 81 % 19.17 C
2539 28-07-2016 19:30:00 22.6 C 79 % 18.77 C
2540 28-07-2016 19:35:00 22.5 C 81 % 19.08 C
2541 28-07-2016 19:40:00 22.4 C 81 % 18.98 C
2542 28-07-2016 19:45:00 22.3 C 82 % 19.08 C
2543 28-07-2016 19:50:00 22.2 C 83 % 19.17 C
2544 28-07-2016 19:55:00 22.1 C 84 % 19.27 C
2545 28-07-2016 20:00:00 21.9 C 83 % 18.88 C
2546 28-07-2016 20:05:00 21.8 C 83 % 18.78 C
2547 28-07-2016 20:10:00 21.7 C 83 % 18.69 C
2548 28-07-2016 20:15:00 21.6 C 83 % 18.59 C
2549 28-07-2016 20:20:00 21.4 C 84 % 18.58 C
2550 28-07-2016 20:25:00 21.3 C 84 % 18.49 C
Sensor: Nr:Datum:Temp:Feuchte:Taupunkt:
Aussen-T/F 2551 28-07-2016 20:30:00 21.2 C 85 % 18.58 C
2552 28-07-2016 20:35:00 21 C 85 % 18.38 C
2553 28-07-2016 20:40:00 20.9 C 86 % 18.47 C
2554 28-07-2016 20:45:00 20.8 C 86 % 18.37 C
2555 28-07-2016 20:50:00 20.7 C 86 % 18.27 C
2556 28-07-2016 20:55:00 20.6 C 86 % 18.18 C
2557 28-07-2016 21:00:00 20.4 C 87 % 18.16 C
2558 28-07-2016 21:05:00 20.2 C 87 % 17.97 C
2559 28-07-2016 21:10:00 20.1 C 87 % 17.87 C
2560 28-07-2016 21:15:00 20 C 88 % 17.95 C
2561 28-07-2016 21:20:00 19.9 C 88 % 17.85 C
2562 28-07-2016 21:25:00 19.7 C 88 % 17.66 C
2563 28-07-2016 21:30:00 19.6 C 88 % 17.56 C
2564 28-07-2016 21:35:00 19.5 C 88 % 17.46 C
2565 28-07-2016 21:40:00 19.4 C 89 % 17.54 C
2566 28-07-2016 21:45:00 19.3 C 89 % 17.44 C
2567 28-07-2016 21:50:00 19.3 C 90 % 17.62 C
2568 28-07-2016 21:55:00 19.2 C 90 % 17.52 C
2569 28-07-2016 22:00:00 19.1 C 90 % 17.42 C
2570 28-07-2016 22:05:00 19.1 C 90 % 17.42 C
2571 28-07-2016 22:10:00 18.9 C 90 % 17.22 C
2572 28-07-2016 22:15:00 18.9 C 91 % 17.4 C
2573 28-07-2016 22:20:00 18.9 C 91 % 17.4 C
2574 28-07-2016 22:25:00 18.8 C 91 % 17.3 C
2575 28-07-2016 22:30:00 18.8 C 91 % 17.3 C
Sensor: Nr:Datum:Temp:Feuchte:Taupunkt:
Aussen-T/F 2576 28-07-2016 22:35:00 18.8 C 91 % 17.3 C
2577 28-07-2016 22:40:00 18.7 C 91 % 17.2 C
2578 28-07-2016 22:45:00 18.7 C 92 % 17.37 C
2579 28-07-2016 22:50:00 18.6 C 92 % 17.27 C
2580 28-07-2016 22:55:00 18.6 C 92 % 17.27 C
2581 28-07-2016 23:00:00 18.6 C 92 % 17.27 C
2582 28-07-2016 23:05:00 18.6 C 92 % 17.27 C
2583 28-07-2016 23:10:00 18.5 C 92 % 17.18 C
2584 28-07-2016 23:15:00 18.5 C 92 % 17.18 C
2585 28-07-2016 23:20:00 18.5 C 93 % 17.35 C
2586 28-07-2016 23:25:00 18.4 C 93 % 17.25 C
2587 28-07-2016 23:30:00 18.4 C 93 % 17.25 C
2588 28-07-2016 23:35:00 18.4 C 93 % 17.25 C
2589 28-07-2016 23:40:00 18.5 C 93 % 17.35 C
2590 28-07-2016 23:45:00 18.5 C 93 % 17.35 C
2591 28-07-2016 23:50:00 18.4 C 93 % 17.25 C
2592 28-07-2016 23:55:00 18.4 C 93 % 17.25 C
2593 29-07-2016 00:00:00 18.4 C 93 % 17.25 C
2594 29-07-2016 00:05:00 18.3 C 93 % 17.15 C
2595 29-07-2016 00:10:00 18.3 C 93 % 17.15 C
2596 29-07-2016 00:15:00 18.3 C 93 % 17.15 C
2597 29-07-2016 00:20:00 18.4 C 93 % 17.25 C
2598 29-07-2016 00:25:00 18.3 C 93 % 17.15 C
2599 29-07-2016 00:30:00 18.3 C 93 % 17.15 C
2600 29-07-2016 00:35:00 18.3 C 93 % 17.15 C
Sensor: Nr:Datum:Temp:Feuchte:Taupunkt:
Aussen-T/F 2601 29-07-2016 00:40:00 18.2 C 93 % 17.05 C
2602 29-07-2016 00:45:00 18.2 C 92 % 16.88 C
2603 29-07-2016 00:50:00 18.1 C 92 % 16.78 C
2604 29-07-2016 00:55:00 18.1 C 92 % 16.78 C
2605 29-07-2016 01:00:00 17.9 C 92 % 16.58 C
2606 29-07-2016 01:05:00 17.9 C 92 % 16.58 C
2607 29-07-2016 01:10:00 17.8 C 92 % 16.48 C
2608 29-07-2016 01:15:00 17.7 C 92 % 16.38 C
2609 29-07-2016 01:20:00 17.6 C 92 % 16.28 C
2610 29-07-2016 01:25:00 17.6 C 92 % 16.28 C
2611 29-07-2016 01:30:00 17.4 C 92 % 16.09 C
2612 29-07-2016 01:35:00 17.4 C 92 % 16.09 C
2613 29-07-2016 01:40:00 17.3 C 92 % 15.99 C
2614 29-07-2016 01:45:00 17.2 C 92 % 15.89 C
2615 29-07-2016 01:50:00 17.2 C 92 % 15.89 C
2616 29-07-2016 01:55:00 17.1 C 92 % 15.79 C
2617 29-07-2016 02:00:00 16.9 C 92 % 15.59 C
2618 29-07-2016 02:05:00 16.8 C 92 % 15.49 C
2619 29-07-2016 02:10:00 16.7 C 92 % 15.39 C
2620 29-07-2016 02:15:00 16.6 C 92 % 15.3 C
2621 29-07-2016 02:20:00 16.5 C 92 % 15.2 C
2622 29-07-2016 02:25:00 16.4 C 92 % 15.1 C
2623 29-07-2016 02:30:00 16.3 C 92 % 15 C
2624 29-07-2016 02:35:00 16.3 C 93 % 15.17 C
2625 29-07-2016 02:40:00 16.2 C 93 % 15.07 C
Sensor: Nr:Datum:Temp:Feuchte:Taupunkt:
Aussen-T/F 2626 29-07-2016 02:45:00 16.1 C 93 % 14.97 C
2627 29-07-2016 02:50:00 16 C 93 % 14.87 C
2628 29-07-2016 02:55:00 15.9 C 93 % 14.77 C
2629 29-07-2016 03:00:00 15.9 C 93 % 14.77 C
2630 29-07-2016 03:05:00 15.8 C 93 % 14.67 C
2631 29-07-2016 03:10:00 15.8 C 93 % 14.67 C
2632 29-07-2016 03:15:00 15.7 C 93 % 14.57 C
2633 29-07-2016 03:20:00 15.6 C 93 % 14.47 C
2634 29-07-2016 03:25:00 15.6 C 93 % 14.47 C
2635 29-07-2016 03:30:00 15.5 C 93 % 14.37 C
2636 29-07-2016 03:35:00 15.5 C 94 % 14.54 C
2637 29-07-2016 03:40:00 15.6 C 94 % 14.64 C
2638 29-07-2016 03:45:00 15.5 C 94 % 14.54 C
2639 29-07-2016 03:50:00 15.5 C 94 % 14.54 C
2640 29-07-2016 03:55:00 15.7 C 95 % 14.9 C
2641 29-07-2016 04:00:00 15.8 C 95 % 15 C
2642 29-07-2016 04:05:00 15.9 C 95 % 15.1 C
2643 29-07-2016 04:10:00 16 C 95 % 15.2 C
2644 29-07-2016 04:15:00 16.2 C 95 % 15.4 C
2645 29-07-2016 04:20:00 16.2 C 95 % 15.4 C
2646 29-07-2016 04:25:00 16.3 C 94 % 15.33 C
2647 29-07-2016 04:30:00 16.3 C 94 % 15.33 C
2648 29-07-2016 04:35:00 16.4 C 94 % 15.43 C
2649 29-07-2016 04:40:00 16.4 C 94 % 15.43 C
2650 29-07-2016 04:45:00 16.4 C 94 % 15.43 C
Sensor: Nr:Datum:Temp:Feuchte:Taupunkt:
Aussen-T/F 2651 29-07-2016 04:50:00 16.4 C 94 % 15.43 C
2652 29-07-2016 04:55:00 16.5 C 94 % 15.53 C
2653 29-07-2016 05:00:00 16.6 C 94 % 15.63 C
2654 29-07-2016 05:05:00 16.6 C 94 % 15.63 C
2655 29-07-2016 05:10:00 16.6 C 94 % 15.63 C
2656 29-07-2016 05:15:00 16.7 C 94 % 15.73 C
2657 29-07-2016 05:20:00 16.7 C 94 % 15.73 C
2658 29-07-2016 05:25:00 16.7 C 94 % 15.73 C
2659 29-07-2016 05:30:00 16.7 C 94 % 15.73 C
2660 29-07-2016 05:35:00 16.7 C 94 % 15.73 C
2661 29-07-2016 05:40:00 16.7 C 94 % 15.73 C
2662 29-07-2016 05:45:00 16.7 C 94 % 15.73 C
2663 29-07-2016 05:50:00 16.7 C 94 % 15.73 C
2664 29-07-2016 05:55:00 16.7 C 94 % 15.73 C
2665 29-07-2016 06:00:00 16.7 C 94 % 15.73 C
2666 29-07-2016 06:05:00 16.7 C 94 % 15.73 C
2667 29-07-2016 06:10:00 16.7 C 94 % 15.73 C
2668 29-07-2016 06:15:00 16.7 C 94 % 15.73 C
2669 29-07-2016 06:20:00 16.7 C 94 % 15.73 C
2670 29-07-2016 06:25:00 16.7 C 94 % 15.73 C
2671 29-07-2016 06:30:00 16.6 C 94 % 15.63 C
2672 29-07-2016 06:35:00 16.6 C 94 % 15.63 C
2673 29-07-2016 06:40:00 16.6 C 94 % 15.63 C
2674 29-07-2016 06:45:00 16.7 C 94 % 15.73 C
2675 29-07-2016 06:50:00 16.7 C 95 % 15.9 C
Sensor: Nr:Datum:Temp:Feuchte:Taupunkt:
Aussen-T/F 2676 29-07-2016 06:55:00 16.8 C 95 % 15.99 C
2677 29-07-2016 07:00:00 16.8 C 95 % 15.99 C
2678 29-07-2016 07:05:00 16.9 C 95 % 16.09 C
2679 29-07-2016 07:10:00 16.9 C 95 % 16.09 C
2680 29-07-2016 07:15:00 17 C 95 % 16.19 C
2681 29-07-2016 07:20:00 17 C 95 % 16.19 C
2682 29-07-2016 07:25:00 17 C 95 % 16.19 C
2683 29-07-2016 07:30:00 17.1 C 95 % 16.29 C
2684 29-07-2016 07:35:00 17.1 C 95 % 16.29 C
2685 29-07-2016 07:40:00 17.1 C 95 % 16.29 C
2686 29-07-2016 07:45:00 17.2 C 95 % 16.39 C
2687 29-07-2016 07:50:00 17.1 C 95 % 16.29 C
2688 29-07-2016 07:55:00 17.2 C 95 % 16.39 C
2689 29-07-2016 08:00:00 17.2 C 95 % 16.39 C
2690 29-07-2016 08:05:00 17.3 C 95 % 16.49 C
2691 29-07-2016 08:10:00 17.4 C 95 % 16.59 C
2692 29-07-2016 08:15:00 17.4 C 95 % 16.59 C
2693 29-07-2016 08:20:00 17.4 C 95 % 16.59 C
2694 29-07-2016 08:25:00 17.4 C 94 % 16.42 C
2695 29-07-2016 08:30:00 17.4 C 94 % 16.42 C
2696 29-07-2016 08:35:00 17.5 C 94 % 16.52 C
2697 29-07-2016 08:40:00 17.6 C 94 % 16.62 C
2698 29-07-2016 08:45:00 17.6 C 93 % 16.45 C
2699 29-07-2016 08:50:00 17.7 C 93 % 16.55 C
2700 29-07-2016 08:55:00 17.8 C 93 % 16.65 C
Sensor: Nr:Datum:Temp:Feuchte:Taupunkt:
Aussen-T/F 2701 29-07-2016 09:00:00 17.9 C 92 % 16.58 C
2702 29-07-2016 09:05:00 18 C 92 % 16.68 C
2703 29-07-2016 09:10:00 18.2 C 91 % 16.71 C
2704 29-07-2016 09:15:00 18.3 C 91 % 16.81 C
2705 29-07-2016 09:20:00 18.3 C 90 % 16.63 C
2706 29-07-2016 09:25:00 18.5 C 89 % 16.65 C
2707 29-07-2016 09:30:00 18.7 C 89 % 16.85 C
2708 29-07-2016 09:35:00 18.7 C 88 % 16.67 C
2709 29-07-2016 09:40:00 18.8 C 87 % 16.59 C
2710 29-07-2016 09:45:00 18.9 C 87 % 16.69 C
2711 29-07-2016 09:50:00 19.1 C 87 % 16.89 C
2712 29-07-2016 09:55:00 19.2 C 87 % 16.98 C
2713 29-07-2016 10:00:00 19.2 C 86 % 16.8 C
2714 29-07-2016 10:05:00 19.2 C 86 % 16.8 C
2715 29-07-2016 10:10:00 19.3 C 87 % 17.08 C
2716 29-07-2016 10:15:00 19.3 C 88 % 17.26 C
2717 29-07-2016 10:20:00 19.3 C 88 % 17.26 C
2718 29-07-2016 10:25:00 19.3 C 88 % 17.26 C
2719 29-07-2016 10:30:00 19.3 C 88 % 17.26 C
2720 29-07-2016 10:35:00 19.3 C 88 % 17.26 C
2721 29-07-2016 10:40:00 19.3 C 88 % 17.26 C
2722 29-07-2016 10:45:00 19.3 C 89 % 17.44 C
2723 29-07-2016 10:50:00 19.4 C 89 % 17.54 C
2724 29-07-2016 10:55:00 19.3 C 89 % 17.44 C
2725 29-07-2016 11:00:00 19.3 C 90 % 17.62 C
Sensor: Nr:Datum:Temp:Feuchte:Taupunkt:
Aussen-T/F 2726 29-07-2016 11:05:00 19.4 C 91 % 17.89 C
2727 29-07-2016 11:10:00 19.4 C 91 % 17.89 C
2728 29-07-2016 11:15:00 19.4 C 91 % 17.89 C
2729 29-07-2016 11:20:00 19.5 C 91 % 17.99 C
2730 29-07-2016 11:25:00 19.5 C 91 % 17.99 C
2731 29-07-2016 11:30:00 19.4 C 91 % 17.89 C
2732 29-07-2016 11:35:00 19.5 C 91 % 17.99 C
2733 29-07-2016 11:40:00 19.7 C 92 % 18.36 C
2734 29-07-2016 11:45:00 19.9 C 92 % 18.56 C
2735 29-07-2016 11:50:00 19.9 C 90 % 18.21 C
2736 29-07-2016 11:55:00 20.1 C 90 % 18.41 C
2737 29-07-2016 12:00:00 20.2 C 90 % 18.51 C
2738 29-07-2016 12:05:00 20.4 C 90 % 18.7 C
2739 29-07-2016 12:10:00 20.4 C 88 % 18.34 C
2740 29-07-2016 12:15:00 20.7 C 90 % 19 C
2741 29-07-2016 12:20:00 20.9 C 91 % 19.37 C
2742 29-07-2016 12:25:00 21 C 90 % 19.3 C
2743 29-07-2016 12:30:00 21.1 C 87 % 18.85 C
2744 29-07-2016 12:35:00 21.2 C 87 % 18.95 C
2745 29-07-2016 12:40:00 21.3 C 89 % 19.41 C
2746 29-07-2016 12:45:00 21.4 C 85 % 18.77 C
2747 29-07-2016 12:50:00 21.7 C 83 % 18.69 C
2748 29-07-2016 12:55:00 22 C 83 % 18.98 C
2749 29-07-2016 13:00:00 22.3 C 81 % 18.88 C
2750 29-07-2016 13:05:00 22.4 C 79 % 18.58 C
Sensor: Nr:Datum:Temp:Feuchte:Taupunkt:
Aussen-T/F 2751 29-07-2016 13:10:00 22.3 C 80 % 18.68 C
2752 29-07-2016 13:15:00 22.3 C 80 % 18.68 C
2753 29-07-2016 13:20:00 22.4 C 81 % 18.98 C
2754 29-07-2016 13:25:00 22.6 C 83 % 19.56 C
2755 29-07-2016 13:30:00 22.8 C 80 % 19.17 C
2756 29-07-2016 13:35:00 22.9 C 79 % 19.06 C
2757 29-07-2016 13:40:00 22.9 C 76 % 18.44 C
2758 29-07-2016 13:45:00 23.1 C 77 % 18.85 C
2759 29-07-2016 13:50:00 23.3 C 78 % 19.25 C
2760 29-07-2016 13:55:00 23.4 C 73 % 18.28 C
2761 29-07-2016 14:00:00 23.6 C 73 % 18.48 C
2762 29-07-2016 14:05:00 23.6 C 73 % 18.48 C
2763 29-07-2016 14:10:00 23.7 C 75 % 19 C
2764 29-07-2016 14:15:00 23.9 C 71 % 18.32 C
2765 29-07-2016 14:20:00 24.1 C 71 % 18.51 C
2766 29-07-2016 14:25:00 24.2 C 71 % 18.61 C
2767 29-07-2016 14:30:00 24.3 C 72 % 18.93 C
2768 29-07-2016 14:35:00 24.4 C 68 % 18.11 C
2769 29-07-2016 14:40:00 24.7 C 72 % 19.31 C
2770 29-07-2016 14:45:00 24.8 C 70 % 18.95 C
2771 29-07-2016 14:50:00 25.1 C 67 % 18.54 C
2772 29-07-2016 14:55:00 25.1 C 67 % 18.54 C
2773 29-07-2016 15:00:00 24.8 C 67 % 18.25 C
2774 29-07-2016 15:05:00 24.4 C 69 % 18.34 C
2775 29-07-2016 15:10:00 24.3 C 69 % 18.25 C
Sensor: Nr:Datum:Temp:Feuchte:Taupunkt:
Aussen-T/F 2776 29-07-2016 15:15:00 24.3 C 68 % 18.01 C
2777 29-07-2016 15:20:00 24.2 C 68 % 17.92 C
2778 29-07-2016 15:25:00 24.1 C 68 % 17.82 C
2779 29-07-2016 15:30:00 23.8 C 73 % 18.67 C
2780 29-07-2016 15:35:00 23.4 C 76 % 18.93 C
2781 29-07-2016 15:40:00 22.8 C 77 % 18.56 C
2782 29-07-2016 15:45:00 22.6 C 79 % 18.77 C
2783 29-07-2016 15:50:00 22.9 C 78 % 18.86 C
2784 29-07-2016 15:55:00 23.1 C 75 % 18.43 C
2785 29-07-2016 16:00:00 23.4 C 74 % 18.5 C
2786 29-07-2016 16:05:00 23.6 C 71 % 18.03 C
2787 29-07-2016 16:10:00 23.8 C 70 % 18 C
2788 29-07-2016 16:15:00 24.2 C 70 % 18.38 C
2789 29-07-2016 16:20:00 24.4 C 69 % 18.34 C
2790 29-07-2016 16:25:00 24.4 C 68 % 18.11 C
2791 29-07-2016 16:30:00 24.2 C 68 % 17.92 C
2792 29-07-2016 16:35:00 23.8 C 71 % 18.22 C
2793 29-07-2016 16:40:00 24.2 C 72 % 18.83 C
2794 29-07-2016 16:45:00 24.6 C 69 % 18.53 C
2795 29-07-2016 16:50:00 24.8 C 68 % 18.49 C
2796 29-07-2016 16:55:00 24.6 C 68 % 18.3 C
2797 29-07-2016 17:00:00 24.2 C 69 % 18.15 C
2798 29-07-2016 17:05:00 23.9 C 69 % 17.87 C
2799 29-07-2016 17:10:00 23.8 C 74 % 18.89 C
2800 29-07-2016 17:15:00 23.6 C 75 % 18.91 C
Sensor: Nr:Datum:Temp:Feuchte:Taupunkt:
Aussen-T/F 2801 29-07-2016 17:20:00 23.3 C 74 % 18.4 C
2802 29-07-2016 17:25:00 23.2 C 74 % 18.31 C
2803 29-07-2016 17:30:00 23.1 C 75 % 18.43 C
2804 29-07-2016 17:35:00 23.2 C 74 % 18.31 C
2805 29-07-2016 17:40:00 23.9 C 71 % 18.32 C
2806 29-07-2016 17:45:00 24.7 C 68 % 18.4 C
2807 29-07-2016 17:50:00 25.4 C 67 % 18.82 C
2808 29-07-2016 17:55:00 25.6 C 64 % 18.28 C
2809 29-07-2016 18:00:00 25.4 C 68 % 19.06 C
2810 29-07-2016 18:05:00 25.1 C 67 % 18.54 C
2811 29-07-2016 18:10:00 24.7 C 68 % 18.4 C
2812 29-07-2016 18:15:00 24.3 C 70 % 18.48 C
2813 29-07-2016 18:20:00 24 C 73 % 18.86 C
2814 29-07-2016 18:25:00 23.8 C 74 % 18.89 C
2815 29-07-2016 18:30:00 23.5 C 74 % 18.6 C
2816 29-07-2016 18:35:00 23.2 C 72 % 17.87 C
2817 29-07-2016 18:40:00 23.3 C 71 % 17.75 C
2818 29-07-2016 18:45:00 23.4 C 72 % 18.06 C
2819 29-07-2016 18:50:00 23.4 C 72 % 18.06 C
2820 29-07-2016 18:55:00 23.4 C 73 % 18.28 C
2821 29-07-2016 19:00:00 23.4 C 73 % 18.28 C
2822 29-07-2016 19:05:00 23.4 C 74 % 18.5 C
2823 29-07-2016 19:10:00 23.2 C 74 % 18.31 C
2824 29-07-2016 19:15:00 22.9 C 74 % 18.02 C
2825 29-07-2016 19:20:00 22.8 C 75 % 18.14 C
Sensor: Nr:Datum:Temp:Feuchte:Taupunkt:
Aussen-T/F 2826 29-07-2016 19:25:00 22.7 C 76 % 18.25 C
2827 29-07-2016 19:30:00 22.6 C 75 % 17.94 C
2828 29-07-2016 19:35:00 22.4 C 75 % 17.75 C
2829 29-07-2016 19:40:00 22.3 C 76 % 17.86 C
2830 29-07-2016 19:45:00 22.1 C 77 % 17.88 C
2831 29-07-2016 19:50:00 22.1 C 78 % 18.08 C
2832 29-07-2016 19:55:00 22.3 C 77 % 18.07 C
2833 29-07-2016 20:00:00 22.4 C 75 % 17.75 C
2834 29-07-2016 20:05:00 22.5 C 73 % 17.42 C
2835 29-07-2016 20:10:00 22.5 C 74 % 17.63 C
2836 29-07-2016 20:15:00 22.5 C 75 % 17.85 C
2837 29-07-2016 20:20:00 22.5 C 76 % 18.06 C
2838 29-07-2016 20:25:00 22.4 C 75 % 17.75 C
2839 29-07-2016 20:30:00 22.3 C 76 % 17.86 C
2840 29-07-2016 20:35:00 22.1 C 76 % 17.67 C
2841 29-07-2016 20:40:00 21.8 C 76 % 17.38 C
2842 29-07-2016 20:45:00 21.6 C 78 % 17.6 C
2843 29-07-2016 20:50:00 21.3 C 78 % 17.31 C
2844 29-07-2016 20:55:00 21.1 C 79 % 17.32 C
2845 29-07-2016 21:00:00 20.9 C 80 % 17.32 C
2846 29-07-2016 21:05:00 20.7 C 81 % 17.32 C
2847 29-07-2016 21:10:00 20.5 C 82 % 17.32 C
2848 29-07-2016 21:15:00 20.3 C 82 % 17.13 C
2849 29-07-2016 21:20:00 20.1 C 83 % 17.12 C
2850 29-07-2016 21:25:00 19.9 C 83 % 16.93 C
Sensor: Nr:Datum:Temp:Feuchte:Taupunkt:
Aussen-T/F 2851 29-07-2016 21:30:00 19.8 C 84 % 17.02 C
2852 29-07-2016 21:35:00 19.6 C 84 % 16.82 C
2853 29-07-2016 21:40:00 19.4 C 85 % 16.81 C
2854 29-07-2016 21:45:00 19.3 C 85 % 16.72 C
2855 29-07-2016 21:50:00 19.1 C 86 % 16.7 C
2856 29-07-2016 21:55:00 19 C 86 % 16.6 C
2857 29-07-2016 22:00:00 18.9 C 86 % 16.51 C
2858 29-07-2016 22:05:00 18.9 C 86 % 16.51 C
2859 29-07-2016 22:10:00 18.8 C 87 % 16.59 C
2860 29-07-2016 22:15:00 18.8 C 87 % 16.59 C
2861 29-07-2016 22:20:00 18.8 C 88 % 16.77 C
2862 29-07-2016 22:25:00 18.8 C 88 % 16.77 C
2863 29-07-2016 22:30:00 18.9 C 88 % 16.87 C
2864 29-07-2016 22:35:00 18.9 C 89 % 17.05 C
2865 29-07-2016 22:40:00 18.9 C 89 % 17.05 C
2866 29-07-2016 22:45:00 18.9 C 89 % 17.05 C
2867 29-07-2016 22:50:00 18.9 C 89 % 17.05 C
2868 29-07-2016 22:55:00 18.8 C 88 % 16.77 C
2869 29-07-2016 23:00:00 18.8 C 88 % 16.77 C
2870 29-07-2016 23:05:00 18.8 C 88 % 16.77 C
2871 29-07-2016 23:10:00 18.8 C 88 % 16.77 C
2872 29-07-2016 23:15:00 18.7 C 88 % 16.67 C
2873 29-07-2016 23:20:00 18.7 C 88 % 16.67 C
2874 29-07-2016 23:25:00 18.7 C 88 % 16.67 C
2875 29-07-2016 23:30:00 18.7 C 88 % 16.67 C
Sensor: Nr:Datum:Temp:Feuchte:Taupunkt:
Aussen-T/F 2876 29-07-2016 23:35:00 18.7 C 89 % 16.85 C
2877 29-07-2016 23:40:00 18.7 C 89 % 16.85 C
2878 29-07-2016 23:45:00 18.7 C 89 % 16.85 C
2879 29-07-2016 23:50:00 18.7 C 89 % 16.85 C
2880 29-07-2016 23:55:00 18.7 C 89 % 16.85 C
2881 30-07-2016 00:00:00 18.8 C 89 % 16.95 C
2882 30-07-2016 00:05:00 18.8 C 89 % 16.95 C
2883 30-07-2016 00:10:00 18.8 C 89 % 16.95 C
2884 30-07-2016 00:15:00 18.8 C 89 % 16.95 C
2885 30-07-2016 00:20:00 18.8 C 88 % 16.77 C
2886 30-07-2016 00:25:00 18.8 C 89 % 16.95 C
2887 30-07-2016 00:30:00 18.8 C 89 % 16.95 C
2888 30-07-2016 00:35:00 18.8 C 89 % 16.95 C
2889 30-07-2016 00:40:00 18.8 C 89 % 16.95 C
2890 30-07-2016 00:45:00 18.8 C 89 % 16.95 C
2891 30-07-2016 00:50:00 18.8 C 89 % 16.95 C
2892 30-07-2016 00:55:00 18.8 C 89 % 16.95 C
2893 30-07-2016 01:00:00 18.8 C 89 % 16.95 C
2894 30-07-2016 01:05:00 18.8 C 89 % 16.95 C
2895 30-07-2016 01:10:00 18.8 C 89 % 16.95 C
2896 30-07-2016 01:15:00 18.8 C 89 % 16.95 C
2897 30-07-2016 01:20:00 18.8 C 89 % 16.95 C
2898 30-07-2016 01:25:00 18.8 C 89 % 16.95 C
2899 30-07-2016 01:30:00 18.8 C 89 % 16.95 C
2900 30-07-2016 01:35:00 18.8 C 89 % 16.95 C
Sensor: Nr:Datum:Temp:Feuchte:Taupunkt:
Aussen-T/F 2901 30-07-2016 01:40:00 18.8 C 89 % 16.95 C
2902 30-07-2016 01:45:00 18.8 C 90 % 17.12 C
2903 30-07-2016 01:50:00 18.8 C 90 % 17.12 C
2904 30-07-2016 01:55:00 18.8 C 89 % 16.95 C
2905 30-07-2016 02:00:00 18.8 C 89 % 16.95 C
2906 30-07-2016 02:05:00 18.8 C 89 % 16.95 C
2907 30-07-2016 02:10:00 18.8 C 90 % 17.12 C
2908 30-07-2016 02:15:00 18.8 C 90 % 17.12 C
2909 30-07-2016 02:20:00 18.8 C 90 % 17.12 C
2910 30-07-2016 02:25:00 18.8 C 91 % 17.3 C
2911 30-07-2016 02:30:00 18.7 C 91 % 17.2 C
2912 30-07-2016 02:35:00 18.7 C 91 % 17.2 C
2913 30-07-2016 02:40:00 18.6 C 91 % 17.1 C
2914 30-07-2016 02:45:00 18.4 C 90 % 16.73 C
2915 30-07-2016 02:50:00 18.2 C 91 % 16.71 C
2916 30-07-2016 02:55:00 18.2 C 92 % 16.88 C
2917 30-07-2016 03:00:00 18.2 C 92 % 16.88 C
2918 30-07-2016 03:05:00 18.2 C 92 % 16.88 C
2919 30-07-2016 03:10:00 18.2 C 92 % 16.88 C
2920 30-07-2016 03:15:00 18.2 C 92 % 16.88 C
2921 30-07-2016 03:20:00 18.2 C 92 % 16.88 C
2922 30-07-2016 03:25:00 18.1 C 93 % 16.95 C
2923 30-07-2016 03:30:00 18.1 C 93 % 16.95 C
2924 30-07-2016 03:35:00 18.1 C 93 % 16.95 C
2925 30-07-2016 03:40:00 18.1 C 93 % 16.95 C
Sensor: Nr:Datum:Temp:Feuchte:Taupunkt:
Aussen-T/F 2926 30-07-2016 03:45:00 18.1 C 93 % 16.95 C
2927 30-07-2016 03:50:00 18.1 C 93 % 16.95 C
2928 30-07-2016 03:55:00 18.1 C 93 % 16.95 C
2929 30-07-2016 04:00:00 18.1 C 93 % 16.95 C
2930 30-07-2016 04:05:00 18.1 C 93 % 16.95 C
2931 30-07-2016 04:10:00 18.1 C 93 % 16.95 C
2932 30-07-2016 04:15:00 18.1 C 93 % 16.95 C
2933 30-07-2016 04:20:00 18.1 C 93 % 16.95 C
2934 30-07-2016 04:25:00 18.1 C 93 % 16.95 C
2935 30-07-2016 04:30:00 18.1 C 93 % 16.95 C
2936 30-07-2016 04:35:00 18.1 C 93 % 16.95 C
2937 30-07-2016 04:40:00 18.1 C 94 % 17.12 C
2938 30-07-2016 04:45:00 18.1 C 94 % 17.12 C
2939 30-07-2016 04:50:00 18.1 C 93 % 16.95 C
2940 30-07-2016 04:55:00 18.1 C 93 % 16.95 C
2941 30-07-2016 05:00:00 18.1 C 93 % 16.95 C
2942 30-07-2016 05:05:00 18 C 93 % 16.85 C
2943 30-07-2016 05:10:00 17.9 C 93 % 16.75 C
2944 30-07-2016 05:15:00 17.8 C 93 % 16.65 C
2945 30-07-2016 05:20:00 17.8 C 93 % 16.65 C
2946 30-07-2016 05:25:00 17.7 C 93 % 16.55 C
2947 30-07-2016 05:30:00 17.5 C 93 % 16.36 C
2948 30-07-2016 05:35:00 17.4 C 93 % 16.26 C
2949 30-07-2016 05:40:00 17.3 C 93 % 16.16 C
2950 30-07-2016 05:45:00 17.3 C 93 % 16.16 C
Sensor: Nr:Datum:Temp:Feuchte:Taupunkt:
Aussen-T/F 2951 30-07-2016 05:50:00 17.3 C 93 % 16.16 C
2952 30-07-2016 05:55:00 17.2 C 93 % 16.06 C
2953 30-07-2016 06:00:00 17.2 C 93 % 16.06 C
2954 30-07-2016 06:05:00 17.2 C 93 % 16.06 C
2955 30-07-2016 06:10:00 17.2 C 94 % 16.23 C
2956 30-07-2016 06:15:00 17.2 C 94 % 16.23 C
2957 30-07-2016 06:20:00 17.2 C 94 % 16.23 C
2958 30-07-2016 06:25:00 17.2 C 94 % 16.23 C
2959 30-07-2016 06:30:00 17.2 C 94 % 16.23 C
2960 30-07-2016 06:35:00 17.2 C 94 % 16.23 C
2961 30-07-2016 06:40:00 17.2 C 94 % 16.23 C
2962 30-07-2016 06:45:00 17.3 C 94 % 16.33 C
2963 30-07-2016 06:50:00 17.3 C 94 % 16.33 C
2964 30-07-2016 06:55:00 17.4 C 94 % 16.42 C
2965 30-07-2016 07:00:00 17.5 C 95 % 16.69 C
2966 30-07-2016 07:05:00 17.6 C 95 % 16.79 C
2967 30-07-2016 07:10:00 17.6 C 94 % 16.62 C
2968 30-07-2016 07:15:00 17.7 C 94 % 16.72 C
2969 30-07-2016 07:20:00 17.7 C 94 % 16.72 C
2970 30-07-2016 07:25:00 17.8 C 94 % 16.82 C
2971 30-07-2016 07:30:00 17.8 C 95 % 16.99 C
2972 30-07-2016 07:35:00 17.9 C 95 % 17.09 C
2973 30-07-2016 07:40:00 18.1 C 95 % 17.29 C
2974 30-07-2016 07:45:00 18.2 C 95 % 17.39 C
2975 30-07-2016 07:50:00 18.3 C 94 % 17.32 C
Sensor: Nr:Datum:Temp:Feuchte:Taupunkt:
Aussen-T/F 2976 30-07-2016 07:55:00 18.3 C 94 % 17.32 C
2977 30-07-2016 08:00:00 18.3 C 93 % 17.15 C
2978 30-07-2016 08:05:00 18.4 C 93 % 17.25 C
2979 30-07-2016 08:10:00 18.5 C 93 % 17.35 C
2980 30-07-2016 08:15:00 18.6 C 92 % 17.27 C
2981 30-07-2016 08:20:00 18.7 C 92 % 17.37 C
2982 30-07-2016 08:25:00 18.8 C 91 % 17.3 C
2983 30-07-2016 08:30:00 18.8 C 90 % 17.12 C
2984 30-07-2016 08:35:00 18.9 C 90 % 17.22 C
2985 30-07-2016 08:40:00 19 C 90 % 17.32 C
2986 30-07-2016 08:45:00 19.1 C 90 % 17.42 C
2987 30-07-2016 08:50:00 19.2 C 89 % 17.34 C
2988 30-07-2016 08:55:00 19.2 C 88 % 17.16 C
2989 30-07-2016 09:00:00 19.4 C 89 % 17.54 C
2990 30-07-2016 09:05:00 19.5 C 88 % 17.46 C
2991 30-07-2016 09:10:00 19.6 C 86 % 17.19 C
2992 30-07-2016 09:15:00 19.7 C 85 % 17.11 C
2993 30-07-2016 09:20:00 19.8 C 85 % 17.21 C
2994 30-07-2016 09:25:00 19.9 C 84 % 17.12 C
2995 30-07-2016 09:30:00 19.9 C 84 % 17.12 C
2996 30-07-2016 09:35:00 20 C 84 % 17.21 C
2997 30-07-2016 09:40:00 20.1 C 84 % 17.31 C
2998 30-07-2016 09:45:00 20.1 C 83 % 17.12 C
2999 30-07-2016 09:50:00 20.2 C 84 % 17.41 C
3000 30-07-2016 09:55:00 20.3 C 82 % 17.13 C
Sensor: Nr:Datum:Temp:Feuchte:Taupunkt:
Aussen-T/F 3001 30-07-2016 10:00:00 20.4 C 82 % 17.22 C
3002 30-07-2016 10:05:00 20.6 C 82 % 17.42 C
3003 30-07-2016 10:10:00 20.8 C 83 % 17.81 C
3004 30-07-2016 10:15:00 20.9 C 81 % 17.52 C
3005 30-07-2016 10:20:00 21 C 78 % 17.02 C
3006 30-07-2016 10:25:00 21.1 C 81 % 17.71 C
3007 30-07-2016 10:30:00 21.1 C 82 % 17.91 C
3008 30-07-2016 10:35:00 21.2 C 83 % 18.2 C
3009 30-07-2016 10:40:00 21.2 C 73 % 16.17 C
3010 30-07-2016 10:45:00 21.2 C 73 % 16.17 C
3011 30-07-2016 10:50:00 21.2 C 76 % 16.8 C
3012 30-07-2016 10:55:00 21.2 C 77 % 17.01 C
3013 30-07-2016 11:00:00 21.1 C 73 % 16.07 C
3014 30-07-2016 11:05:00 21.1 C 74 % 16.29 C
3015 30-07-2016 11:10:00 21.2 C 77 % 17.01 C
3016 30-07-2016 11:15:00 21.3 C 73 % 16.26 C
3017 30-07-2016 11:20:00 21.5 C 66 % 14.88 C
3018 30-07-2016 11:25:00 21.8 C 65 % 14.93 C
3019 30-07-2016 11:30:00 22 C 67 % 15.59 C
3020 30-07-2016 11:35:00 21.9 C 69 % 15.96 C
3021 30-07-2016 11:40:00 21.8 C 68 % 15.63 C
3022 30-07-2016 11:45:00 21.8 C 72 % 16.53 C
3023 30-07-2016 11:50:00 21.6 C 68 % 15.44 C
3024 30-07-2016 11:55:00 21.5 C 66 % 14.88 C
3025 30-07-2016 12:00:00 21.6 C 67 % 15.21 C
Sensor: Nr:Datum:Temp:Feuchte:Taupunkt:
Aussen-T/F 3026 30-07-2016 12:05:00 21.7 C 65 % 14.84 C
3027 30-07-2016 12:10:00 21.8 C 69 % 15.86 C
3028 30-07-2016 12:15:00 22 C 65 % 15.12 C
3029 30-07-2016 12:20:00 22.3 C 67 % 15.88 C
3030 30-07-2016 12:25:00 22.4 C 62 % 14.76 C
3031 30-07-2016 12:30:00 22.5 C 66 % 15.83 C
3032 30-07-2016 12:35:00 22.5 C 65 % 15.59 C
3033 30-07-2016 12:40:00 22.7 C 60 % 14.54 C
3034 30-07-2016 12:45:00 22.8 C 63 % 15.39 C
3035 30-07-2016 12:50:00 22.8 C 61 % 14.89 C
3036 30-07-2016 12:55:00 22.7 C 61 % 14.79 C
3037 30-07-2016 13:00:00 22.6 C 66 % 15.93 C
3038 30-07-2016 13:05:00 22.6 C 63 % 15.2 C
3039 30-07-2016 13:10:00 22.7 C 63 % 15.3 C
3040 30-07-2016 13:15:00 22.7 C 64 % 15.54 C
3041 30-07-2016 13:20:00 22.8 C 63 % 15.39 C
3042 30-07-2016 13:25:00 22.9 C 60 % 14.73 C
3043 30-07-2016 13:30:00 23 C 59 % 14.56 C
3044 30-07-2016 13:35:00 23.2 C 67 % 16.73 C
3045 30-07-2016 13:40:00 23.2 C 64 % 16.01 C
3046 30-07-2016 13:45:00 23.2 C 60 % 15.01 C
3047 30-07-2016 13:50:00 23.1 C 60 % 14.91 C
3048 30-07-2016 13:55:00 23.1 C 64 % 15.92 C
3049 30-07-2016 14:00:00 23.2 C 61 % 15.26 C
3050 30-07-2016 14:05:00 23.3 C 62 % 15.61 C
Sensor: Nr:Datum:Temp:Feuchte:Taupunkt:
Aussen-T/F 3051 30-07-2016 14:10:00 23.3 C 60 % 15.1 C
3052 30-07-2016 14:15:00 23.3 C 61 % 15.36 C
3053 30-07-2016 14:20:00 23.4 C 61 % 15.45 C
3054 30-07-2016 14:25:00 23.5 C 63 % 16.05 C
3055 30-07-2016 14:30:00 23.6 C 66 % 16.88 C
3056 30-07-2016 14:35:00 23.7 C 63 % 16.24 C
3057 30-07-2016 14:40:00 23.8 C 64 % 16.58 C
3058 30-07-2016 14:45:00 23.9 C 62 % 16.18 C
3059 30-07-2016 14:50:00 23.8 C 62 % 16.08 C
3060 30-07-2016 14:55:00 23.8 C 66 % 17.07 C
3061 30-07-2016 15:00:00 23.8 C 71 % 18.22 C
3062 30-07-2016 15:05:00 23.7 C 61 % 15.73 C
3063 30-07-2016 15:10:00 23.7 C 59 % 15.21 C
3064 30-07-2016 15:15:00 23.8 C 69 % 17.77 C
3065 30-07-2016 15:20:00 23.8 C 67 % 17.3 C
3066 30-07-2016 15:25:00 23.8 C 68 % 17.54 C
3067 30-07-2016 15:30:00 23.8 C 67 % 17.3 C
3068 30-07-2016 15:35:00 23.8 C 65 % 16.83 C
3069 30-07-2016 15:40:00 23.8 C 67 % 17.3 C
3070 30-07-2016 15:45:00 23.8 C 65 % 16.83 C
3071 30-07-2016 15:50:00 23.8 C 63 % 16.33 C
3072 30-07-2016 15:55:00 24 C 62 % 16.27 C
3073 30-07-2016 16:00:00 24.2 C 64 % 16.96 C
3074 30-07-2016 16:05:00 24.2 C 68 % 17.92 C
3075 30-07-2016 16:10:00 24.3 C 65 % 17.3 C
Sensor: Nr:Datum:Temp:Feuchte:Taupunkt:
Aussen-T/F 3076 30-07-2016 16:15:00 24.4 C 67 % 17.87 C
3077 30-07-2016 16:20:00 24.5 C 64 % 17.24 C
3078 30-07-2016 16:25:00 24.7 C 62 % 16.93 C
3079 30-07-2016 16:30:00 25 C 64 % 17.72 C
3080 30-07-2016 16:35:00 25.2 C 56 % 15.8 C
3081 30-07-2016 16:40:00 25.2 C 55 % 15.52 C
3082 30-07-2016 16:45:00 25.2 C 58 % 16.35 C
3083 30-07-2016 16:50:00 25.1 C 68 % 18.78 C
3084 30-07-2016 16:55:00 24.8 C 55 % 15.15 C
3085 30-07-2016 17:00:00 24.8 C 56 % 15.43 C
3086 30-07-2016 17:05:00 24.9 C 58 % 16.07 C
3087 30-07-2016 17:10:00 24.9 C 55 % 15.24 C
3088 30-07-2016 17:15:00 25.1 C 65 % 18.06 C
3089 30-07-2016 17:20:00 25.3 C 59 % 16.71 C
3090 30-07-2016 17:25:00 25 C 54 % 15.05 C
3091 30-07-2016 17:30:00 24.9 C 67 % 18.35 C
3092 30-07-2016 17:35:00 24.8 C 56 % 15.43 C
3093 30-07-2016 17:40:00 25 C 54 % 15.05 C
3094 30-07-2016 17:45:00 25.3 C 55 % 15.61 C
3095 30-07-2016 17:50:00 25.6 C 53 % 15.31 C
3096 30-07-2016 17:55:00 25.2 C 58 % 16.35 C
3097 30-07-2016 18:00:00 24.9 C 63 % 17.37 C
3098 30-07-2016 18:05:00 24.5 C 56 % 15.15 C
3099 30-07-2016 18:10:00 24.3 C 57 % 15.24 C
3100 30-07-2016 18:15:00 24.2 C 58 % 15.42 C
Sensor: Nr:Datum:Temp:Feuchte:Taupunkt:
Aussen-T/F 3101 30-07-2016 18:20:00 24.1 C 68 % 17.82 C
3102 30-07-2016 18:25:00 23.9 C 69 % 17.87 C
3103 30-07-2016 18:30:00 23.7 C 65 % 16.73 C
3104 30-07-2016 18:35:00 23.6 C 70 % 17.81 C
3105 30-07-2016 18:40:00 23.7 C 71 % 18.13 C
3106 30-07-2016 18:45:00 23.7 C 65 % 16.73 C
3107 30-07-2016 18:50:00 23.8 C 58 % 15.04 C
3108 30-07-2016 18:55:00 23.9 C 59 % 15.4 C
3109 30-07-2016 19:00:00 24.2 C 60 % 15.95 C
3110 30-07-2016 19:05:00 24.3 C 57 % 15.24 C
3111 30-07-2016 19:10:00 24.2 C 66 % 17.45 C
3112 30-07-2016 19:15:00 23.9 C 58 % 15.14 C
3113 30-07-2016 19:20:00 23.7 C 62 % 15.99 C
3114 30-07-2016 19:25:00 23.6 C 70 % 17.81 C
3115 30-07-2016 19:30:00 23.3 C 67 % 16.83 C
3116 30-07-2016 19:35:00 23.1 C 70 % 17.33 C
3117 30-07-2016 19:40:00 22.8 C 70 % 17.04 C
3118 30-07-2016 19:45:00 22.6 C 67 % 16.16 C
3119 30-07-2016 19:50:00 22.3 C 71 % 16.79 C
3120 30-07-2016 19:55:00 22.1 C 71 % 16.6 C
3121 30-07-2016 20:00:00 21.8 C 73 % 16.75 C
3122 30-07-2016 20:05:00 21.7 C 75 % 17.07 C
3123 30-07-2016 20:10:00 21.5 C 74 % 16.67 C
3124 30-07-2016 20:15:00 21.4 C 77 % 17.2 C
3125 30-07-2016 20:20:00 21.3 C 77 % 17.1 C
Sensor: Nr:Datum:Temp:Feuchte:Taupunkt:
Aussen-T/F 3126 30-07-2016 20:25:00 21.2 C 78 % 17.21 C
3127 30-07-2016 20:30:00 21.2 C 77 % 17.01 C
3128 30-07-2016 20:35:00 21 C 77 % 16.81 C
3129 30-07-2016 20:40:00 20.8 C 77 % 16.62 C
3130 30-07-2016 20:45:00 20.6 C 77 % 16.43 C
3131 30-07-2016 20:50:00 20.4 C 77 % 16.23 C
3132 30-07-2016 20:55:00 20.3 C 77 % 16.14 C
3133 30-07-2016 21:00:00 20.1 C 78 % 16.14 C
3134 30-07-2016 21:05:00 19.8 C 79 % 16.05 C
3135 30-07-2016 21:10:00 19.7 C 79 % 15.96 C
3136 30-07-2016 21:15:00 19.6 C 80 % 16.06 C
3137 30-07-2016 21:20:00 19.4 C 80 % 15.86 C
3138 30-07-2016 21:25:00 19.3 C 81 % 15.96 C
3139 30-07-2016 21:30:00 19.1 C 81 % 15.76 C
3140 30-07-2016 21:35:00 19 C 82 % 15.86 C
3141 30-07-2016 21:40:00 18.9 C 82 % 15.76 C
3142 30-07-2016 21:45:00 18.9 C 83 % 15.95 C
3143 30-07-2016 21:50:00 18.8 C 83 % 15.85 C
3144 30-07-2016 21:55:00 18.8 C 83 % 15.85 C
3145 30-07-2016 22:00:00 18.7 C 83 % 15.75 C
3146 30-07-2016 22:05:00 18.7 C 83 % 15.75 C
3147 30-07-2016 22:10:00 18.7 C 83 % 15.75 C
3148 30-07-2016 22:15:00 18.7 C 84 % 15.94 C
3149 30-07-2016 22:20:00 18.7 C 84 % 15.94 C
3150 30-07-2016 22:25:00 18.7 C 84 % 15.94 C
Sensor: Nr:Datum:Temp:Feuchte:Taupunkt:
Aussen-T/F 3151 30-07-2016 22:30:00 18.7 C 84 % 15.94 C
3152 30-07-2016 22:35:00 18.6 C 84 % 15.84 C
3153 30-07-2016 22:40:00 18.6 C 84 % 15.84 C
3154 30-07-2016 22:45:00 18.6 C 84 % 15.84 C
3155 30-07-2016 22:50:00 18.5 C 84 % 15.75 C
3156 30-07-2016 22:55:00 18.4 C 84 % 15.65 C
3157 30-07-2016 23:00:00 18.4 C 84 % 15.65 C
3158 30-07-2016 23:05:00 18.3 C 84 % 15.55 C
3159 30-07-2016 23:10:00 18.3 C 84 % 15.55 C
3160 30-07-2016 23:15:00 18.2 C 84 % 15.45 C
3161 30-07-2016 23:20:00 18.2 C 84 % 15.45 C
3162 30-07-2016 23:25:00 18.1 C 84 % 15.35 C
3163 30-07-2016 23:30:00 18.1 C 85 % 15.54 C
3164 30-07-2016 23:35:00 18.1 C 85 % 15.54 C
3165 30-07-2016 23:40:00 17.9 C 85 % 15.34 C
3166 30-07-2016 23:45:00 17.9 C 85 % 15.34 C
3167 30-07-2016 23:50:00 17.8 C 85 % 15.25 C
3168 30-07-2016 23:55:00 17.8 C 86 % 15.43 C
3169 31-07-2016 00:00:00 17.7 C 87 % 15.51 C
3170 31-07-2016 00:05:00 17.7 C 87 % 15.51 C
3171 31-07-2016 00:10:00 17.7 C 87 % 15.51 C
3172 31-07-2016 00:15:00 17.6 C 88 % 15.59 C
3173 31-07-2016 00:20:00 17.5 C 88 % 15.49 C
3174 31-07-2016 00:25:00 17.4 C 88 % 15.39 C
3175 31-07-2016 00:30:00 17.4 C 89 % 15.57 C
Sensor: Nr:Datum:Temp:Feuchte:Taupunkt:
Aussen-T/F 3176 31-07-2016 00:35:00 17.3 C 89 % 15.47 C
3177 31-07-2016 00:40:00 17.3 C 89 % 15.47 C
3178 31-07-2016 00:45:00 17.2 C 89 % 15.37 C
3179 31-07-2016 00:50:00 17.2 C 89 % 15.37 C
3180 31-07-2016 00:55:00 17.1 C 89 % 15.27 C
3181 31-07-2016 01:00:00 17.1 C 89 % 15.27 C
3182 31-07-2016 01:05:00 16.9 C 89 % 15.08 C
3183 31-07-2016 01:10:00 16.8 C 89 % 14.98 C
3184 31-07-2016 01:15:00 16.8 C 89 % 14.98 C
3185 31-07-2016 01:20:00 16.7 C 89 % 14.88 C
3186 31-07-2016 01:25:00 16.6 C 90 % 14.95 C
3187 31-07-2016 01:30:00 16.4 C 90 % 14.76 C
3188 31-07-2016 01:35:00 16.4 C 90 % 14.76 C
3189 31-07-2016 01:40:00 16.4 C 91 % 14.93 C
3190 31-07-2016 01:45:00 16.4 C 91 % 14.93 C
3191 31-07-2016 01:50:00 16.4 C 91 % 14.93 C
3192 31-07-2016 01:55:00 16.3 C 91 % 14.83 C
3193 31-07-2016 02:00:00 16.3 C 91 % 14.83 C
3194 31-07-2016 02:05:00 16.4 C 92 % 15.1 C
3195 31-07-2016 02:10:00 16.4 C 92 % 15.1 C
3196 31-07-2016 02:15:00 16.4 C 92 % 15.1 C
3197 31-07-2016 02:20:00 16.4 C 92 % 15.1 C
3198 31-07-2016 02:25:00 16.5 C 92 % 15.2 C
3199 31-07-2016 02:30:00 16.4 C 92 % 15.1 C
3200 31-07-2016 02:35:00 16.4 C 92 % 15.1 C
Sensor: Nr:Datum:Temp:Feuchte:Taupunkt:
Aussen-T/F 3201 31-07-2016 02:40:00 16.4 C 92 % 15.1 C
3202 31-07-2016 02:45:00 16.3 C 92 % 15 C
3203 31-07-2016 02:50:00 16.3 C 92 % 15 C
3204 31-07-2016 02:55:00 16.3 C 92 % 15 C
3205 31-07-2016 03:00:00 16.3 C 92 % 15 C
3206 31-07-2016 03:05:00 16.3 C 92 % 15 C
3207 31-07-2016 03:10:00 16.2 C 92 % 14.9 C
3208 31-07-2016 03:15:00 16.1 C 92 % 14.8 C
3209 31-07-2016 03:20:00 16.1 C 92 % 14.8 C
3210 31-07-2016 03:25:00 16 C 92 % 14.7 C
3211 31-07-2016 03:30:00 16 C 92 % 14.7 C
3212 31-07-2016 03:35:00 16 C 92 % 14.7 C
3213 31-07-2016 03:40:00 16 C 92 % 14.7 C
3214 31-07-2016 03:45:00 16 C 92 % 14.7 C
3215 31-07-2016 03:50:00 16 C 92 % 14.7 C
3216 31-07-2016 03:55:00 16 C 93 % 14.87 C
3217 31-07-2016 04:00:00 16 C 92 % 14.7 C
3218 31-07-2016 04:05:00 15.9 C 92 % 14.6 C
3219 31-07-2016 04:10:00 15.9 C 92 % 14.6 C
3220 31-07-2016 04:15:00 15.9 C 93 % 14.77 C
3221 31-07-2016 04:20:00 15.9 C 93 % 14.77 C
3222 31-07-2016 04:25:00 15.9 C 93 % 14.77 C
3223 31-07-2016 04:30:00 15.9 C 93 % 14.77 C
3224 31-07-2016 04:35:00 15.9 C 93 % 14.77 C
3225 31-07-2016 04:40:00 15.9 C 93 % 14.77 C
Sensor: Nr:Datum:Temp:Feuchte:Taupunkt:
Aussen-T/F 3226 31-07-2016 04:45:00 15.9 C 93 % 14.77 C
3227 31-07-2016 04:50:00 15.8 C 93 % 14.67 C
3228 31-07-2016 04:55:00 15.9 C 93 % 14.77 C
3229 31-07-2016 05:00:00 15.9 C 93 % 14.77 C
3230 31-07-2016 05:05:00 15.9 C 93 % 14.77 C
3231 31-07-2016 05:10:00 15.9 C 93 % 14.77 C
3232 31-07-2016 05:15:00 15.9 C 93 % 14.77 C
3233 31-07-2016 05:20:00 15.8 C 93 % 14.67 C
3234 31-07-2016 05:25:00 15.8 C 93 % 14.67 C
3235 31-07-2016 05:30:00 15.8 C 93 % 14.67 C
3236 31-07-2016 05:35:00 15.7 C 93 % 14.57 C
3237 31-07-2016 05:40:00 15.7 C 93 % 14.57 C
3238 31-07-2016 05:45:00 15.7 C 93 % 14.57 C
3239 31-07-2016 05:50:00 15.6 C 93 % 14.47 C
3240 31-07-2016 05:55:00 15.6 C 93 % 14.47 C
3241 31-07-2016 06:00:00 15.6 C 93 % 14.47 C
3242 31-07-2016 06:05:00 15.6 C 93 % 14.47 C
3243 31-07-2016 06:10:00 15.6 C 94 % 14.64 C
3244 31-07-2016 06:15:00 15.6 C 94 % 14.64 C
3245 31-07-2016 06:20:00 15.6 C 94 % 14.64 C
3246 31-07-2016 06:25:00 15.6 C 94 % 14.64 C
3247 31-07-2016 06:30:00 15.7 C 94 % 14.74 C
3248 31-07-2016 06:35:00 15.7 C 94 % 14.74 C
3249 31-07-2016 06:40:00 15.7 C 94 % 14.74 C
3250 31-07-2016 06:45:00 15.8 C 94 % 14.84 C
Sensor: Nr:Datum:Temp:Feuchte:Taupunkt:
Aussen-T/F 3251 31-07-2016 06:50:00 15.8 C 94 % 14.84 C
3252 31-07-2016 06:55:00 15.9 C 94 % 14.94 C
3253 31-07-2016 07:00:00 15.9 C 94 % 14.94 C
3254 31-07-2016 07:05:00 16 C 94 % 15.03 C
3255 31-07-2016 07:10:00 16.1 C 94 % 15.13 C
3256 31-07-2016 07:15:00 16.1 C 94 % 15.13 C
3257 31-07-2016 07:20:00 16.1 C 94 % 15.13 C
3258 31-07-2016 07:25:00 16.2 C 94 % 15.23 C
3259 31-07-2016 07:30:00 16.3 C 94 % 15.33 C
3260 31-07-2016 07:35:00 16.4 C 94 % 15.43 C
3261 31-07-2016 07:40:00 16.5 C 93 % 15.36 C
3262 31-07-2016 07:45:00 16.6 C 93 % 15.46 C
3263 31-07-2016 07:50:00 16.7 C 93 % 15.56 C
3264 31-07-2016 07:55:00 16.7 C 93 % 15.56 C
3265 31-07-2016 08:00:00 16.8 C 92 % 15.49 C
3266 31-07-2016 08:05:00 16.9 C 92 % 15.59 C
3267 31-07-2016 08:10:00 16.9 C 91 % 15.42 C
3268 31-07-2016 08:15:00 17.1 C 91 % 15.62 C
3269 31-07-2016 08:20:00 17.2 C 91 % 15.72 C
3270 31-07-2016 08:25:00 17.3 C 91 % 15.82 C
3271 31-07-2016 08:30:00 17.4 C 91 % 15.92 C
3272 31-07-2016 08:35:00 17.5 C 90 % 15.84 C
3273 31-07-2016 08:40:00 17.6 C 91 % 16.11 C
3274 31-07-2016 08:45:00 17.8 C 89 % 15.96 C
3275 31-07-2016 08:50:00 17.9 C 88 % 15.88 C
Sensor: Nr:Datum:Temp:Feuchte:Taupunkt:
Aussen-T/F 3276 31-07-2016 08:55:00 18.1 C 86 % 15.72 C
3277 31-07-2016 09:00:00 18.3 C 84 % 15.55 C
3278 31-07-2016 09:05:00 18.4 C 84 % 15.65 C
3279 31-07-2016 09:10:00 18.6 C 84 % 15.84 C
3280 31-07-2016 09:15:00 18.7 C 83 % 15.75 C
3281 31-07-2016 09:20:00 18.9 C 84 % 16.14 C
3282 31-07-2016 09:25:00 19 C 82 % 15.86 C
3283 31-07-2016 09:30:00 19.2 C 82 % 16.05 C
3284 31-07-2016 09:35:00 19.2 C 81 % 15.86 C
3285 31-07-2016 09:40:00 19.4 C 80 % 15.86 C
3286 31-07-2016 09:45:00 19.5 C 80 % 15.96 C
3287 31-07-2016 09:50:00 19.6 C 80 % 16.06 C
3288 31-07-2016 09:55:00 19.7 C 79 % 15.96 C
3289 31-07-2016 10:00:00 19.7 C 80 % 16.15 C
3290 31-07-2016 10:05:00 19.5 C 79 % 15.76 C
3291 31-07-2016 10:10:00 19.4 C 79 % 15.66 C
3292 31-07-2016 10:15:00 19.3 C 80 % 15.76 C
3293 31-07-2016 10:20:00 19.3 C 80 % 15.76 C
3294 31-07-2016 10:25:00 19.3 C 80 % 15.76 C
3295 31-07-2016 10:30:00 19.4 C 80 % 15.86 C
3296 31-07-2016 10:35:00 19.4 C 80 % 15.86 C
3297 31-07-2016 10:40:00 19.4 C 80 % 15.86 C
3298 31-07-2016 10:45:00 19.6 C 79 % 15.86 C
3299 31-07-2016 10:50:00 19.8 C 78 % 15.85 C
3300 31-07-2016 10:55:00 19.9 C 80 % 16.35 C
Sensor: Nr:Datum:Temp:Feuchte:Taupunkt:
Aussen-T/F 3301 31-07-2016 11:00:00 19.9 C 76 % 15.54 C
3302 31-07-2016 11:05:00 19.9 C 76 % 15.54 C
3303 31-07-2016 11:10:00 19.8 C 76 % 15.45 C
3304 31-07-2016 11:15:00 19.8 C 76 % 15.45 C
3305 31-07-2016 11:20:00 19.7 C 77 % 15.56 C
3306 31-07-2016 11:25:00 19.7 C 77 % 15.56 C
3307 31-07-2016 11:30:00 19.7 C 77 % 15.56 C
3308 31-07-2016 11:35:00 19.8 C 77 % 15.65 C
3309 31-07-2016 11:40:00 19.9 C 77 % 15.75 C
3310 31-07-2016 11:45:00 20 C 76 % 15.64 C
3311 31-07-2016 11:50:00 20.2 C 77 % 16.04 C
3312 31-07-2016 11:55:00 20.2 C 75 % 15.63 C
3313 31-07-2016 12:00:00 20.3 C 75 % 15.72 C
3314 31-07-2016 12:05:00 20.4 C 75 % 15.82 C
3315 31-07-2016 12:10:00 20.6 C 74 % 15.8 C
3316 31-07-2016 12:15:00 20.7 C 73 % 15.69 C
3317 31-07-2016 12:20:00 20.8 C 73 % 15.78 C
3318 31-07-2016 12:25:00 20.8 C 72 % 15.57 C
3319 31-07-2016 12:30:00 20.9 C 73 % 15.88 C
3320 31-07-2016 12:35:00 20.8 C 72 % 15.57 C
3321 31-07-2016 12:40:00 20.7 C 72 % 15.47 C
3322 31-07-2016 12:45:00 20.7 C 73 % 15.69 C
3323 31-07-2016 12:50:00 20.7 C 72 % 15.47 C
3324 31-07-2016 12:55:00 20.8 C 72 % 15.57 C
3325 31-07-2016 13:00:00 20.8 C 72 % 15.57 C
Sensor: Nr:Datum:Temp:Feuchte:Taupunkt:
Aussen-T/F 3326 31-07-2016 13:05:00 20.9 C 72 % 15.66 C
3327 31-07-2016 13:10:00 21 C 72 % 15.76 C
3328 31-07-2016 13:15:00 21.1 C 71 % 15.64 C
3329 31-07-2016 13:20:00 21.1 C 72 % 15.86 C
3330 31-07-2016 13:25:00 21.3 C 70 % 15.61 C
3331 31-07-2016 13:30:00 21.3 C 69 % 15.38 C
3332 31-07-2016 13:35:00 21.3 C 69 % 15.38 C
3333 31-07-2016 13:40:00 21.3 C 69 % 15.38 C
3334 31-07-2016 13:45:00 21.3 C 69 % 15.38 C
3335 31-07-2016 13:50:00 21.4 C 70 % 15.7 C
3336 31-07-2016 13:55:00 21.6 C 68 % 15.44 C
3337 31-07-2016 14:00:00 21.7 C 67 % 15.31 C
3338 31-07-2016 14:05:00 21.8 C 67 % 15.4 C
3339 31-07-2016 14:10:00 21.8 C 67 % 15.4 C
3340 31-07-2016 14:15:00 21.9 C 66 % 15.26 C
3341 31-07-2016 14:20:00 22.1 C 66 % 15.45 C
3342 31-07-2016 14:25:00 22.1 C 65 % 15.21 C
3343 31-07-2016 14:30:00 21.9 C 65 % 15.02 C
3344 31-07-2016 14:35:00 21.6 C 66 % 14.98 C
3345 31-07-2016 14:40:00 20.7 C 67 % 14.36 C
3346 31-07-2016 14:45:00 20 C 71 % 14.58 C
3347 31-07-2016 14:50:00 19.5 C 74 % 14.74 C
3348 31-07-2016 14:55:00 19.2 C 77 % 15.07 C
3349 31-07-2016 15:00:00 19 C 79 % 15.28 C
3350 31-07-2016 15:05:00 18.7 C 81 % 15.37 C
Sensor: Nr:Datum:Temp:Feuchte:Taupunkt:
Aussen-T/F 3351 31-07-2016 15:10:00 18.4 C 84 % 15.65 C
3352 31-07-2016 15:15:00 18.2 C 84 % 15.45 C
3353 31-07-2016 15:20:00 18.1 C 87 % 15.9 C
3354 31-07-2016 15:25:00 18.1 C 85 % 15.54 C
3355 31-07-2016 15:30:00 18.2 C 84 % 15.45 C
3356 31-07-2016 15:35:00 18.4 C 83 % 15.46 C
3357 31-07-2016 15:40:00 18.5 C 79 % 14.79 C
3358 31-07-2016 15:45:00 18.6 C 75 % 14.08 C
3359 31-07-2016 15:50:00 18.5 C 73 % 13.57 C
3360 31-07-2016 15:55:00 18.5 C 76 % 14.19 C
3361 31-07-2016 16:00:00 18.5 C 74 % 13.78 C
3362 31-07-2016 16:05:00 18.5 C 73 % 13.57 C
3363 31-07-2016 16:10:00 18.5 C 74 % 13.78 C
3364 31-07-2016 16:15:00 18.6 C 72 % 13.46 C
3365 31-07-2016 16:20:00 18.8 C 74 % 14.07 C
3366 31-07-2016 16:25:00 19.3 C 73 % 14.34 C
3367 31-07-2016 16:30:00 20.1 C 72 % 14.9 C
3368 31-07-2016 16:35:00 20.6 C 68 % 14.49 C
3369 31-07-2016 16:40:00 20.8 C 66 % 14.22 C
3370 31-07-2016 16:45:00 20.7 C 65 % 13.89 C
3371 31-07-2016 16:50:00 20.6 C 65 % 13.79 C
3372 31-07-2016 16:55:00 20.3 C 64 % 13.27 C
3373 31-07-2016 17:00:00 20.1 C 65 % 13.32 C
3374 31-07-2016 17:05:00 19.9 C 63 % 12.65 C
3375 31-07-2016 17:10:00 19.7 C 65 % 12.94 C
Sensor: Nr:Datum:Temp:Feuchte:Taupunkt:
Aussen-T/F 3376 31-07-2016 17:15:00 19.6 C 69 % 13.76 C
3377 31-07-2016 17:20:00 19.4 C 69 % 13.57 C
3378 31-07-2016 17:25:00 19.3 C 68 % 13.25 C
3379 31-07-2016 17:30:00 19.3 C 67 % 13.02 C
3380 31-07-2016 17:35:00 19.3 C 72 % 14.13 C
3381 31-07-2016 17:40:00 19.5 C 71 % 14.1 C
3382 31-07-2016 17:45:00 19.9 C 69 % 14.05 C
3383 31-07-2016 17:50:00 20.6 C 66 % 14.03 C
3384 31-07-2016 17:55:00 21.2 C 64 % 14.12 C
3385 31-07-2016 18:00:00 21.5 C 62 % 13.92 C
3386 31-07-2016 18:05:00 21.8 C 60 % 13.69 C
3387 31-07-2016 18:10:00 22.3 C 61 % 14.42 C
3388 31-07-2016 18:15:00 22.3 C 60 % 14.16 C
3389 31-07-2016 18:20:00 22.4 C 61 % 14.51 C
3390 31-07-2016 18:25:00 22.3 C 60 % 14.16 C
3391 31-07-2016 18:30:00 22.2 C 60 % 14.07 C
3392 31-07-2016 18:35:00 21.7 C 62 % 14.1 C
3393 31-07-2016 18:40:00 21.2 C 64 % 14.12 C
3394 31-07-2016 18:45:00 21.1 C 65 % 14.27 C
3395 31-07-2016 18:50:00 21.3 C 64 % 14.22 C
3396 31-07-2016 18:55:00 21.5 C 62 % 13.92 C
3397 31-07-2016 19:00:00 21.3 C 63 % 13.97 C
3398 31-07-2016 19:05:00 21.3 C 62 % 13.73 C
3399 31-07-2016 19:10:00 21.2 C 61 % 13.38 C
3400 31-07-2016 19:15:00 20.9 C 61 % 13.1 C
Sensor: Nr:Datum:Temp:Feuchte:Taupunkt:
Aussen-T/F 3401 31-07-2016 19:20:00 20.7 C 60 % 12.66 C
3402 31-07-2016 19:25:00 20.4 C 61 % 12.63 C
3403 31-07-2016 19:30:00 20.4 C 63 % 13.12 C
3404 31-07-2016 19:35:00 20.3 C 62 % 12.79 C
3405 31-07-2016 19:40:00 20.2 C 63 % 12.94 C
3406 31-07-2016 19:45:00 20 C 62 % 12.5 C
3407 31-07-2016 19:50:00 19.8 C 65 % 13.03 C
3408 31-07-2016 19:55:00 19.8 C 65 % 13.03 C
3409 31-07-2016 20:00:00 19.7 C 65 % 12.94 C
3410 31-07-2016 20:05:00 19.7 C 66 % 13.17 C
3411 31-07-2016 20:10:00 19.6 C 66 % 13.08 C
3412 31-07-2016 20:15:00 19.6 C 67 % 13.31 C
3413 31-07-2016 20:20:00 19.4 C 67 % 13.12 C
3414 31-07-2016 20:25:00 19.3 C 68 % 13.25 C
3415 31-07-2016 20:30:00 19.2 C 68 % 13.15 C
3416 31-07-2016 20:35:00 19.1 C 69 % 13.28 C
3417 31-07-2016 20:40:00 19.1 C 69 % 13.28 C
3418 31-07-2016 20:45:00 18.9 C 69 % 13.09 C
3419 31-07-2016 20:50:00 18.8 C 70 % 13.22 C
3420 31-07-2016 20:55:00 18.7 C 72 % 13.55 C
3421 31-07-2016 21:00:00 18.4 C 74 % 13.68 C
3422 31-07-2016 21:05:00 18 C 75 % 13.51 C
3423 31-07-2016 21:10:00 17.6 C 77 % 13.52 C
3424 31-07-2016 21:15:00 17.2 C 78 % 13.33 C
3425 31-07-2016 21:20:00 16.9 C 79 % 13.24 C
Sensor: Nr:Datum:Temp:Feuchte:Taupunkt:
Aussen-T/F 3426 31-07-2016 21:25:00 16.6 C 80 % 13.14 C
3427 31-07-2016 21:30:00 16.4 C 81 % 13.13 C
3428 31-07-2016 21:35:00 16.3 C 81 % 13.04 C
3429 31-07-2016 21:40:00 16.2 C 82 % 13.13 C
3430 31-07-2016 21:45:00 16.1 C 82 % 13.03 C
3431 31-07-2016 21:50:00 16 C 83 % 13.12 C
3432 31-07-2016 21:55:00 15.8 C 83 % 12.92 C
3433 31-07-2016 22:00:00 15.8 C 83 % 12.92 C
3434 31-07-2016 22:05:00 15.7 C 84 % 13.01 C
3435 31-07-2016 22:10:00 15.7 C 84 % 13.01 C
3436 31-07-2016 22:15:00 15.7 C 84 % 13.01 C
3437 31-07-2016 22:20:00 15.7 C 85 % 13.19 C
3438 31-07-2016 22:25:00 15.7 C 85 % 13.19 C
3439 31-07-2016 22:30:00 15.7 C 86 % 13.37 C
3440 31-07-2016 22:35:00 15.7 C 86 % 13.37 C
3441 31-07-2016 22:40:00 15.7 C 86 % 13.37 C
3442 31-07-2016 22:45:00 15.6 C 86 % 13.27 C
3443 31-07-2016 22:50:00 15.4 C 86 % 13.07 C
3444 31-07-2016 22:55:00 15.3 C 86 % 12.97 C
3445 31-07-2016 23:00:00 15.1 C 86 % 12.78 C
3446 31-07-2016 23:05:00 14.9 C 87 % 12.76 C
3447 31-07-2016 23:10:00 14.8 C 87 % 12.66 C
3448 31-07-2016 23:15:00 14.8 C 88 % 12.83 C
3449 31-07-2016 23:20:00 14.7 C 88 % 12.73 C
3450 31-07-2016 23:25:00 14.6 C 88 % 12.64 C
Sensor: Nr:Datum:Temp:Feuchte:Taupunkt:
Aussen-T/F 3451 31-07-2016 23:30:00 14.4 C 88 % 12.44 C
3452 31-07-2016 23:35:00 14.4 C 88 % 12.44 C
3453 31-07-2016 23:40:00 14.3 C 89 % 12.51 C
3454 31-07-2016 23:45:00 14.3 C 89 % 12.51 C
3455 31-07-2016 23:50:00 14.3 C 90 % 12.68 C
3456 31-07-2016 23:55:00 14.3 C 90 % 12.68 C
3457 01-08-2016 00:00:00 14.3 C 89 % 12.51 C
3458 01-08-2016 00:05:00 14.3 C 89 % 12.51 C
3459 01-08-2016 00:10:00 14.2 C 89 % 12.41 C
3460 01-08-2016 00:15:00 14.1 C 89 % 12.32 C
3461 01-08-2016 00:20:00 14 C 89 % 12.22 C
3462 01-08-2016 00:25:00 13.8 C 89 % 12.02 C
3463 01-08-2016 00:30:00 13.7 C 89 % 11.92 C
3464 01-08-2016 00:35:00 13.7 C 89 % 11.92 C
3465 01-08-2016 00:40:00 13.6 C 89 % 11.82 C
3466 01-08-2016 00:45:00 13.4 C 90 % 11.79 C
3467 01-08-2016 00:50:00 13.4 C 90 % 11.79 C
3468 01-08-2016 00:55:00 13.3 C 90 % 11.7 C
3469 01-08-2016 01:00:00 13.2 C 90 % 11.6 C
3470 01-08-2016 01:05:00 13.1 C 90 % 11.5 C
3471 01-08-2016 01:10:00 13 C 90 % 11.4 C
3472 01-08-2016 01:15:00 12.9 C 91 % 11.47 C
3473 01-08-2016 01:20:00 12.9 C 91 % 11.47 C
3474 01-08-2016 01:25:00 12.8 C 91 % 11.37 C
3475 01-08-2016 01:30:00 12.8 C 91 % 11.37 C
Sensor: Nr:Datum:Temp:Feuchte:Taupunkt:
Aussen-T/F 3476 01-08-2016 01:35:00 12.8 C 91 % 11.37 C
3477 01-08-2016 01:40:00 12.7 C 91 % 11.27 C
3478 01-08-2016 01:45:00 12.7 C 91 % 11.27 C
3479 01-08-2016 01:50:00 12.6 C 91 % 11.17 C
3480 01-08-2016 01:55:00 12.6 C 91 % 11.17 C
3481 01-08-2016 02:00:00 12.6 C 91 % 11.17 C
3482 01-08-2016 02:05:00 12.5 C 91 % 11.07 C
3483 01-08-2016 02:10:00 12.4 C 91 % 10.97 C
3484 01-08-2016 02:15:00 12.4 C 92 % 11.14 C
3485 01-08-2016 02:20:00 12.4 C 92 % 11.14 C
3486 01-08-2016 02:25:00 12.4 C 92 % 11.14 C
3487 01-08-2016 02:30:00 12.3 C 92 % 11.04 C
3488 01-08-2016 02:35:00 12.3 C 92 % 11.04 C
3489 01-08-2016 02:40:00 12.3 C 92 % 11.04 C
3490 01-08-2016 02:45:00 12.2 C 92 % 10.94 C
3491 01-08-2016 02:50:00 12.2 C 92 % 10.94 C
3492 01-08-2016 02:55:00 12.1 C 92 % 10.84 C
3493 01-08-2016 03:00:00 12.1 C 92 % 10.84 C
3494 01-08-2016 03:05:00 12 C 92 % 10.74 C
3495 01-08-2016 03:10:00 11.9 C 92 % 10.64 C
3496 01-08-2016 03:15:00 11.9 C 92 % 10.64 C
3497 01-08-2016 03:20:00 11.8 C 92 % 10.54 C
3498 01-08-2016 03:25:00 11.8 C 93 % 10.71 C
3499 01-08-2016 03:30:00 11.8 C 93 % 10.71 C
3500 01-08-2016 03:35:00 11.7 C 93 % 10.61 C
Sensor: Nr:Datum:Temp:Feuchte:Taupunkt:
Aussen-T/F 3501 01-08-2016 03:40:00 11.6 C 92 % 10.35 C
3502 01-08-2016 03:45:00 11.6 C 93 % 10.51 C
3503 01-08-2016 03:50:00 11.5 C 93 % 10.41 C
3504 01-08-2016 03:55:00 11.4 C 93 % 10.31 C
3505 01-08-2016 04:00:00 11.4 C 93 % 10.31 C
3506 01-08-2016 04:05:00 11.3 C 93 % 10.21 C
3507 01-08-2016 04:10:00 11.3 C 93 % 10.21 C
3508 01-08-2016 04:15:00 11.3 C 93 % 10.21 C
3509 01-08-2016 04:20:00 11.2 C 93 % 10.11 C
3510 01-08-2016 04:25:00 11.2 C 93 % 10.11 C
3511 01-08-2016 04:30:00 11.1 C 93 % 10.01 C
3512 01-08-2016 04:35:00 11.1 C 93 % 10.01 C
3513 01-08-2016 04:40:00 10.9 C 93 % 9.81 C
3514 01-08-2016 04:45:00 10.9 C 93 % 9.81 C
3515 01-08-2016 04:50:00 10.8 C 93 % 9.71 C
3516 01-08-2016 04:55:00 10.8 C 94 % 9.87 C
3517 01-08-2016 05:00:00 10.8 C 94 % 9.87 C
3518 01-08-2016 05:05:00 10.8 C 94 % 9.87 C
3519 01-08-2016 05:10:00 10.7 C 94 % 9.77 C
3520 01-08-2016 05:15:00 10.7 C 94 % 9.77 C
3521 01-08-2016 05:20:00 10.7 C 94 % 9.77 C
3522 01-08-2016 05:25:00 10.6 C 94 % 9.68 C
3523 01-08-2016 05:30:00 10.6 C 94 % 9.68 C
3524 01-08-2016 05:35:00 10.6 C 94 % 9.68 C
3525 01-08-2016 05:40:00 10.6 C 94 % 9.68 C
Sensor: Nr:Datum:Temp:Feuchte:Taupunkt:
Aussen-T/F 3526 01-08-2016 05:45:00 10.5 C 94 % 9.58 C
3527 01-08-2016 05:50:00 10.5 C 94 % 9.58 C
3528 01-08-2016 05:55:00 10.5 C 94 % 9.58 C
3529 01-08-2016 06:00:00 10.4 C 94 % 9.48 C
3530 01-08-2016 06:05:00 10.4 C 94 % 9.48 C
3531 01-08-2016 06:10:00 10.4 C 94 % 9.48 C
3532 01-08-2016 06:15:00 10.4 C 94 % 9.48 C
3533 01-08-2016 06:20:00 10.5 C 94 % 9.58 C
3534 01-08-2016 06:25:00 10.5 C 95 % 9.73 C
3535 01-08-2016 06:30:00 10.5 C 95 % 9.73 C
3536 01-08-2016 06:35:00 10.5 C 95 % 9.73 C
3537 01-08-2016 06:40:00 10.5 C 95 % 9.73 C
3538 01-08-2016 06:45:00 10.4 C 95 % 9.63 C
3539 01-08-2016 06:50:00 10.4 C 95 % 9.63 C
3540 01-08-2016 06:55:00 10.5 C 95 % 9.73 C
3541 01-08-2016 07:00:00 10.5 C 95 % 9.73 C
3542 01-08-2016 07:05:00 10.5 C 95 % 9.73 C
3543 01-08-2016 07:10:00 10.5 C 95 % 9.73 C
3544 01-08-2016 07:15:00 10.4 C 95 % 9.63 C
3545 01-08-2016 07:20:00 10.4 C 95 % 9.63 C
3546 01-08-2016 07:25:00 10.5 C 95 % 9.73 C
3547 01-08-2016 07:30:00 10.5 C 95 % 9.73 C
3548 01-08-2016 07:35:00 10.6 C 95 % 9.83 C
3549 01-08-2016 07:40:00 10.6 C 95 % 9.83 C
3550 01-08-2016 07:45:00 10.7 C 95 % 9.93 C
Sensor: Nr:Datum:Temp:Feuchte:Taupunkt:
Aussen-T/F 3551 01-08-2016 07:50:00 10.7 C 95 % 9.93 C
3552 01-08-2016 07:55:00 10.7 C 95 % 9.93 C
3553 01-08-2016 08:00:00 10.8 C 95 % 10.03 C
3554 01-08-2016 08:05:00 10.8 C 95 % 10.03 C
3555 01-08-2016 08:10:00 10.8 C 95 % 10.03 C
3556 01-08-2016 08:15:00 10.9 C 95 % 10.13 C
3557 01-08-2016 08:20:00 10.9 C 95 % 10.13 C
3558 01-08-2016 08:25:00 11 C 95 % 10.23 C
3559 01-08-2016 08:30:00 11.1 C 95 % 10.33 C
3560 01-08-2016 08:35:00 11.2 C 96 % 10.59 C
3561 01-08-2016 08:40:00 11.3 C 95 % 10.53 C
3562 01-08-2016 08:45:00 11.4 C 96 % 10.79 C
3563 01-08-2016 08:50:00 11.6 C 96 % 10.98 C
3564 01-08-2016 08:55:00 11.7 C 96 % 11.08 C
3565 01-08-2016 09:00:00 11.8 C 96 % 11.18 C
3566 01-08-2016 09:05:00 11.9 C 96 % 11.28 C
3567 01-08-2016 09:10:00 12 C 96 % 11.38 C
3568 01-08-2016 09:15:00 12.2 C 96 % 11.58 C
3569 01-08-2016 09:20:00 12.3 C 96 % 11.68 C
3570 01-08-2016 09:25:00 12.5 C 96 % 11.88 C
3571 01-08-2016 09:30:00 12.7 C 96 % 12.08 C
3572 01-08-2016 09:35:00 12.8 C 96 % 12.18 C
3573 01-08-2016 09:40:00 13 C 96 % 12.38 C
3574 01-08-2016 09:45:00 13.2 C 96 % 12.58 C
3575 01-08-2016 09:50:00 13.3 C 96 % 12.68 C
Sensor: Nr:Datum:Temp:Feuchte:Taupunkt:
Aussen-T/F 3576 01-08-2016 09:55:00 13.4 C 96 % 12.78 C
3577 01-08-2016 10:00:00 13.6 C 96 % 12.97 C
3578 01-08-2016 10:05:00 13.8 C 96 % 13.17 C
3579 01-08-2016 10:10:00 14 C 96 % 13.37 C
3580 01-08-2016 10:15:00 14.2 C 95 % 13.41 C
3581 01-08-2016 10:20:00 14.4 C 95 % 13.61 C
3582 01-08-2016 10:25:00 14.6 C 95 % 13.81 C
3583 01-08-2016 10:30:00 14.8 C 93 % 13.68 C
3584 01-08-2016 10:35:00 15.2 C 93 % 14.08 C
3585 01-08-2016 10:40:00 15.6 C 91 % 14.14 C
3586 01-08-2016 10:45:00 15.9 C 86 % 13.56 C
3587 01-08-2016 10:50:00 16.4 C 86 % 14.05 C
3588 01-08-2016 10:55:00 16.8 C 84 % 14.08 C
3589 01-08-2016 11:00:00 17 C 83 % 14.09 C
3590 01-08-2016 11:05:00 17.2 C 80 % 13.72 C
3591 01-08-2016 11:10:00 17.4 C 78 % 13.53 C
3592 01-08-2016 11:15:00 17.8 C 74 % 13.11 C
3593 01-08-2016 11:20:00 18.2 C 72 % 13.07 C
3594 01-08-2016 11:25:00 18.5 C 75 % 13.99 C
3595 01-08-2016 11:30:00 18.8 C 72 % 13.65 C
3596 01-08-2016 11:35:00 19.2 C 68 % 13.15 C
3597 01-08-2016 11:40:00 19.6 C 69 % 13.76 C
3598 01-08-2016 11:45:00 19.8 C 69 % 13.95 C
3599 01-08-2016 11:50:00 20 C 69 % 14.14 C
3600 01-08-2016 11:55:00 20.2 C 70 % 14.56 C
Sensor: Nr:Datum:Temp:Feuchte:Taupunkt:
Aussen-T/F 3601 01-08-2016 12:00:00 20.4 C 65 % 13.6 C
3602 01-08-2016 12:05:00 20.6 C 71 % 15.16 C
3603 01-08-2016 12:10:00 20.8 C 66 % 14.22 C
3604 01-08-2016 12:15:00 20.9 C 62 % 13.35 C
3605 01-08-2016 12:20:00 21.1 C 67 % 14.74 C
3606 01-08-2016 12:25:00 21.2 C 60 % 13.13 C
3607 01-08-2016 12:30:00 21.3 C 66 % 14.69 C
3608 01-08-2016 12:35:00 21.2 C 62 % 13.63 C
3609 01-08-2016 12:40:00 21.2 C 61 % 13.38 C
3610 01-08-2016 12:45:00 21.2 C 70 % 15.51 C
3611 01-08-2016 12:50:00 21.3 C 63 % 13.97 C
3612 01-08-2016 12:55:00 21.4 C 60 % 13.32 C
3613 01-08-2016 13:00:00 21.4 C 59 % 13.06 C
3614 01-08-2016 13:05:00 21.4 C 59 % 13.06 C
3615 01-08-2016 13:10:00 21.4 C 59 % 13.06 C
3616 01-08-2016 13:15:00 21.4 C 62 % 13.82 C
3617 01-08-2016 13:20:00 21.4 C 62 % 13.82 C
3618 01-08-2016 13:25:00 21.2 C 67 % 14.83 C
3619 01-08-2016 13:30:00 21.2 C 72 % 15.95 C
3620 01-08-2016 13:35:00 21.1 C 69 % 15.19 C
3621 01-08-2016 13:40:00 20.8 C 73 % 15.78 C
3622 01-08-2016 13:45:00 20.4 C 75 % 15.82 C
3623 01-08-2016 13:50:00 20.2 C 77 % 16.04 C
3624 01-08-2016 13:55:00 20.1 C 77 % 15.94 C
3625 01-08-2016 14:00:00 20.1 C 77 % 15.94 C
Sensor: Nr:Datum:Temp:Feuchte:Taupunkt:
Aussen-T/F 3626 01-08-2016 14:05:00 20.1 C 71 % 14.68 C
3627 01-08-2016 14:10:00 20.5 C 65 % 13.7 C
3628 01-08-2016 14:15:00 21.1 C 61 % 13.29 C
3629 01-08-2016 14:20:00 21.4 C 61 % 13.57 C
3630 01-08-2016 14:25:00 21.7 C 60 % 13.6 C
3631 01-08-2016 14:30:00 22 C 58 % 13.36 C
3632 01-08-2016 14:35:00 22.2 C 63 % 14.82 C
3633 01-08-2016 14:40:00 22.4 C 55 % 12.92 C
3634 01-08-2016 14:45:00 22.6 C 66 % 15.93 C
3635 01-08-2016 14:50:00 22.5 C 58 % 13.83 C
3636 01-08-2016 14:55:00 22.4 C 57 % 13.47 C
3637 01-08-2016 15:00:00 22.2 C 66 % 15.55 C
3638 01-08-2016 15:05:00 22.2 C 71 % 16.69 C
3639 01-08-2016 15:10:00 21.8 C 71 % 16.31 C
3640 01-08-2016 15:15:00 21.4 C 71 % 15.93 C
3641 01-08-2016 15:20:00 21.1 C 71 % 15.64 C
3642 01-08-2016 15:25:00 20.7 C 74 % 15.9 C
3643 01-08-2016 15:30:00 20.4 C 74 % 15.61 C
3644 01-08-2016 15:35:00 20.1 C 75 % 15.53 C
3645 01-08-2016 15:40:00 19.9 C 76 % 15.54 C
3646 01-08-2016 15:45:00 19.8 C 77 % 15.65 C
3647 01-08-2016 15:50:00 19.8 C 77 % 15.65 C
3648 01-08-2016 15:55:00 19.8 C 80 % 16.25 C
3649 01-08-2016 16:00:00 19.9 C 79 % 16.15 C
3650 01-08-2016 16:05:00 19.9 C 78 % 15.95 C
Sensor: Nr:Datum:Temp:Feuchte:Taupunkt:
Aussen-T/F 3651 01-08-2016 16:10:00 20 C 79 % 16.25 C
3652 01-08-2016 16:15:00 20.1 C 79 % 16.34 C
3653 01-08-2016 16:20:00 20.3 C 80 % 16.74 C
3654 01-08-2016 16:25:00 20.5 C 80 % 16.93 C
3655 01-08-2016 16:30:00 20.7 C 78 % 16.73 C
3656 01-08-2016 16:35:00 20.8 C 77 % 16.62 C
3657 01-08-2016 16:40:00 21.1 C 79 % 17.32 C
3658 01-08-2016 16:45:00 21.2 C 77 % 17.01 C
3659 01-08-2016 16:50:00 21.4 C 64 % 14.31 C
3660 01-08-2016 16:55:00 21.8 C 67 % 15.4 C
3661 01-08-2016 17:00:00 22.3 C 55 % 12.83 C
3662 01-08-2016 17:05:00 22.7 C 64 % 15.54 C
3663 01-08-2016 17:10:00 23.1 C 63 % 15.67 C
3664 01-08-2016 17:15:00 23.5 C 60 % 15.29 C
3665 01-08-2016 17:20:00 24.1 C 52 % 13.63 C
3666 01-08-2016 17:25:00 24.6 C 48 % 12.87 C
3667 01-08-2016 17:30:00 24.8 C 46 % 12.4 C
3668 01-08-2016 17:35:00 24.9 C 45 % 12.16 C
3669 01-08-2016 17:40:00 25.1 C 42 % 11.29 C
3670 01-08-2016 17:45:00 24.9 C 40 % 10.38 C
3671 01-08-2016 17:50:00 24.7 C 40 % 10.2 C
3672 01-08-2016 17:55:00 24.6 C 41 % 10.48 C
3673 01-08-2016 18:00:00 24.7 C 41 % 10.57 C
3674 01-08-2016 18:05:00 25.2 C 47 % 13.09 C
3675 01-08-2016 18:10:00 25.6 C 48 % 13.78 C
Sensor: Nr:Datum:Temp:Feuchte:Taupunkt:
Aussen-T/F 3676 01-08-2016 18:15:00 25.6 C 40 % 11 C
3677 01-08-2016 18:20:00 25.7 C 46 % 13.22 C
3678 01-08-2016 18:25:00 25.7 C 40 % 11.09 C
3679 01-08-2016 18:30:00 25.6 C 46 % 13.12 C
3680 01-08-2016 18:35:00 25.6 C 54 % 15.6 C
3681 01-08-2016 18:40:00 25.2 C 54 % 15.23 C
3682 01-08-2016 18:45:00 24.7 C 57 % 15.61 C
3683 01-08-2016 18:50:00 24.7 C 56 % 15.33 C
3684 01-08-2016 18:55:00 24.9 C 44 % 11.81 C
3685 01-08-2016 19:00:00 24.9 C 48 % 13.14 C
3686 01-08-2016 19:05:00 25.1 C 44 % 12 C
3687 01-08-2016 19:10:00 25.1 C 43 % 11.65 C
3688 01-08-2016 19:15:00 24.9 C 42 % 11.11 C
3689 01-08-2016 19:20:00 24.6 C 43 % 11.2 C
3690 01-08-2016 19:25:00 24.2 C 44 % 11.18 C
3691 01-08-2016 19:30:00 23.7 C 46 % 11.4 C
3692 01-08-2016 19:35:00 23.4 C 50 % 12.39 C
3693 01-08-2016 19:40:00 23.2 C 51 % 12.51 C
3694 01-08-2016 19:45:00 23 C 62 % 15.33 C
3695 01-08-2016 19:50:00 22.6 C 63 % 15.2 C
3696 01-08-2016 19:55:00 21.9 C 63 % 14.54 C
3697 01-08-2016 20:00:00 21.4 C 66 % 14.79 C
3698 01-08-2016 20:05:00 21 C 67 % 14.64 C
3699 01-08-2016 20:10:00 20.6 C 68 % 14.49 C
3700 01-08-2016 20:15:00 20.3 C 68 % 14.2 C
Sensor: Nr:Datum:Temp:Feuchte:Taupunkt:
Aussen-T/F 3701 01-08-2016 20:20:00 20.1 C 69 % 14.24 C
3702 01-08-2016 20:25:00 19.8 C 69 % 13.95 C
3703 01-08-2016 20:30:00 19.6 C 69 % 13.76 C
3704 01-08-2016 20:35:00 19.3 C 70 % 13.69 C
3705 01-08-2016 20:40:00 19.1 C 71 % 13.72 C
3706 01-08-2016 20:45:00 18.8 C 70 % 13.22 C
3707 01-08-2016 20:50:00 18.6 C 69 % 12.8 C
3708 01-08-2016 20:55:00 18.4 C 69 % 12.61 C
3709 01-08-2016 21:00:00 18.2 C 69 % 12.42 C
3710 01-08-2016 21:05:00 18.1 C 69 % 12.33 C
3711 01-08-2016 21:10:00 17.9 C 69 % 12.14 C
3712 01-08-2016 21:15:00 17.8 C 69 % 12.04 C
3713 01-08-2016 21:20:00 17.8 C 69 % 12.04 C
3714 01-08-2016 21:25:00 17.6 C 69 % 11.85 C
3715 01-08-2016 21:30:00 17.6 C 68 % 11.63 C
3716 01-08-2016 21:35:00 17.5 C 69 % 11.75 C
3717 01-08-2016 21:40:00 17.4 C 70 % 11.88 C
3718 01-08-2016 21:45:00 17.4 C 69 % 11.66 C
3719 01-08-2016 21:50:00 17.3 C 70 % 11.78 C
3720 01-08-2016 21:55:00 17.2 C 70 % 11.68 C
3721 01-08-2016 22:00:00 17.2 C 71 % 11.9 C
3722 01-08-2016 22:05:00 17.2 C 73 % 12.32 C
3723 01-08-2016 22:10:00 17.1 C 72 % 12.02 C
3724 01-08-2016 22:15:00 16.9 C 73 % 12.03 C
3725 01-08-2016 22:20:00 16.9 C 75 % 12.44 C
Sensor: Nr:Datum:Temp:Feuchte:Taupunkt:
Aussen-T/F 3726 01-08-2016 22:25:00 16.9 C 76 % 12.65 C
3727 01-08-2016 22:30:00 16.8 C 77 % 12.75 C
3728 01-08-2016 22:35:00 16.8 C 77 % 12.75 C
3729 01-08-2016 22:40:00 16.8 C 79 % 13.14 C
3730 01-08-2016 22:45:00 16.7 C 78 % 12.85 C
3731 01-08-2016 22:50:00 16.6 C 79 % 12.95 C
3732 01-08-2016 22:55:00 16.5 C 79 % 12.85 C
3733 01-08-2016 23:00:00 16.4 C 80 % 12.94 C
3734 01-08-2016 23:05:00 16.3 C 80 % 12.85 C
3735 01-08-2016 23:10:00 16.2 C 80 % 12.75 C
3736 01-08-2016 23:15:00 16.1 C 80 % 12.65 C
3737 01-08-2016 23:20:00 16 C 80 % 12.55 C
3738 01-08-2016 23:25:00 15.9 C 80 % 12.46 C
3739 01-08-2016 23:30:00 15.9 C 81 % 12.65 C
3740 01-08-2016 23:35:00 15.8 C 80 % 12.36 C
3741 01-08-2016 23:40:00 15.8 C 80 % 12.36 C
3742 01-08-2016 23:45:00 15.8 C 80 % 12.36 C
3743 01-08-2016 23:50:00 15.8 C 80 % 12.36 C
3744 01-08-2016 23:55:00 15.8 C 80 % 12.36 C
3745 02-08-2016 00:00:00 15.8 C 81 % 12.55 C
3746 02-08-2016 00:05:00 15.8 C 81 % 12.55 C
3747 02-08-2016 00:10:00 15.8 C 82 % 12.74 C
3748 02-08-2016 00:15:00 15.8 C 81 % 12.55 C
3749 02-08-2016 00:20:00 15.8 C 82 % 12.74 C
3750 02-08-2016 00:25:00 15.8 C 82 % 12.74 C
Sensor: Nr:Datum:Temp:Feuchte:Taupunkt:
Aussen-T/F 3751 02-08-2016 00:30:00 15.8 C 83 % 12.92 C
3752 02-08-2016 00:35:00 15.8 C 79 % 12.17 C
3753 02-08-2016 00:40:00 15.9 C 80 % 12.46 C
3754 02-08-2016 00:45:00 16 C 80 % 12.55 C
3755 02-08-2016 00:50:00 16.1 C 80 % 12.65 C
3756 02-08-2016 00:55:00 16.2 C 81 % 12.94 C
3757 02-08-2016 01:00:00 16.2 C 80 % 12.75 C
3758 02-08-2016 01:05:00 16.1 C 80 % 12.65 C
3759 02-08-2016 01:10:00 16.1 C 81 % 12.84 C
3760 02-08-2016 01:15:00 16.1 C 81 % 12.84 C
3761 02-08-2016 01:20:00 16 C 82 % 12.93 C
3762 02-08-2016 01:25:00 15.9 C 82 % 12.83 C
3763 02-08-2016 01:30:00 15.8 C 81 % 12.55 C
3764 02-08-2016 01:35:00 15.8 C 82 % 12.74 C
3765 02-08-2016 01:40:00 15.7 C 83 % 12.82 C
3766 02-08-2016 01:45:00 15.6 C 82 % 12.54 C
3767 02-08-2016 01:50:00 15.6 C 82 % 12.54 C
3768 02-08-2016 01:55:00 15.4 C 82 % 12.35 C
3769 02-08-2016 02:00:00 15.4 C 82 % 12.35 C
3770 02-08-2016 02:05:00 15.4 C 83 % 12.53 C
3771 02-08-2016 02:10:00 15.4 C 84 % 12.71 C
3772 02-08-2016 02:15:00 15.3 C 83 % 12.43 C
3773 02-08-2016 02:20:00 15.3 C 83 % 12.43 C
3774 02-08-2016 02:25:00 15.3 C 83 % 12.43 C
3775 02-08-2016 02:30:00 15.3 C 84 % 12.61 C
Sensor: Nr:Datum:Temp:Feuchte:Taupunkt:
Aussen-T/F 3776 02-08-2016 02:35:00 15.3 C 83 % 12.43 C
3777 02-08-2016 02:40:00 15.3 C 84 % 12.61 C
3778 02-08-2016 02:45:00 15.3 C 84 % 12.61 C
3779 02-08-2016 02:50:00 15.3 C 84 % 12.61 C
3780 02-08-2016 02:55:00 15.2 C 84 % 12.52 C
3781 02-08-2016 03:00:00 15.2 C 84 % 12.52 C
3782 02-08-2016 03:05:00 15.2 C 85 % 12.7 C
3783 02-08-2016 03:10:00 15.3 C 85 % 12.79 C
3784 02-08-2016 03:15:00 15.3 C 86 % 12.97 C
3785 02-08-2016 03:20:00 15.3 C 86 % 12.97 C
3786 02-08-2016 03:25:00 15.3 C 86 % 12.97 C
3787 02-08-2016 03:30:00 15.2 C 85 % 12.7 C
3788 02-08-2016 03:35:00 15.2 C 85 % 12.7 C
3789 02-08-2016 03:40:00 15.2 C 85 % 12.7 C
3790 02-08-2016 03:45:00 15.2 C 85 % 12.7 C
3791 02-08-2016 03:50:00 15.2 C 86 % 12.88 C
3792 02-08-2016 03:55:00 15.3 C 87 % 13.15 C
3793 02-08-2016 04:00:00 15.3 C 87 % 13.15 C
3794 02-08-2016 04:05:00 15.3 C 87 % 13.15 C
3795 02-08-2016 04:10:00 15.2 C 88 % 13.23 C
3796 02-08-2016 04:15:00 15.2 C 88 % 13.23 C
3797 02-08-2016 04:20:00 15.2 C 89 % 13.4 C
3798 02-08-2016 04:25:00 15.2 C 89 % 13.4 C
3799 02-08-2016 04:30:00 15.1 C 90 % 13.47 C
3800 02-08-2016 04:35:00 15.1 C 90 % 13.47 C
Sensor: Nr:Datum:Temp:Feuchte:Taupunkt:
Aussen-T/F 3801 02-08-2016 04:40:00 15 C 90 % 13.37 C
3802 02-08-2016 04:45:00 15 C 91 % 13.54 C
3803 02-08-2016 04:50:00 15 C 91 % 13.54 C
3804 02-08-2016 04:55:00 14.9 C 91 % 13.44 C
3805 02-08-2016 05:00:00 14.9 C 92 % 13.61 C
3806 02-08-2016 05:05:00 14.9 C 92 % 13.61 C
3807 02-08-2016 05:10:00 14.9 C 92 % 13.61 C
3808 02-08-2016 05:15:00 14.9 C 93 % 13.78 C
3809 02-08-2016 05:20:00 14.8 C 93 % 13.68 C
3810 02-08-2016 05:25:00 14.8 C 93 % 13.68 C
3811 02-08-2016 05:30:00 14.8 C 93 % 13.68 C
3812 02-08-2016 05:35:00 14.7 C 93 % 13.58 C
3813 02-08-2016 05:40:00 14.7 C 93 % 13.58 C
3814 02-08-2016 05:45:00 14.7 C 93 % 13.58 C
3815 02-08-2016 05:50:00 14.7 C 93 % 13.58 C
3816 02-08-2016 05:55:00 14.7 C 93 % 13.58 C
3817 02-08-2016 06:00:00 14.6 C 93 % 13.48 C
3818 02-08-2016 06:05:00 14.6 C 93 % 13.48 C
3819 02-08-2016 06:10:00 14.6 C 93 % 13.48 C
3820 02-08-2016 06:15:00 14.6 C 93 % 13.48 C
3821 02-08-2016 06:20:00 14.6 C 93 % 13.48 C
3822 02-08-2016 06:25:00 14.5 C 94 % 13.55 C
3823 02-08-2016 06:30:00 14.6 C 94 % 13.65 C
3824 02-08-2016 06:35:00 14.6 C 94 % 13.65 C
3825 02-08-2016 06:40:00 14.6 C 94 % 13.65 C
Sensor: Nr:Datum:Temp:Feuchte:Taupunkt:
Aussen-T/F 3826 02-08-2016 06:45:00 14.6 C 94 % 13.65 C
3827 02-08-2016 06:50:00 14.6 C 94 % 13.65 C
3828 02-08-2016 06:55:00 14.7 C 94 % 13.74 C
3829 02-08-2016 07:00:00 14.7 C 94 % 13.74 C
3830 02-08-2016 07:05:00 14.7 C 94 % 13.74 C
3831 02-08-2016 07:10:00 14.7 C 94 % 13.74 C
3832 02-08-2016 07:15:00 14.7 C 94 % 13.74 C
3833 02-08-2016 07:20:00 14.7 C 94 % 13.74 C
3834 02-08-2016 07:25:00 14.8 C 94 % 13.84 C
3835 02-08-2016 07:30:00 14.8 C 95 % 14.01 C
3836 02-08-2016 07:35:00 14.8 C 95 % 14.01 C
3837 02-08-2016 07:40:00 14.9 C 95 % 14.11 C
3838 02-08-2016 07:45:00 14.9 C 95 % 14.11 C
3839 02-08-2016 07:50:00 15 C 95 % 14.21 C
3840 02-08-2016 07:55:00 15.1 C 95 % 14.31 C
3841 02-08-2016 08:00:00 15.1 C 95 % 14.31 C
3842 02-08-2016 08:05:00 15.1 C 95 % 14.31 C
3843 02-08-2016 08:10:00 15.1 C 95 % 14.31 C
3844 02-08-2016 08:15:00 15.2 C 95 % 14.4 C
3845 02-08-2016 08:20:00 15.2 C 95 % 14.4 C
3846 02-08-2016 08:25:00 15.2 C 95 % 14.4 C
3847 02-08-2016 08:30:00 15.2 C 95 % 14.4 C
3848 02-08-2016 08:35:00 15.2 C 95 % 14.4 C
3849 02-08-2016 08:40:00 15.3 C 95 % 14.5 C
3850 02-08-2016 08:45:00 15.3 C 95 % 14.5 C
Sensor: Nr:Datum:Temp:Feuchte:Taupunkt:
Aussen-T/F 3851 02-08-2016 08:50:00 15.4 C 95 % 14.6 C
3852 02-08-2016 08:55:00 15.4 C 95 % 14.6 C
3853 02-08-2016 09:00:00 15.5 C 95 % 14.7 C
3854 02-08-2016 09:05:00 15.6 C 95 % 14.8 C
3855 02-08-2016 09:10:00 15.7 C 95 % 14.9 C
3856 02-08-2016 09:15:00 15.7 C 95 % 14.9 C
3857 02-08-2016 09:20:00 15.7 C 95 % 14.9 C
3858 02-08-2016 09:25:00 15.7 C 95 % 14.9 C
3859 02-08-2016 09:30:00 15.8 C 95 % 15 C
3860 02-08-2016 09:35:00 15.8 C 95 % 15 C
3861 02-08-2016 09:40:00 15.8 C 95 % 15 C
3862 02-08-2016 09:45:00 15.8 C 95 % 15 C
3863 02-08-2016 09:50:00 15.8 C 95 % 15 C
3864 02-08-2016 09:55:00 15.8 C 95 % 15 C
3865 02-08-2016 10:00:00 15.9 C 95 % 15.1 C
3866 02-08-2016 10:05:00 15.9 C 95 % 15.1 C
3867 02-08-2016 10:10:00 15.8 C 95 % 15 C
3868 02-08-2016 10:15:00 15.8 C 95 % 15 C
3869 02-08-2016 10:20:00 15.9 C 95 % 15.1 C
3870 02-08-2016 10:25:00 15.9 C 95 % 15.1 C
3871 02-08-2016 10:30:00 15.8 C 95 % 15 C
3872 02-08-2016 10:35:00 15.8 C 95 % 15 C
3873 02-08-2016 10:40:00 15.9 C 95 % 15.1 C
3874 02-08-2016 10:45:00 15.9 C 95 % 15.1 C
3875 02-08-2016 10:50:00 15.8 C 94 % 14.84 C